Time,TemperatureF,DewpointF,PressureIn,WindDirection,WindDirectionDegrees,WindSpeedMPH,WindSpeedGustMPH,Humidity,HourlyPrecipIn,Conditions,Clouds,dailyrainin,SoftwareType,DateUTC
2013-01-12 00:00:00,27.4,24.3,30.56,ESE,112,0.7,0.7,88,0.00,,---,0.00,VWS V14.01,2013-01-12 08:00:00,
2013-01-12 00:01:00,27.4,24.3,30.56,ESE,112,1.1,1.1,88,0.00,,---,0.00,VWS V14.01,2013-01-12 08:01:00,
2013-01-12 00:02:00,27.4,24.3,30.56,ESE,112,0.7,1.1,88,0.00,,---,0.00,VWS V14.01,2013-01-12 08:02:00,
2013-01-12 00:03:00,27.4,24.3,30.56,ESE,112,0.2,0.7,88,0.00,,---,0.00,VWS V14.01,2013-01-12 08:03:00,
2013-01-12 00:04:00,27.4,24.3,30.56,ESE,112,1.1,1.1,88,0.00,,---,0.00,VWS V14.01,2013-01-12 08:04:00,
2013-01-12 00:05:00,27.4,24.3,30.55,ESE,112,0.0,0.0,88,0.00,,---,0.00,VWS V14.01,2013-01-12 08:05:00,
2013-01-12 00:06:00,27.4,24.3,30.56,ESE,112,2.0,2.0,88,0.00,,---,0.00,VWS V14.01,2013-01-12 08:06:00,
2013-01-12 00:07:00,27.4,24.3,30.55,ESE,112,1.8,2.0,88,0.00,,---,0.00,VWS V14.01,2013-01-12 08:07:00,
2013-01-12 00:08:00,27.5,24.4,30.55,ESE,112,0.7,1.8,88,0.00,,---,0.00,VWS V14.01,2013-01-12 08:08:00,
2013-01-12 00:09:00,27.5,24.4,30.56,ESE,112,0.4,0.7,88,0.00,,---,0.00,VWS V14.01,2013-01-12 08:09:00,
2013-01-12 00:10:00,27.5,24.4,30.55,ESE,112,0.4,0.9,88,0.00,,---,0.00,VWS V14.01,2013-01-12 08:10:00,
2013-01-12 00:11:00,27.5,24.4,30.55,ESE,112,0.0,0.9,88,0.00,,---,0.00,VWS V14.01,2013-01-12 08:11:00,
2013-01-12 00:12:00,27.5,24.4,30.56,ESE,112,0.0,0.0,88,0.00,,---,0.00,VWS V14.01,2013-01-12 08:12:00,
2013-01-12 00:13:00,27.5,24.4,30.56,ESE,112,1.8,1.8,88,0.00,,---,0.00,VWS V14.01,2013-01-12 08:13:00,
2013-01-12 00:14:00,27.5,24.1,30.56,ESE,112,1.3,1.8,87,0.00,,---,0.00,VWS V14.01,2013-01-12 08:14:00,
2013-01-12 00:15:00,27.5,24.1,30.55,ESE,112,0.4,0.4,87,0.00,,---,0.00,VWS V14.01,2013-01-12 08:15:00,
2013-01-12 00:16:00,27.5,24.1,30.56,ESE,112,0.9,0.9,87,0.00,,---,0.00,VWS V14.01,2013-01-12 08:16:00,
2013-01-12 00:17:00,27.7,24.3,30.56,ESE,112,1.1,1.1,87,0.00,,---,0.00,VWS V14.01,2013-01-12 08:17:00,
2013-01-12 00:18:00,27.7,24.6,30.56,ESE,112,1.1,1.3,88,0.00,,---,0.00,VWS V14.01,2013-01-12 08:18:00,
2013-01-12 00:19:00,27.7,24.3,30.56,ESE,112,1.1,1.6,87,0.00,,---,0.00,VWS V14.01,2013-01-12 08:19:00,
2013-01-12 00:20:00,27.7,24.6,30.56,ESE,112,0.9,1.8,88,0.00,,---,0.00,VWS V14.01,2013-01-12 08:20:00,
2013-01-12 00:21:00,27.7,24.3,30.56,ESE,112,0.9,1.8,87,0.00,,---,0.00,VWS V14.01,2013-01-12 08:21:00,
2013-01-12 00:22:00,27.7,24.3,30.56,ESE,112,1.1,1.1,87,0.00,,---,0.00,VWS V14.01,2013-01-12 08:22:00,
2013-01-12 00:23:00,27.7,24.3,30.56,ESE,112,1.1,1.6,87,0.00,,---,0.00,VWS V14.01,2013-01-12 08:23:00,
2013-01-12 00:24:00,27.7,24.3,30.56,ESE,112,1.3,1.3,87,0.00,,---,0.00,VWS V14.01,2013-01-12 08:24:00,
2013-01-12 00:25:00,27.7,24.3,30.56,ESE,112,1.1,1.1,87,0.00,,---,0.00,VWS V14.01,2013-01-12 08:25:00,
2013-01-12 00:26:00,27.7,24.3,30.56,ESE,112,0.7,1.1,87,0.00,,---,0.00,VWS V14.01,2013-01-12 08:26:00,
2013-01-12 00:27:00,27.7,24.3,30.56,ESE,112,1.1,1.1,87,0.00,,---,0.00,VWS V14.01,2013-01-12 08:27:00,
2013-01-12 00:28:00,27.7,24.3,30.56,ESE,112,2.0,2.0,87,0.00,,---,0.00,VWS V14.01,2013-01-12 08:28:00,
2013-01-12 00:29:00,27.7,24.3,30.56,ESE,112,0.4,2.0,87,0.00,,---,0.00,VWS V14.01,2013-01-12 08:29:00,
2013-01-12 00:30:00,27.7,24.3,30.56,ESE,112,1.6,1.6,87,0.00,,---,0.00,VWS V14.01,2013-01-12 08:30:00,
2013-01-12 00:31:00,27.7,24.3,30.56,ESE,112,0.7,1.6,87,0.00,,---,0.00,VWS V14.01,2013-01-12 08:31:00,
2013-01-12 00:32:00,27.7,24.3,30.56,ESE,112,0.4,0.9,87,0.00,,---,0.00,VWS V14.01,2013-01-12 08:32:00,
2013-01-12 00:33:00,27.7,24.3,30.56,ESE,112,0.9,0.9,87,0.00,,---,0.00,VWS V14.01,2013-01-12 08:33:00,
2013-01-12 00:34:00,27.7,24.3,30.56,ESE,112,0.9,0.9,87,0.00,,---,0.00,VWS V14.01,2013-01-12 08:34:00,
2013-01-12 00:35:00,27.7,24.3,30.56,ESE,112,1.3,1.3,87,0.00,,---,0.00,VWS V14.01,2013-01-12 08:35:00,
2013-01-12 00:36:00,27.7,24.3,30.56,ESE,112,0.9,1.3,87,0.00,,---,0.00,VWS V14.01,2013-01-12 08:36:00,
2013-01-12 00:37:00,27.7,24.3,30.56,ESE,112,1.6,1.6,87,0.00,,---,0.00,VWS V14.01,2013-01-12 08:37:00,
2013-01-12 00:38:00,27.7,24.3,30.56,ESE,112,0.9,1.6,87,0.00,,---,0.00,VWS V14.01,2013-01-12 08:38:00,
2013-01-12 00:39:00,27.7,24.3,30.56,ESE,112,0.0,0.9,87,0.00,,---,0.00,VWS V14.01,2013-01-12 08:39:00,
2013-01-12 00:40:00,27.7,24.3,30.56,ESE,112,0.0,0.0,87,0.00,,---,0.00,VWS V14.01,2013-01-12 08:40:00,
2013-01-12 00:41:00,27.7,24.3,30.56,ESE,112,0.7,0.7,87,0.00,,---,0.00,VWS V14.01,2013-01-12 08:41:00,
2013-01-12 00:42:00,27.7,24.3,30.56,ESE,112,0.4,0.7,87,0.00,,---,0.00,VWS V14.01,2013-01-12 08:42:00,
2013-01-12 00:43:00,27.7,24.3,30.56,ESE,112,0.0,0.4,87,0.00,,---,0.00,VWS V14.01,2013-01-12 08:43:00,
2013-01-12 00:44:00,27.7,24.3,30.56,ESE,112,0.2,0.2,87,0.00,,---,0.00,VWS V14.01,2013-01-12 08:44:00,
2013-01-12 00:45:00,27.7,24.3,30.56,ESE,112,0.4,0.4,87,0.00,,---,0.00,VWS V14.01,2013-01-12 08:45:00,
2013-01-12 00:46:00,27.7,24.3,30.56,ESE,112,0.4,0.4,87,0.00,,---,0.00,VWS V14.01,2013-01-12 08:46:00,
2013-01-12 00:47:00,27.7,24.3,30.56,ESE,112,0.0,0.4,87,0.00,,---,0.00,VWS V14.01,2013-01-12 08:47:00,
2013-01-12 00:48:00,27.7,24.3,30.56,ESE,112,0.0,0.0,87,0.00,,---,0.00,VWS V14.01,2013-01-12 08:48:00,
2013-01-12 00:49:00,27.7,24.3,30.56,ESE,112,0.4,0.4,87,0.00,,---,0.00,VWS V14.01,2013-01-12 08:49:00,
2013-01-12 00:50:00,27.5,24.1,30.56,ESE,112,0.0,0.0,87,0.00,,---,0.00,VWS V14.01,2013-01-12 08:50:00,
2013-01-12 00:51:00,27.5,24.1,30.56,ESE,112,0.0,0.0,87,0.00,,---,0.00,VWS V14.01,2013-01-12 08:51:00,
2013-01-12 00:52:00,27.5,24.1,30.56,ESE,112,0.0,0.0,87,0.00,,---,0.00,VWS V14.01,2013-01-12 08:52:00,
2013-01-12 00:53:00,27.5,24.1,30.56,ESE,112,0.0,0.0,87,0.00,,---,0.00,VWS V14.01,2013-01-12 08:53:00,
2013-01-12 00:54:00,27.5,24.1,30.56,ESE,112,0.0,0.0,87,0.00,,---,0.00,VWS V14.01,2013-01-12 08:54:00,
2013-01-12 00:55:00,27.5,24.1,30.56,ESE,112,0.0,0.0,87,0.00,,---,0.00,VWS V14.01,2013-01-12 08:55:00,
2013-01-12 00:56:00,27.5,24.1,30.56,ESE,112,0.0,0.0,87,0.00,,---,0.00,VWS V14.01,2013-01-12 08:56:00,
2013-01-12 00:57:00,27.5,24.1,30.56,ESE,112,0.0,0.0,87,0.00,,---,0.00,VWS V14.01,2013-01-12 08:57:00,
2013-01-12 00:58:00,27.5,24.1,30.56,ESE,112,0.0,0.0,87,0.00,,---,0.00,VWS V14.01,2013-01-12 08:58:00,
2013-01-12 00:59:00,27.4,24.0,30.56,ESE,112,0.0,0.0,87,0.00,,---,0.00,VWS V14.01,2013-01-12 08:59:00,
2013-01-12 01:00:00,27.4,24.0,30.56,ESE,112,0.0,0.0,87,0.00,,---,0.00,VWS V14.01,2013-01-12 09:00:00,
2013-01-12 01:01:00,27.4,24.0,30.56,ESE,112,0.0,0.0,87,0.00,,---,0.00,VWS V14.01,2013-01-12 09:01:00,
2013-01-12 01:02:00,27.4,24.0,30.56,ESE,112,0.4,0.4,87,0.00,,---,0.00,VWS V14.01,2013-01-12 09:02:00,
2013-01-12 01:03:00,27.4,24.0,30.56,ESE,112,0.2,0.4,87,0.00,,---,0.00,VWS V14.01,2013-01-12 09:03:00,
2013-01-12 01:04:00,27.4,24.0,30.56,ESE,112,0.7,0.7,87,0.00,,---,0.00,VWS V14.01,2013-01-12 09:04:00,
2013-01-12 01:05:00,27.2,23.9,30.56,ESE,112,0.4,0.4,87,0.00,,---,0.00,VWS V14.01,2013-01-12 09:05:00,
2013-01-12 01:06:00,27.2,23.9,30.56,ESE,112,0.0,0.4,87,0.00,,---,0.00,VWS V14.01,2013-01-12 09:06:00,
2013-01-12 01:07:00,27.2,23.9,30.56,ESE,112,0.4,0.4,87,0.00,,---,0.00,VWS V14.01,2013-01-12 09:07:00,
2013-01-12 01:08:00,27.2,23.9,30.56,ESE,112,0.2,0.4,87,0.00,,---,0.00,VWS V14.01,2013-01-12 09:08:00,
2013-01-12 01:09:00,27.2,24.1,30.56,ESE,112,0.7,0.7,88,0.00,,---,0.00,VWS V14.01,2013-01-12 09:09:00,
2013-01-12 01:10:00,27.2,24.1,30.56,ESE,112,0.0,0.0,88,0.00,,---,0.00,VWS V14.01,2013-01-12 09:10:00,
2013-01-12 01:11:00,27.2,24.1,30.56,ESE,112,0.0,0.0,88,0.00,,---,0.00,VWS V14.01,2013-01-12 09:11:00,
2013-01-12 01:12:00,27.2,24.1,30.56,ESE,112,0.0,0.0,88,0.00,,---,0.00,VWS V14.01,2013-01-12 09:12:00,
2013-01-12 01:13:00,27.2,24.1,30.56,ESE,112,0.0,0.0,88,0.00,,---,0.00,VWS V14.01,2013-01-12 09:13:00,
2013-01-12 01:14:00,27.2,24.1,30.56,ESE,112,0.0,0.0,88,0.00,,---,0.00,VWS V14.01,2013-01-12 09:14:00,
2013-01-12 01:15:00,27.2,24.1,30.56,ESE,112,1.1,1.1,88,0.00,,---,0.00,VWS V14.01,2013-01-12 09:15:00,
2013-01-12 01:16:00,27.2,24.1,30.56,ESE,112,0.4,1.1,88,0.00,,---,0.00,VWS V14.01,2013-01-12 09:16:00,
2013-01-12 01:17:00,27.2,24.1,30.56,ESE,112,0.0,0.4,88,0.00,,---,0.00,VWS V14.01,2013-01-12 09:17:00,
2013-01-12 01:18:00,27.0,23.9,30.56,ESE,112,0.0,0.0,88,0.00,,---,0.00,VWS V14.01,2013-01-12 09:18:00,
2013-01-12 01:19:00,27.0,23.9,30.56,ESE,112,0.0,0.0,88,0.00,,---,0.00,VWS V14.01,2013-01-12 09:19:00,
2013-01-12 01:20:00,27.0,23.9,30.56,ESE,112,0.4,0.4,88,0.00,,---,0.00,VWS V14.01,2013-01-12 09:20:00,
2013-01-12 01:21:00,27.0,23.9,30.56,ESE,112,0.4,0.4,88,0.00,,---,0.00,VWS V14.01,2013-01-12 09:21:00,
2013-01-12 01:22:00,27.0,23.9,30.56,ESE,112,0.0,0.4,88,0.00,,---,0.00,VWS V14.01,2013-01-12 09:22:00,
2013-01-12 01:23:00,27.0,23.9,30.56,ESE,112,0.0,0.0,88,0.00,,---,0.00,VWS V14.01,2013-01-12 09:23:00,
2013-01-12 01:24:00,27.0,23.9,30.56,ESE,112,0.0,0.0,88,0.00,,---,0.00,VWS V14.01,2013-01-12 09:24:00,
2013-01-12 01:25:00,27.0,23.9,30.56,ESE,112,0.0,0.0,88,0.00,,---,0.00,VWS V14.01,2013-01-12 09:25:00,
2013-01-12 01:26:00,27.0,23.9,30.56,ESE,112,0.0,0.0,88,0.00,,---,0.00,VWS V14.01,2013-01-12 09:26:00,
2013-01-12 01:27:00,27.0,23.9,30.56,ESE,112,0.0,0.0,88,0.00,,---,0.00,VWS V14.01,2013-01-12 09:27:00,
2013-01-12 01:28:00,27.0,23.9,30.56,ESE,112,0.0,0.0,88,0.00,,---,0.00,VWS V14.01,2013-01-12 09:28:00,
2013-01-12 01:29:00,27.0,23.9,30.56,ESE,112,0.4,0.4,88,0.00,,---,0.00,VWS V14.01,2013-01-12 09:29:00,
2013-01-12 01:30:00,27.0,23.9,30.56,ESE,112,0.0,0.0,88,0.00,,---,0.00,VWS V14.01,2013-01-12 09:30:00,
2013-01-12 01:31:00,27.0,23.9,30.56,ESE,112,0.4,0.4,88,0.00,,---,0.00,VWS V14.01,2013-01-12 09:31:00,
2013-01-12 01:32:00,27.0,23.9,30.56,ESE,112,0.4,0.4,88,0.00,,---,0.00,VWS V14.01,2013-01-12 09:32:00,
2013-01-12 01:33:00,27.0,23.9,30.56,ESE,112,0.4,0.4,88,0.00,,---,0.00,VWS V14.01,2013-01-12 09:33:00,
2013-01-12 01:34:00,26.8,23.7,30.56,ESE,112,0.4,0.4,88,0.00,,---,0.00,VWS V14.01,2013-01-12 09:34:00,
2013-01-12 01:35:00,26.8,23.7,30.56,ESE,112,0.4,0.4,88,0.00,,---,0.00,VWS V14.01,2013-01-12 09:35:00,
2013-01-12 01:36:00,26.8,23.7,30.56,ESE,112,0.4,0.4,88,0.00,,---,0.00,VWS V14.01,2013-01-12 09:36:00,
2013-01-12 01:37:00,26.8,23.7,30.56,ESE,112,0.0,0.4,88,0.00,,---,0.00,VWS V14.01,2013-01-12 09:37:00,
2013-01-12 01:38:00,26.8,23.7,30.56,ESE,112,0.0,0.0,88,0.00,,---,0.00,VWS V14.01,2013-01-12 09:38:00,
2013-01-12 01:39:00,26.8,23.7,30.56,ESE,112,0.0,0.0,88,0.00,,---,0.00,VWS V14.01,2013-01-12 09:39:00,
2013-01-12 01:40:00,26.8,23.7,30.56,ESE,112,0.0,0.4,88,0.00,,---,0.00,VWS V14.01,2013-01-12 09:40:00,
2013-01-12 01:41:00,26.8,23.7,30.56,ESE,112,0.0,0.4,88,0.00,,---,0.00,VWS V14.01,2013-01-12 09:41:00,
2013-01-12 01:42:00,26.8,23.7,30.56,ESE,112,0.0,0.0,88,0.00,,---,0.00,VWS V14.01,2013-01-12 09:42:00,
2013-01-12 01:43:00,26.8,23.7,30.56,ESE,112,0.0,0.0,88,0.00,,---,0.00,VWS V14.01,2013-01-12 09:43:00,
2013-01-12 01:44:00,26.8,23.7,30.56,ESE,112,0.0,0.0,88,0.00,,---,0.00,VWS V14.01,2013-01-12 09:44:00,
2013-01-12 01:45:00,26.8,23.7,30.56,ESE,112,0.2,0.2,88,0.00,,---,0.00,VWS V14.01,2013-01-12 09:45:00,
2013-01-12 01:46:00,26.8,23.7,30.56,ESE,112,0.0,0.2,88,0.00,,---,0.00,VWS V14.01,2013-01-12 09:46:00,
2013-01-12 01:47:00,26.8,23.7,30.56,ESE,112,0.0,0.0,88,0.00,,---,0.00,VWS V14.01,2013-01-12 09:47:00,
2013-01-12 01:48:00,26.8,23.7,30.56,ESE,112,0.0,0.0,88,0.00,,---,0.00,VWS V14.01,2013-01-12 09:48:00,
2013-01-12 01:49:00,26.8,23.7,30.56,ESE,112,0.0,0.0,88,0.00,,---,0.00,VWS V14.01,2013-01-12 09:49:00,
2013-01-12 01:50:00,26.8,23.7,30.56,ESE,112,0.0,0.0,88,0.00,,---,0.00,VWS V14.01,2013-01-12 09:50:00,
2013-01-12 01:51:00,26.8,23.7,30.56,ESE,112,0.0,0.0,88,0.00,,---,0.00,VWS V14.01,2013-01-12 09:51:00,
2013-01-12 01:52:00,26.8,23.7,30.56,ESE,112,0.0,0.0,88,0.00,,---,0.00,VWS V14.01,2013-01-12 09:52:00,
2013-01-12 01:53:00,26.8,23.7,30.56,ESE,112,0.0,0.0,88,0.00,,---,0.00,VWS V14.01,2013-01-12 09:53:00,
2013-01-12 01:54:00,26.8,23.7,30.56,ESE,112,0.4,0.7,88,0.00,,---,0.00,VWS V14.01,2013-01-12 09:54:00,
2013-01-12 01:55:00,26.8,23.7,30.56,ESE,112,0.4,0.4,88,0.00,,---,0.00,VWS V14.01,2013-01-12 09:55:00,
2013-01-12 01:56:00,26.8,23.7,30.56,ESE,112,0.0,0.4,88,0.00,,---,0.00,VWS V14.01,2013-01-12 09:56:00,
2013-01-12 01:57:00,26.8,23.7,30.56,ESE,112,0.0,0.0,88,0.00,,---,0.00,VWS V14.01,2013-01-12 09:57:00,
2013-01-12 01:58:00,26.8,23.7,30.56,ESE,112,0.0,0.0,88,0.00,,---,0.00,VWS V14.01,2013-01-12 09:58:00,
2013-01-12 01:59:00,26.8,23.7,30.56,ESE,112,0.0,0.0,88,0.00,,---,0.00,VWS V14.01,2013-01-12 09:59:00,
2013-01-12 02:00:00,26.8,23.7,30.56,ESE,112,0.0,0.0,88,0.00,,---,0.00,VWS V14.01,2013-01-12 10:00:00,
2013-01-12 02:01:00,26.8,23.7,30.56,ESE,112,0.0,0.0,88,0.00,,---,0.00,VWS V14.01,2013-01-12 10:01:00,
2013-01-12 02:02:00,26.8,23.7,30.56,ESE,112,0.2,0.2,88,0.00,,---,0.00,VWS V14.01,2013-01-12 10:02:00,
2013-01-12 02:03:00,26.8,23.7,30.56,ESE,112,0.2,0.2,88,0.00,,---,0.00,VWS V14.01,2013-01-12 10:03:00,
2013-01-12 02:04:00,26.8,23.7,30.56,ESE,112,0.0,0.2,88,0.00,,---,0.00,VWS V14.01,2013-01-12 10:04:00,
2013-01-12 02:05:00,26.8,23.7,30.56,ESE,112,0.0,0.0,88,0.00,,---,0.00,VWS V14.01,2013-01-12 10:05:00,
2013-01-12 02:06:00,27.0,23.9,30.56,ESE,112,0.0,0.0,88,0.00,,---,0.00,VWS V14.01,2013-01-12 10:06:00,
2013-01-12 02:07:00,26.8,23.7,30.56,ESE,112,0.0,0.0,88,0.00,,---,0.00,VWS V14.01,2013-01-12 10:07:00,
2013-01-12 02:08:00,26.8,23.7,30.56,ESE,112,0.0,0.0,88,0.00,,---,0.00,VWS V14.01,2013-01-12 10:08:00,
2013-01-12 02:09:00,27.0,23.9,30.56,ESE,112,0.0,0.0,88,0.00,,---,0.00,VWS V14.01,2013-01-12 10:09:00,
2013-01-12 02:10:00,27.0,23.9,30.56,ESE,112,0.0,0.0,88,0.00,,---,0.00,VWS V14.01,2013-01-12 10:10:00,
2013-01-12 02:11:00,27.0,23.9,30.56,ESE,112,0.0,0.0,88,0.00,,---,0.00,VWS V14.01,2013-01-12 10:11:00,
2013-01-12 02:12:00,27.0,23.9,30.56,ESE,112,0.0,0.0,88,0.00,,---,0.00,VWS V14.01,2013-01-12 10:12:00,
2013-01-12 02:13:00,27.0,23.9,30.56,ESE,112,0.0,0.0,88,0.00,,---,0.00,VWS V14.01,2013-01-12 10:13:00,
2013-01-12 02:14:00,27.0,23.9,30.56,ESE,112,0.0,0.0,88,0.00,,---,0.00,VWS V14.01,2013-01-12 10:14:00,
2013-01-12 02:15:00,27.0,23.9,30.56,ESE,112,0.0,0.0,88,0.00,,---,0.00,VWS V14.01,2013-01-12 10:15:00,
2013-01-12 02:16:00,27.0,23.9,30.56,ESE,112,0.0,0.0,88,0.00,,---,0.00,VWS V14.01,2013-01-12 10:16:00,
2013-01-12 02:17:00,27.0,23.9,30.56,ESE,112,0.0,0.0,88,0.00,,---,0.00,VWS V14.01,2013-01-12 10:17:00,
2013-01-12 02:18:00,27.0,23.9,30.56,ESE,112,0.0,0.0,88,0.00,,---,0.00,VWS V14.01,2013-01-12 10:18:00,
2013-01-12 02:19:00,27.0,23.9,30.56,ESE,112,0.0,0.0,88,0.00,,---,0.00,VWS V14.01,2013-01-12 10:19:00,
2013-01-12 02:20:00,27.0,23.9,30.56,ESE,112,0.0,0.0,88,0.00,,---,0.00,VWS V14.01,2013-01-12 10:20:00,
2013-01-12 02:21:00,27.0,23.9,30.56,ESE,112,0.0,0.0,88,0.00,,---,0.00,VWS V14.01,2013-01-12 10:21:00,
2013-01-12 02:22:00,27.0,23.9,30.56,ESE,112,0.0,0.0,88,0.00,,---,0.00,VWS V14.01,2013-01-12 10:22:00,
2013-01-12 02:23:00,27.0,23.9,30.56,ESE,112,0.0,0.0,88,0.00,,---,0.00,VWS V14.01,2013-01-12 10:23:00,
2013-01-12 02:24:00,27.0,23.9,30.56,ESE,112,0.0,0.0,88,0.00,,---,0.00,VWS V14.01,2013-01-12 10:24:00,
2013-01-12 02:25:00,27.0,23.9,30.56,ESE,112,0.2,0.2,88,0.00,,---,0.00,VWS V14.01,2013-01-12 10:25:00,
2013-01-12 02:26:00,27.0,23.9,30.56,ESE,112,0.0,0.2,88,0.00,,---,0.00,VWS V14.01,2013-01-12 10:26:00,
2013-01-12 02:27:00,27.0,23.9,30.56,ESE,112,0.4,0.4,88,0.00,,---,0.00,VWS V14.01,2013-01-12 10:27:00,
2013-01-12 02:28:00,27.0,23.9,30.56,ESE,112,0.2,0.4,88,0.00,,---,0.00,VWS V14.01,2013-01-12 10:28:00,
2013-01-12 02:29:00,27.0,23.9,30.56,ESE,112,1.3,1.3,88,0.00,,---,0.00,VWS V14.01,2013-01-12 10:29:00,
2013-01-12 02:30:00,27.0,23.9,30.56,ESE,112,1.3,1.3,88,0.00,,---,0.00,VWS V14.01,2013-01-12 10:30:00,
2013-01-12 02:31:00,27.2,24.1,30.56,ESE,112,0.0,1.3,88,0.00,,---,0.00,VWS V14.01,2013-01-12 10:31:00,
2013-01-12 02:32:00,27.2,24.1,30.56,ESE,112,0.0,0.0,88,0.00,,---,0.00,VWS V14.01,2013-01-12 10:32:00,
2013-01-12 02:33:00,27.2,24.1,30.56,ESE,112,0.0,0.0,88,0.00,,---,0.00,VWS V14.01,2013-01-12 10:33:00,
2013-01-12 02:34:00,27.2,24.1,30.56,ESE,112,0.2,0.2,88,0.00,,---,0.00,VWS V14.01,2013-01-12 10:34:00,
2013-01-12 02:35:00,27.2,23.9,30.56,ESE,112,0.0,0.0,87,0.00,,---,0.00,VWS V14.01,2013-01-12 10:35:00,
2013-01-12 02:36:00,27.2,24.1,30.56,ESE,112,1.1,1.1,88,0.00,,---,0.00,VWS V14.01,2013-01-12 10:36:00,
2013-01-12 02:37:00,27.2,24.1,30.56,ESE,112,1.3,1.3,88,0.00,,---,0.00,VWS V14.01,2013-01-12 10:37:00,
2013-01-12 02:38:00,27.2,24.1,30.57,ESE,112,0.9,1.8,88,0.00,,---,0.00,VWS V14.01,2013-01-12 10:38:00,
2013-01-12 02:39:00,27.2,24.1,30.56,ESE,112,0.0,0.9,88,0.00,,---,0.00,VWS V14.01,2013-01-12 10:39:00,
2013-01-12 02:40:00,27.4,24.3,30.56,ESE,112,0.0,0.0,88,0.00,,---,0.00,VWS V14.01,2013-01-12 10:40:00,
2013-01-12 02:41:00,27.4,24.3,30.57,ESE,112,0.0,0.0,88,0.00,,---,0.00,VWS V14.01,2013-01-12 10:41:00,
2013-01-12 02:42:00,27.4,24.3,30.56,ESE,112,0.2,0.2,88,0.00,,---,0.00,VWS V14.01,2013-01-12 10:42:00,
2013-01-12 02:43:00,27.4,24.3,30.57,ESE,112,0.0,0.4,88,0.00,,---,0.00,VWS V14.01,2013-01-12 10:43:00,
2013-01-12 02:44:00,27.4,24.3,30.57,ESE,112,0.2,1.8,88,0.00,,---,0.00,VWS V14.01,2013-01-12 10:44:00,
2013-01-12 02:45:00,27.4,24.0,30.57,ESE,112,1.1,1.1,87,0.00,,---,0.00,VWS V14.01,2013-01-12 10:45:00,
2013-01-12 02:46:00,27.4,24.0,30.57,ESE,112,1.1,1.8,87,0.00,,---,0.00,VWS V14.01,2013-01-12 10:46:00,
2013-01-12 02:47:00,27.4,24.0,30.57,ESE,112,1.1,1.1,87,0.00,,---,0.00,VWS V14.01,2013-01-12 10:47:00,
2013-01-12 02:48:00,27.4,24.0,30.57,ESE,112,0.7,1.1,87,0.00,,---,0.00,VWS V14.01,2013-01-12 10:48:00,
2013-01-12 02:49:00,27.4,24.0,30.57,ESE,112,0.4,0.4,87,0.00,,---,0.00,VWS V14.01,2013-01-12 10:49:00,
2013-01-12 02:50:00,27.4,24.0,30.57,ESE,112,0.4,1.1,87,0.00,,---,0.00,VWS V14.01,2013-01-12 10:50:00,
2013-01-12 02:51:00,27.4,24.0,30.57,ESE,112,0.2,0.4,87,0.00,,---,0.00,VWS V14.01,2013-01-12 10:51:00,
2013-01-12 02:52:00,27.4,24.0,30.57,ESE,112,0.4,0.4,87,0.00,,---,0.00,VWS V14.01,2013-01-12 10:52:00,
2013-01-12 02:53:00,27.4,24.0,30.57,ESE,112,0.4,1.1,87,0.00,,---,0.00,VWS V14.01,2013-01-12 10:53:00,
2013-01-12 02:54:00,27.4,24.0,30.57,ESE,112,0.0,0.0,87,0.00,,---,0.00,VWS V14.01,2013-01-12 10:54:00,
2013-01-12 02:55:00,27.4,24.0,30.57,ESE,112,0.0,0.0,87,0.00,,---,0.00,VWS V14.01,2013-01-12 10:55:00,
2013-01-12 02:56:00,27.4,24.0,30.57,ESE,112,0.0,0.0,87,0.00,,---,0.00,VWS V14.01,2013-01-12 10:56:00,
2013-01-12 02:57:00,27.4,24.0,30.57,ESE,112,0.0,0.0,87,0.00,,---,0.00,VWS V14.01,2013-01-12 10:57:00,
2013-01-12 02:58:00,27.4,24.0,30.57,ESE,112,0.0,0.0,87,0.00,,---,0.00,VWS V14.01,2013-01-12 10:58:00,
2013-01-12 02:59:00,27.4,24.0,30.57,ESE,112,0.0,0.0,87,0.00,,---,0.00,VWS V14.01,2013-01-12 10:59:00,
2013-01-12 03:00:00,27.4,24.0,30.57,ESE,112,0.0,0.0,87,0.00,,---,0.00,VWS V14.01,2013-01-12 11:00:00,
2013-01-12 03:01:00,27.2,23.9,30.57,ESE,112,0.0,0.0,87,0.00,,---,0.00,VWS V14.01,2013-01-12 11:01:00,
2013-01-12 03:02:00,27.2,23.9,30.57,ESE,112,0.0,0.0,87,0.00,,---,0.00,VWS V14.01,2013-01-12 11:02:00,
2013-01-12 03:03:00,27.2,23.9,30.57,ESE,112,0.7,0.7,87,0.00,,---,0.00,VWS V14.01,2013-01-12 11:03:00,
2013-01-12 03:04:00,27.2,23.9,30.57,ESE,112,0.0,0.0,87,0.00,,---,0.00,VWS V14.01,2013-01-12 11:04:00,
2013-01-12 03:05:00,27.2,23.9,30.57,ESE,112,0.0,0.0,87,0.00,,---,0.00,VWS V14.01,2013-01-12 11:05:00,
2013-01-12 03:06:00,27.0,23.6,30.57,ESE,112,0.0,0.0,87,0.00,,---,0.00,VWS V14.01,2013-01-12 11:06:00,
2013-01-12 03:07:00,27.0,23.6,30.57,ESE,112,0.0,0.0,87,0.00,,---,0.00,VWS V14.01,2013-01-12 11:07:00,
2013-01-12 03:08:00,27.0,23.6,30.57,ESE,112,0.0,0.0,87,0.00,,---,0.00,VWS V14.01,2013-01-12 11:08:00,
2013-01-12 03:09:00,27.0,23.6,30.57,ESE,112,0.0,0.0,87,0.00,,---,0.00,VWS V14.01,2013-01-12 11:09:00,
2013-01-12 03:10:00,27.0,23.6,30.57,ESE,112,0.0,0.0,87,0.00,,---,0.00,VWS V14.01,2013-01-12 11:10:00,
2013-01-12 03:11:00,27.0,23.6,30.57,ESE,112,0.0,0.0,87,0.00,,---,0.00,VWS V14.01,2013-01-12 11:11:00,
2013-01-12 03:12:00,27.0,23.6,30.57,ESE,112,0.0,0.0,87,0.00,,---,0.00,VWS V14.01,2013-01-12 11:12:00,
2013-01-12 03:13:00,27.0,23.6,30.57,ESE,112,0.0,0.0,87,0.00,,---,0.00,VWS V14.01,2013-01-12 11:13:00,
2013-01-12 03:14:00,26.8,23.5,30.57,ESE,112,0.0,0.0,87,0.00,,---,0.00,VWS V14.01,2013-01-12 11:14:00,
2013-01-12 03:15:00,26.8,23.5,30.57,ESE,112,0.0,0.0,87,0.00,,---,0.00,VWS V14.01,2013-01-12 11:15:00,
2013-01-12 03:16:00,26.8,23.5,30.57,ESE,112,0.0,0.0,87,0.00,,---,0.00,VWS V14.01,2013-01-12 11:16:00,
2013-01-12 03:17:00,26.8,23.5,30.57,ESE,112,0.0,0.0,87,0.00,,---,0.00,VWS V14.01,2013-01-12 11:17:00,
2013-01-12 03:18:00,26.8,23.5,30.57,ESE,112,0.0,0.0,87,0.00,,---,0.00,VWS V14.01,2013-01-12 11:18:00,
2013-01-12 03:19:00,26.8,23.5,30.57,ESE,112,0.7,0.7,87,0.00,,---,0.00,VWS V14.01,2013-01-12 11:19:00,
2013-01-12 03:20:00,26.8,23.5,30.57,ESE,112,0.7,0.7,87,0.00,,---,0.00,VWS V14.01,2013-01-12 11:20:00,
2013-01-12 03:21:00,26.8,23.5,30.57,ESE,112,0.4,0.7,87,0.00,,---,0.00,VWS V14.01,2013-01-12 11:21:00,
2013-01-12 03:22:00,26.6,23.5,30.57,ESE,112,0.7,0.7,88,0.00,,---,0.00,VWS V14.01,2013-01-12 11:22:00,
2013-01-12 03:24:00,26.6,23.5,30.57,ESE,112,0.0,0.0,88,0.00,,---,0.00,VWS V14.01,2013-01-12 11:24:00,
2013-01-12 03:25:00,26.6,23.5,30.57,ESE,112,0.0,0.4,88,0.00,,---,0.00,VWS V14.01,2013-01-12 11:25:00,
2013-01-12 03:26:00,26.6,23.5,30.57,ESE,112,0.0,0.0,88,0.00,,---,0.00,VWS V14.01,2013-01-12 11:26:00,
2013-01-12 03:27:00,26.6,23.5,30.57,ESE,112,0.0,0.0,88,0.00,,---,0.00,VWS V14.01,2013-01-12 11:27:00,
2013-01-12 03:28:00,26.6,23.5,30.57,ESE,112,0.0,0.0,88,0.00,,---,0.00,VWS V14.01,2013-01-12 11:28:00,
2013-01-12 03:29:00,26.6,23.5,30.57,ESE,112,0.0,0.0,88,0.00,,---,0.00,VWS V14.01,2013-01-12 11:29:00,
2013-01-12 03:30:00,26.6,23.5,30.57,ESE,112,0.0,0.0,88,0.00,,---,0.00,VWS V14.01,2013-01-12 11:30:00,
2013-01-12 03:31:00,26.6,23.5,30.57,ESE,112,0.0,0.0,88,0.00,,---,0.00,VWS V14.01,2013-01-12 11:31:00,
2013-01-12 03:32:00,26.6,23.5,30.57,ESE,112,0.0,0.0,88,0.00,,---,0.00,VWS V14.01,2013-01-12 11:32:00,
2013-01-12 03:33:00,26.6,23.5,30.57,ESE,112,0.0,0.0,88,0.00,,---,0.00,VWS V14.01,2013-01-12 11:33:00,
2013-01-12 03:34:00,26.6,23.5,30.57,ESE,112,0.0,0.0,88,0.00,,---,0.00,VWS V14.01,2013-01-12 11:34:00,
2013-01-12 03:35:00,26.6,23.5,30.57,ESE,112,0.0,0.0,88,0.00,,---,0.00,VWS V14.01,2013-01-12 11:35:00,
2013-01-12 03:36:00,26.6,23.5,30.57,ESE,112,0.0,0.0,88,0.00,,---,0.00,VWS V14.01,2013-01-12 11:36:00,
2013-01-12 03:37:00,26.5,23.4,30.57,ESE,112,0.0,0.0,88,0.00,,---,0.00,VWS V14.01,2013-01-12 11:37:00,
2013-01-12 03:38:00,26.5,23.4,30.57,ESE,112,0.0,0.0,88,0.00,,---,0.00,VWS V14.01,2013-01-12 11:38:00,
2013-01-12 03:39:00,26.5,23.4,30.57,ESE,112,0.0,0.0,88,0.00,,---,0.00,VWS V14.01,2013-01-12 11:39:00,
2013-01-12 03:40:00,26.5,23.4,30.57,ESE,112,0.0,0.0,88,0.00,,---,0.00,VWS V14.01,2013-01-12 11:40:00,
2013-01-12 03:41:00,26.5,23.4,30.57,ESE,112,0.0,0.0,88,0.00,,---,0.00,VWS V14.01,2013-01-12 11:41:00,
2013-01-12 03:42:00,26.5,23.4,30.57,ESE,112,0.0,0.0,88,0.00,,---,0.00,VWS V14.01,2013-01-12 11:42:00,
2013-01-12 03:43:00,26.3,23.2,30.57,ESE,112,0.0,0.0,88,0.00,,---,0.00,VWS V14.01,2013-01-12 11:43:00,
2013-01-12 03:44:00,26.3,23.2,30.57,ESE,112,0.0,0.0,88,0.00,,---,0.00,VWS V14.01,2013-01-12 11:44:00,
2013-01-12 03:45:00,26.3,23.2,30.57,ESE,112,0.0,0.0,88,0.00,,---,0.00,VWS V14.01,2013-01-12 11:45:00,
2013-01-12 03:46:00,26.3,23.2,30.57,ESE,112,0.0,0.0,88,0.00,,---,0.00,VWS V14.01,2013-01-12 11:46:00,
2013-01-12 03:47:00,26.3,23.2,30.57,ESE,112,0.0,0.0,88,0.00,,---,0.00,VWS V14.01,2013-01-12 11:47:00,
2013-01-12 03:48:00,26.3,23.2,30.57,ESE,112,0.0,0.0,88,0.00,,---,0.00,VWS V14.01,2013-01-12 11:48:00,
2013-01-12 03:49:00,26.3,23.2,30.57,ESE,112,0.0,0.0,88,0.00,,---,0.00,VWS V14.01,2013-01-12 11:49:00,
2013-01-12 03:50:00,26.3,23.2,30.57,ESE,112,0.0,0.0,88,0.00,,---,0.00,VWS V14.01,2013-01-12 11:50:00,
2013-01-12 03:51:00,26.3,23.2,30.57,ESE,112,0.0,0.0,88,0.00,,---,0.00,VWS V14.01,2013-01-12 11:51:00,
2013-01-12 03:52:00,26.3,23.2,30.57,ESE,112,0.0,0.0,88,0.00,,---,0.00,VWS V14.01,2013-01-12 11:52:00,
2013-01-12 03:53:00,26.1,23.0,30.56,ESE,112,0.0,0.0,88,0.00,,---,0.00,VWS V14.01,2013-01-12 11:53:00,
2013-01-12 03:54:00,26.1,23.0,30.56,ESE,112,0.0,0.0,88,0.00,,---,0.00,VWS V14.01,2013-01-12 11:54:00,
2013-01-12 03:55:00,26.1,23.0,30.56,ESE,112,0.0,0.0,88,0.00,,---,0.00,VWS V14.01,2013-01-12 11:55:00,
2013-01-12 03:56:00,26.1,23.0,30.56,ESE,112,0.0,0.0,88,0.00,,---,0.00,VWS V14.01,2013-01-12 11:56:00,
2013-01-12 03:57:00,26.1,23.0,30.56,ESE,112,0.0,0.0,88,0.00,,---,0.00,VWS V14.01,2013-01-12 11:57:00,
2013-01-12 03:58:00,25.9,22.8,30.56,ESE,112,0.0,0.0,88,0.00,,---,0.00,VWS V14.01,2013-01-12 11:58:00,
2013-01-12 03:59:00,25.9,22.8,30.57,ESE,112,0.0,0.0,88,0.00,,---,0.00,VWS V14.01,2013-01-12 11:59:00,
2013-01-12 04:00:00,25.9,22.8,30.57,ESE,112,0.0,0.0,88,0.00,,---,0.00,VWS V14.01,2013-01-12 12:00:00,
2013-01-12 04:01:00,25.9,22.8,30.57,ESE,112,0.0,0.0,88,0.00,,---,0.00,VWS V14.01,2013-01-12 12:01:00,
2013-01-12 04:02:00,25.9,22.8,30.57,ESE,112,0.0,0.0,88,0.00,,---,0.00,VWS V14.01,2013-01-12 12:02:00,
2013-01-12 04:03:00,25.9,22.8,30.57,ESE,112,0.0,0.0,88,0.00,,---,0.00,VWS V14.01,2013-01-12 12:03:00,
2013-01-12 04:04:00,25.7,22.6,30.57,ESE,112,0.0,0.0,88,0.00,,---,0.00,VWS V14.01,2013-01-12 12:04:00,
2013-01-12 04:05:00,25.7,22.6,30.57,ESE,112,0.0,0.0,88,0.00,,---,0.00,VWS V14.01,2013-01-12 12:05:00,
2013-01-12 04:06:00,25.7,22.6,30.57,ESE,112,0.0,0.0,88,0.00,,---,0.00,VWS V14.01,2013-01-12 12:06:00,
2013-01-12 04:07:00,25.7,22.6,30.57,ESE,112,0.0,0.0,88,0.00,,---,0.00,VWS V14.01,2013-01-12 12:07:00,
2013-01-12 04:08:00,25.7,22.6,30.57,ESE,112,0.0,0.0,88,0.00,,---,0.00,VWS V14.01,2013-01-12 12:08:00,
2013-01-12 04:09:00,25.6,22.5,30.57,ESE,112,0.0,0.0,88,0.00,,---,0.00,VWS V14.01,2013-01-12 12:09:00,
2013-01-12 04:10:00,25.6,22.5,30.57,ESE,112,0.0,0.0,88,0.00,,---,0.00,VWS V14.01,2013-01-12 12:10:00,
2013-01-12 04:11:00,25.6,22.5,30.57,ESE,112,0.0,0.0,88,0.00,,---,0.00,VWS V14.01,2013-01-12 12:11:00,
2013-01-12 04:12:00,25.6,22.5,30.57,ESE,112,0.0,0.0,88,0.00,,---,0.00,VWS V14.01,2013-01-12 12:12:00,
2013-01-12 04:13:00,25.6,22.5,30.57,ESE,112,0.0,0.4,88,0.00,,---,0.00,VWS V14.01,2013-01-12 12:13:00,
2013-01-12 04:14:00,25.6,22.5,30.57,ESE,112,0.0,0.0,88,0.00,,---,0.00,VWS V14.01,2013-01-12 12:14:00,
2013-01-12 04:15:00,25.6,22.5,30.57,ESE,112,0.0,0.0,88,0.00,,---,0.00,VWS V14.01,2013-01-12 12:15:00,
2013-01-12 04:16:00,25.6,22.5,30.57,ESE,112,0.0,0.0,88,0.00,,---,0.00,VWS V14.01,2013-01-12 12:16:00,
2013-01-12 04:17:00,25.6,22.5,30.57,ESE,112,0.0,0.0,88,0.00,,---,0.00,VWS V14.01,2013-01-12 12:17:00,
2013-01-12 04:18:00,25.6,22.5,30.57,ESE,112,0.0,0.0,88,0.00,,---,0.00,VWS V14.01,2013-01-12 12:18:00,
2013-01-12 04:19:00,25.6,22.5,30.57,ESE,112,0.0,0.0,88,0.00,,---,0.00,VWS V14.01,2013-01-12 12:19:00,
2013-01-12 04:20:00,25.6,22.5,30.57,ESE,112,0.0,0.0,88,0.00,,---,0.00,VWS V14.01,2013-01-12 12:20:00,
2013-01-12 04:21:00,25.6,22.5,30.57,ESE,112,0.0,0.0,88,0.00,,---,0.00,VWS V14.01,2013-01-12 12:21:00,
2013-01-12 04:22:00,25.6,22.5,30.57,ESE,112,0.0,0.0,88,0.00,,---,0.00,VWS V14.01,2013-01-12 12:22:00,
2013-01-12 04:23:00,25.6,22.5,30.57,ESE,112,0.0,0.0,88,0.00,,---,0.00,VWS V14.01,2013-01-12 12:23:00,
2013-01-12 04:24:00,25.4,22.4,30.57,ESE,112,0.0,0.0,88,0.00,,---,0.00,VWS V14.01,2013-01-12 12:24:00,
2013-01-12 04:25:00,25.4,22.4,30.57,ESE,112,0.0,0.0,88,0.00,,---,0.00,VWS V14.01,2013-01-12 12:25:00,
2013-01-12 04:26:00,25.4,22.4,30.57,ESE,112,0.0,0.0,88,0.00,,---,0.00,VWS V14.01,2013-01-12 12:26:00,
2013-01-12 04:27:00,25.4,22.4,30.57,ESE,112,0.0,0.0,88,0.00,,---,0.00,VWS V14.01,2013-01-12 12:27:00,
2013-01-12 04:28:00,25.4,22.4,30.57,ESE,112,0.0,0.0,88,0.00,,---,0.00,VWS V14.01,2013-01-12 12:28:00,
2013-01-12 04:29:00,25.4,22.4,30.57,ESE,112,0.0,0.0,88,0.00,,---,0.00,VWS V14.01,2013-01-12 12:29:00,
2013-01-12 04:30:00,25.4,22.4,30.57,ESE,112,0.0,0.0,88,0.00,,---,0.00,VWS V14.01,2013-01-12 12:30:00,
2013-01-12 04:31:00,25.4,22.4,30.57,ESE,112,0.0,0.0,88,0.00,,---,0.00,VWS V14.01,2013-01-12 12:31:00,
2013-01-12 04:32:00,25.4,22.4,30.57,ESE,112,0.0,0.0,88,0.00,,---,0.00,VWS V14.01,2013-01-12 12:32:00,
2013-01-12 04:33:00,25.4,22.4,30.57,ESE,112,0.0,0.0,88,0.00,,---,0.00,VWS V14.01,2013-01-12 12:33:00,
2013-01-12 04:34:00,25.2,22.1,30.57,ESE,112,0.0,0.0,88,0.00,,---,0.00,VWS V14.01,2013-01-12 12:34:00,
2013-01-12 04:35:00,25.4,22.4,30.57,ESE,112,0.0,0.0,88,0.00,,---,0.00,VWS V14.01,2013-01-12 12:35:00,
2013-01-12 04:36:00,25.4,22.4,30.57,ESE,112,0.0,0.0,88,0.00,,---,0.00,VWS V14.01,2013-01-12 12:36:00,
2013-01-12 04:37:00,25.2,22.1,30.57,ESE,112,0.4,0.4,88,0.00,,---,0.00,VWS V14.01,2013-01-12 12:37:00,
2013-01-12 04:38:00,25.2,22.1,30.57,ESE,112,0.0,0.4,88,0.00,,---,0.00,VWS V14.01,2013-01-12 12:38:00,
2013-01-12 04:39:00,25.2,22.1,30.57,ESE,112,0.4,0.4,88,0.00,,---,0.00,VWS V14.01,2013-01-12 12:39:00,
2013-01-12 04:40:00,25.2,22.1,30.57,ESE,112,0.4,0.4,88,0.00,,---,0.00,VWS V14.01,2013-01-12 12:40:00,
2013-01-12 04:41:00,25.2,22.1,30.57,ESE,112,0.7,0.7,88,0.00,,---,0.00,VWS V14.01,2013-01-12 12:41:00,
2013-01-12 04:42:00,25.2,22.1,30.56,ESE,112,0.4,0.7,88,0.00,,---,0.00,VWS V14.01,2013-01-12 12:42:00,
2013-01-12 04:43:00,25.2,22.1,30.56,ESE,112,0.4,0.4,88,0.00,,---,0.00,VWS V14.01,2013-01-12 12:43:00,
2013-01-12 04:44:00,25.2,22.1,30.57,ESE,112,0.7,0.7,88,0.00,,---,0.00,VWS V14.01,2013-01-12 12:44:00,
2013-01-12 04:45:00,25.0,22.0,30.57,ESE,112,0.7,0.7,88,0.00,,---,0.00,VWS V14.01,2013-01-12 12:45:00,
2013-01-12 04:46:00,25.2,22.1,30.56,ESE,112,0.7,0.7,88,0.00,,---,0.00,VWS V14.01,2013-01-12 12:46:00,
2013-01-12 04:47:00,25.0,22.0,30.56,ESE,112,0.9,0.9,88,0.00,,---,0.00,VWS V14.01,2013-01-12 12:47:00,
2013-01-12 04:48:00,25.0,22.0,30.57,ESE,112,0.4,0.9,88,0.00,,---,0.00,VWS V14.01,2013-01-12 12:48:00,
2013-01-12 04:49:00,25.0,22.0,30.56,ESE,112,0.0,0.0,88,0.00,,---,0.00,VWS V14.01,2013-01-12 12:49:00,
2013-01-12 04:50:00,25.0,22.0,30.56,ESE,112,0.0,0.0,88,0.00,,---,0.00,VWS V14.01,2013-01-12 12:50:00,
2013-01-12 04:51:00,25.0,22.0,30.57,ESE,112,0.0,0.0,88,0.00,,---,0.00,VWS V14.01,2013-01-12 12:51:00,
2013-01-12 04:52:00,25.0,22.0,30.57,ESE,112,0.0,0.0,88,0.00,,---,0.00,VWS V14.01,2013-01-12 12:52:00,
2013-01-12 04:53:00,25.0,22.0,30.57,ESE,112,0.0,0.0,88,0.00,,---,0.00,VWS V14.01,2013-01-12 12:53:00,
2013-01-12 04:54:00,25.0,22.0,30.57,ESE,112,0.4,0.4,88,0.00,,---,0.00,VWS V14.01,2013-01-12 12:54:00,
2013-01-12 04:55:00,25.0,22.0,30.57,ESE,112,0.4,0.4,88,0.00,,---,0.00,VWS V14.01,2013-01-12 12:55:00,
2013-01-12 04:56:00,24.8,21.8,30.57,ESE,112,0.4,0.4,88,0.00,,---,0.00,VWS V14.01,2013-01-12 12:56:00,
2013-01-12 04:57:00,24.8,21.8,30.57,ESE,112,0.7,0.7,88,0.00,,---,0.00,VWS V14.01,2013-01-12 12:57:00,
2013-01-12 04:58:00,24.8,21.8,30.57,ESE,112,0.7,0.7,88,0.00,,---,0.00,VWS V14.01,2013-01-12 12:58:00,
2013-01-12 04:59:00,24.8,21.8,30.57,ESE,112,0.4,0.4,88,0.00,,---,0.00,VWS V14.01,2013-01-12 12:59:00,
2013-01-12 05:00:00,24.8,21.8,30.57,ESE,112,0.4,0.4,88,0.00,,---,0.00,VWS V14.01,2013-01-12 13:00:00,
2013-01-12 05:01:00,24.8,21.8,30.57,ESE,112,0.4,0.4,88,0.00,,---,0.00,VWS V14.01,2013-01-12 13:01:00,
2013-01-12 05:02:00,24.8,21.8,30.57,ESE,112,0.4,0.4,88,0.00,,---,0.00,VWS V14.01,2013-01-12 13:02:00,
2013-01-12 05:03:00,24.8,21.8,30.57,ESE,112,0.0,0.4,88,0.00,,---,0.00,VWS V14.01,2013-01-12 13:03:00,
2013-01-12 05:04:00,24.8,21.8,30.57,ESE,112,0.0,0.0,88,0.00,,---,0.00,VWS V14.01,2013-01-12 13:04:00,
2013-01-12 05:05:00,24.8,21.8,30.57,ESE,112,0.7,0.7,88,0.00,,---,0.00,VWS V14.01,2013-01-12 13:05:00,
2013-01-12 05:06:00,24.8,22.0,30.57,ESE,112,0.2,0.7,89,0.00,,---,0.00,VWS V14.01,2013-01-12 13:06:00,
2013-01-12 05:07:00,24.8,21.8,30.57,ESE,112,0.0,0.2,88,0.00,,---,0.00,VWS V14.01,2013-01-12 13:07:00,
2013-01-12 05:08:00,24.8,21.8,30.57,ESE,112,0.0,0.0,88,0.00,,---,0.00,VWS V14.01,2013-01-12 13:08:00,
2013-01-12 05:09:00,24.8,22.0,30.57,ESE,112,0.4,0.4,89,0.00,,---,0.00,VWS V14.01,2013-01-12 13:09:00,
2013-01-12 05:10:00,24.8,22.0,30.57,ESE,112,0.4,0.4,89,0.00,,---,0.00,VWS V14.01,2013-01-12 13:10:00,
2013-01-12 05:11:00,24.8,22.0,30.57,ESE,112,0.0,0.4,89,0.00,,---,0.00,VWS V14.01,2013-01-12 13:11:00,
2013-01-12 05:12:00,24.8,22.0,30.57,ESE,112,0.0,0.0,89,0.00,,---,0.00,VWS V14.01,2013-01-12 13:12:00,
2013-01-12 05:13:00,24.8,22.0,30.57,ESE,112,0.4,0.4,89,0.00,,---,0.00,VWS V14.01,2013-01-12 13:13:00,
2013-01-12 05:14:00,24.7,21.9,30.57,ESE,112,0.0,0.0,89,0.00,,---,0.00,VWS V14.01,2013-01-12 13:14:00,
2013-01-12 05:15:00,24.7,21.9,30.57,ESE,112,0.0,0.0,89,0.00,,---,0.00,VWS V14.01,2013-01-12 13:15:00,
2013-01-12 05:16:00,24.7,21.9,30.57,ESE,112,0.0,0.0,89,0.00,,---,0.00,VWS V14.01,2013-01-12 13:16:00,
2013-01-12 05:17:00,24.7,21.7,30.57,ESE,112,0.0,0.0,88,0.00,,---,0.00,VWS V14.01,2013-01-12 13:17:00,
2013-01-12 05:18:00,24.7,21.7,30.57,ESE,112,0.0,0.0,88,0.00,,---,0.00,VWS V14.01,2013-01-12 13:18:00,
2013-01-12 05:19:00,24.7,21.7,30.57,ESE,112,0.0,0.0,88,0.00,,---,0.00,VWS V14.01,2013-01-12 13:19:00,
2013-01-12 05:20:00,24.7,21.7,30.57,ESE,112,0.0,0.0,88,0.00,,---,0.00,VWS V14.01,2013-01-12 13:20:00,
2013-01-12 05:21:00,24.7,21.7,30.57,ESE,112,0.0,0.0,88,0.00,,---,0.00,VWS V14.01,2013-01-12 13:21:00,
2013-01-12 05:22:00,24.7,21.9,30.57,ESE,112,0.0,0.0,89,0.00,,---,0.00,VWS V14.01,2013-01-12 13:22:00,
2013-01-12 05:23:00,24.7,21.9,30.57,ESE,112,0.0,0.0,89,0.00,,---,0.00,VWS V14.01,2013-01-12 13:23:00,
2013-01-12 05:24:00,24.7,21.7,30.57,ESE,112,0.4,0.4,88,0.00,,---,0.00,VWS V14.01,2013-01-12 13:24:00,
2013-01-12 05:25:00,24.7,21.7,30.57,ESE,112,0.2,0.4,88,0.00,,---,0.00,VWS V14.01,2013-01-12 13:25:00,
2013-01-12 05:26:00,24.5,21.5,30.57,ESE,112,0.0,0.2,88,0.00,,---,0.00,VWS V14.01,2013-01-12 13:26:00,
2013-01-12 05:27:00,24.5,21.5,30.56,ESE,112,0.4,0.4,88,0.00,,---,0.00,VWS V14.01,2013-01-12 13:27:00,
2013-01-12 05:28:00,24.5,21.5,30.57,ESE,112,0.4,0.4,88,0.00,,---,0.00,VWS V14.01,2013-01-12 13:28:00,
2013-01-12 05:29:00,24.5,21.5,30.57,ESE,112,1.1,1.1,88,0.00,,---,0.00,VWS V14.01,2013-01-12 13:29:00,
2013-01-12 05:30:00,24.5,21.5,30.57,ESE,112,1.1,1.1,88,0.00,,---,0.00,VWS V14.01,2013-01-12 13:30:00,
2013-01-12 05:31:00,24.5,21.5,30.57,ESE,112,0.4,1.1,88,0.00,,---,0.00,VWS V14.01,2013-01-12 13:31:00,
2013-01-12 05:32:00,24.5,21.5,30.57,ESE,112,0.7,0.7,88,0.00,,---,0.00,VWS V14.01,2013-01-12 13:32:00,
2013-01-12 05:33:00,24.5,21.5,30.57,ESE,112,0.4,0.7,88,0.00,,---,0.00,VWS V14.01,2013-01-12 13:33:00,
2013-01-12 05:34:00,24.5,21.5,30.56,ESE,112,1.1,1.1,88,0.00,,---,0.00,VWS V14.01,2013-01-12 13:34:00,
2013-01-12 05:35:00,24.5,21.5,30.57,ESE,112,0.2,1.1,88,0.00,,---,0.00,VWS V14.01,2013-01-12 13:35:00,
2013-01-12 05:36:00,24.5,21.5,30.56,ESE,112,0.2,0.2,88,0.00,,---,0.00,VWS V14.01,2013-01-12 13:36:00,
2013-01-12 05:37:00,24.5,21.5,30.56,ESE,112,0.4,0.4,88,0.00,,---,0.00,VWS V14.01,2013-01-12 13:37:00,
2013-01-12 05:38:00,24.5,21.5,30.57,ESE,112,0.2,0.4,88,0.00,,---,0.00,VWS V14.01,2013-01-12 13:38:00,
2013-01-12 05:39:00,24.5,21.5,30.56,ESE,112,0.0,0.0,88,0.00,,---,0.00,VWS V14.01,2013-01-12 13:39:00,
2013-01-12 05:40:00,24.5,21.5,30.56,ESE,112,0.0,0.0,88,0.00,,---,0.00,VWS V14.01,2013-01-12 13:40:00,
2013-01-12 05:41:00,24.5,21.5,30.56,ESE,112,0.0,0.0,88,0.00,,---,0.00,VWS V14.01,2013-01-12 13:41:00,
2013-01-12 05:42:00,24.5,21.5,30.56,ESE,112,0.0,0.0,88,0.00,,---,0.00,VWS V14.01,2013-01-12 13:42:00,
2013-01-12 05:43:00,24.5,21.5,30.56,ESE,112,0.0,0.0,88,0.00,,---,0.00,VWS V14.01,2013-01-12 13:43:00,
2013-01-12 05:44:00,24.5,21.5,30.56,ESE,112,0.0,0.0,88,0.00,,---,0.00,VWS V14.01,2013-01-12 13:44:00,
2013-01-12 05:45:00,24.5,21.5,30.56,ESE,112,0.0,0.0,88,0.00,,---,0.00,VWS V14.01,2013-01-12 13:45:00,
2013-01-12 05:46:00,24.5,21.5,30.56,ESE,112,0.0,0.0,88,0.00,,---,0.00,VWS V14.01,2013-01-12 13:46:00,
2013-01-12 05:47:00,24.5,21.5,30.56,ESE,112,0.0,0.0,88,0.00,,---,0.00,VWS V14.01,2013-01-12 13:47:00,
2013-01-12 05:48:00,24.5,21.5,30.56,ESE,112,0.0,0.0,88,0.00,,---,0.00,VWS V14.01,2013-01-12 13:48:00,
2013-01-12 05:49:00,24.5,21.5,30.56,ESE,112,0.0,0.0,88,0.00,,---,0.00,VWS V14.01,2013-01-12 13:49:00,
2013-01-12 05:50:00,24.5,21.5,30.57,ESE,112,0.0,0.0,88,0.00,,---,0.00,VWS V14.01,2013-01-12 13:50:00,
2013-01-12 05:51:00,24.5,21.5,30.57,ESE,112,0.0,0.0,88,0.00,,---,0.00,VWS V14.01,2013-01-12 13:51:00,
2013-01-12 05:52:00,24.5,21.5,30.57,ESE,112,0.0,0.0,88,0.00,,---,0.00,VWS V14.01,2013-01-12 13:52:00,
2013-01-12 05:53:00,24.5,21.5,30.57,ESE,112,0.0,0.0,88,0.00,,---,0.00,VWS V14.01,2013-01-12 13:53:00,
2013-01-12 05:54:00,24.3,21.3,30.57,ESE,112,0.0,0.0,88,0.00,,---,0.00,VWS V14.01,2013-01-12 13:54:00,
2013-01-12 05:55:00,24.3,21.3,30.57,ESE,112,0.0,0.0,88,0.00,,---,0.00,VWS V14.01,2013-01-12 13:55:00,
2013-01-12 05:56:00,24.3,21.3,30.57,ESE,112,0.0,0.0,88,0.00,,---,0.00,VWS V14.01,2013-01-12 13:56:00,
2013-01-12 05:57:00,24.3,21.3,30.57,ESE,112,0.2,0.2,88,0.00,,---,0.00,VWS V14.01,2013-01-12 13:57:00,
2013-01-12 05:58:00,24.3,21.3,30.57,ESE,112,0.4,0.4,88,0.00,,---,0.00,VWS V14.01,2013-01-12 13:58:00,
2013-01-12 05:59:00,24.3,21.3,30.57,ESE,112,0.0,0.0,88,0.00,,---,0.00,VWS V14.01,2013-01-12 13:59:00,
2013-01-12 06:00:00,24.3,21.3,30.57,ESE,112,0.0,0.0,88,0.00,,---,0.00,VWS V14.01,2013-01-12 14:00:00,
2013-01-12 06:01:00,24.3,21.3,30.57,ESE,112,0.0,0.0,88,0.00,,---,0.00,VWS V14.01,2013-01-12 14:01:00,
2013-01-12 06:02:00,24.3,21.3,30.57,ESE,112,0.0,0.0,88,0.00,,---,0.00,VWS V14.01,2013-01-12 14:02:00,
2013-01-12 06:03:00,24.3,21.3,30.57,ESE,112,0.0,0.0,88,0.00,,---,0.00,VWS V14.01,2013-01-12 14:03:00,
2013-01-12 06:04:00,24.3,21.3,30.57,ESE,112,0.0,0.0,88,0.00,,---,0.00,VWS V14.01,2013-01-12 14:04:00,
2013-01-12 06:05:00,24.3,21.3,30.57,ESE,112,0.0,0.0,88,0.00,,---,0.00,VWS V14.01,2013-01-12 14:05:00,
2013-01-12 06:06:00,24.3,21.3,30.57,ESE,112,0.0,0.9,88,0.00,,---,0.00,VWS V14.01,2013-01-12 14:06:00,
2013-01-12 06:07:00,24.3,21.3,30.57,ESE,112,0.4,0.4,88,0.00,,---,0.00,VWS V14.01,2013-01-12 14:07:00,
2013-01-12 06:08:00,24.3,21.3,30.57,ESE,112,0.4,0.4,88,0.00,,---,0.00,VWS V14.01,2013-01-12 14:08:00,
2013-01-12 06:09:00,24.3,21.3,30.57,ESE,112,0.0,0.0,88,0.00,,---,0.00,VWS V14.01,2013-01-12 14:09:00,
2013-01-12 06:10:00,24.1,21.1,30.57,ESE,112,0.0,0.0,88,0.00,,---,0.00,VWS V14.01,2013-01-12 14:10:00,
2013-01-12 06:11:00,24.3,21.3,30.57,ESE,112,0.7,0.7,88,0.00,,---,0.00,VWS V14.01,2013-01-12 14:11:00,
2013-01-12 06:12:00,24.3,21.3,30.57,ESE,112,0.0,0.7,88,0.00,,---,0.00,VWS V14.01,2013-01-12 14:12:00,
2013-01-12 06:13:00,24.3,21.3,30.57,ESE,112,0.2,0.4,88,0.00,,---,0.00,VWS V14.01,2013-01-12 14:13:00,
2013-01-12 06:14:00,24.3,21.3,30.57,ESE,112,0.0,0.0,88,0.00,,---,0.00,VWS V14.01,2013-01-12 14:14:00,
2013-01-12 06:15:00,24.3,21.3,30.57,ESE,112,0.0,0.0,88,0.00,,---,0.00,VWS V14.01,2013-01-12 14:15:00,
2013-01-12 06:16:00,24.5,21.5,30.57,ESE,112,0.0,0.0,88,0.00,,---,0.00,VWS V14.01,2013-01-12 14:16:00,
2013-01-12 06:17:00,24.5,21.5,30.57,ESE,112,0.0,0.0,88,0.00,,---,0.00,VWS V14.01,2013-01-12 14:17:00,
2013-01-12 06:18:00,24.5,21.5,30.57,ESE,112,0.0,0.0,88,0.00,,---,0.00,VWS V14.01,2013-01-12 14:18:00,
2013-01-12 06:19:00,24.5,21.5,30.57,ESE,112,0.0,0.0,88,0.00,,---,0.00,VWS V14.01,2013-01-12 14:19:00,
2013-01-12 06:20:00,24.5,21.5,30.57,ESE,112,0.0,0.0,88,0.00,,---,0.00,VWS V14.01,2013-01-12 14:20:00,
2013-01-12 06:21:00,24.5,21.5,30.57,ESE,112,0.0,0.0,88,0.00,,---,0.00,VWS V14.01,2013-01-12 14:21:00,
2013-01-12 06:22:00,24.5,21.5,30.57,ESE,112,0.4,0.4,88,0.00,,---,0.00,VWS V14.01,2013-01-12 14:22:00,
2013-01-12 06:23:00,24.5,21.5,30.57,ESE,112,0.4,0.4,88,0.00,,---,0.00,VWS V14.01,2013-01-12 14:23:00,
2013-01-12 06:24:00,24.5,21.5,30.57,ESE,112,0.7,1.1,88,0.00,,---,0.00,VWS V14.01,2013-01-12 14:24:00,
2013-01-12 06:25:00,24.5,21.5,30.57,ESE,112,0.7,1.1,88,0.00,,---,0.00,VWS V14.01,2013-01-12 14:25:00,
2013-01-12 06:26:00,24.5,21.5,30.57,ESE,112,1.1,1.1,88,0.00,,---,0.00,VWS V14.01,2013-01-12 14:26:00,
2013-01-12 06:27:00,24.5,21.5,30.57,ESE,112,0.7,1.1,88,0.00,,---,0.00,VWS V14.01,2013-01-12 14:27:00,
2013-01-12 06:28:00,24.5,21.5,30.57,ESE,112,0.7,0.7,88,0.00,,---,0.00,VWS V14.01,2013-01-12 14:28:00,
2013-01-12 06:29:00,24.5,21.5,30.57,ESE,112,0.4,0.4,88,0.00,,---,0.00,VWS V14.01,2013-01-12 14:29:00,
2013-01-12 06:30:00,24.5,21.5,30.57,ESE,112,0.4,0.4,88,0.00,,---,0.00,VWS V14.01,2013-01-12 14:30:00,
2013-01-12 06:31:00,24.5,21.5,30.57,ESE,112,0.4,0.4,88,0.00,,---,0.00,VWS V14.01,2013-01-12 14:31:00,
2013-01-12 06:32:00,24.5,21.5,30.57,ESE,112,0.0,0.4,88,0.00,,---,0.00,VWS V14.01,2013-01-12 14:32:00,
2013-01-12 06:33:00,24.5,21.5,30.57,ESE,112,0.0,0.0,88,0.00,,---,0.00,VWS V14.01,2013-01-12 14:33:00,
2013-01-12 06:34:00,24.5,21.5,30.57,ESE,112,0.0,0.0,88,0.00,,---,0.00,VWS V14.01,2013-01-12 14:34:00,
2013-01-12 06:35:00,24.5,21.5,30.57,ESE,112,0.0,0.0,88,0.00,,---,0.00,VWS V14.01,2013-01-12 14:35:00,
2013-01-12 06:36:00,24.5,21.5,30.57,ESE,112,0.0,0.0,88,0.00,,---,0.00,VWS V14.01,2013-01-12 14:36:00,
2013-01-12 06:37:00,24.5,21.5,30.57,ESE,112,0.0,0.0,88,0.00,,---,0.00,VWS V14.01,2013-01-12 14:37:00,
2013-01-12 06:38:00,24.5,21.5,30.57,ESE,112,0.0,0.0,88,0.00,,---,0.00,VWS V14.01,2013-01-12 14:38:00,
2013-01-12 06:39:00,24.5,21.5,30.57,ESE,112,0.0,0.0,88,0.00,,---,0.00,VWS V14.01,2013-01-12 14:39:00,
2013-01-12 06:40:00,24.5,21.5,30.57,ESE,112,0.0,0.0,88,0.00,,---,0.00,VWS V14.01,2013-01-12 14:40:00,
2013-01-12 06:41:00,24.5,21.5,30.57,ESE,112,0.0,0.0,88,0.00,,---,0.00,VWS V14.01,2013-01-12 14:41:00,
2013-01-12 06:42:00,24.5,21.5,30.57,ESE,112,0.0,0.0,88,0.00,,---,0.00,VWS V14.01,2013-01-12 14:42:00,
2013-01-12 06:43:00,24.5,21.5,30.57,ESE,112,0.0,0.0,88,0.00,,---,0.00,VWS V14.01,2013-01-12 14:43:00,
2013-01-12 06:44:00,24.5,21.5,30.57,ESE,112,0.0,0.0,88,0.00,,---,0.00,VWS V14.01,2013-01-12 14:44:00,
2013-01-12 06:45:00,24.5,21.5,30.57,ESE,112,0.0,0.0,88,0.00,,---,0.00,VWS V14.01,2013-01-12 14:45:00,
2013-01-12 06:46:00,24.5,21.5,30.57,ESE,112,0.0,0.0,88,0.00,,---,0.00,VWS V14.01,2013-01-12 14:46:00,
2013-01-12 06:47:00,24.5,21.5,30.57,ESE,112,0.0,0.0,88,0.00,,---,0.00,VWS V14.01,2013-01-12 14:47:00,
2013-01-12 06:48:00,24.5,21.5,30.57,ESE,112,0.0,0.0,88,0.00,,---,0.00,VWS V14.01,2013-01-12 14:48:00,
2013-01-12 06:49:00,24.5,21.5,30.57,ESE,112,0.0,0.0,88,0.00,,---,0.00,VWS V14.01,2013-01-12 14:49:00,
2013-01-12 06:50:00,24.5,21.5,30.57,ESE,112,0.0,0.0,88,0.00,,---,0.00,VWS V14.01,2013-01-12 14:50:00,
2013-01-12 06:51:00,24.7,21.7,30.57,ESE,112,0.0,0.0,88,0.00,,---,0.00,VWS V14.01,2013-01-12 14:51:00,
2013-01-12 06:52:00,24.5,21.5,30.57,ESE,112,0.0,0.0,88,0.00,,---,0.00,VWS V14.01,2013-01-12 14:52:00,
2013-01-12 06:53:00,24.7,21.7,30.57,ESE,112,0.0,0.0,88,0.00,,---,0.00,VWS V14.01,2013-01-12 14:53:00,
2013-01-12 06:54:00,24.7,21.7,30.57,ESE,112,0.0,0.0,88,0.00,,---,0.00,VWS V14.01,2013-01-12 14:54:00,
2013-01-12 06:55:00,24.7,21.7,30.57,ESE,112,0.0,0.0,88,0.00,,---,0.00,VWS V14.01,2013-01-12 14:55:00,
2013-01-12 06:56:00,24.7,21.7,30.57,ESE,112,0.0,0.0,88,0.00,,---,0.00,VWS V14.01,2013-01-12 14:56:00,
2013-01-12 06:57:00,24.7,21.7,30.57,ESE,112,0.0,0.0,88,0.00,,---,0.00,VWS V14.01,2013-01-12 14:57:00,
2013-01-12 06:58:00,24.7,21.7,30.57,ESE,112,0.0,0.0,88,0.00,,---,0.00,VWS V14.01,2013-01-12 14:58:00,
2013-01-12 06:59:00,24.7,21.7,30.57,ESE,112,0.0,0.0,88,0.00,,---,0.00,VWS V14.01,2013-01-12 14:59:00,
2013-01-12 07:00:00,24.7,21.7,30.57,ESE,112,0.0,0.0,88,0.00,,---,0.00,VWS V14.01,2013-01-12 15:00:00,
2013-01-12 07:01:00,24.7,21.9,30.57,ESE,112,0.0,0.0,89,0.00,,---,0.00,VWS V14.01,2013-01-12 15:01:00,
2013-01-12 07:02:00,24.7,21.7,30.57,ESE,112,0.0,0.0,88,0.00,,---,0.00,VWS V14.01,2013-01-12 15:02:00,
2013-01-12 07:03:00,24.8,22.0,30.57,ESE,112,0.0,0.0,89,0.00,,---,0.00,VWS V14.01,2013-01-12 15:03:00,
2013-01-12 07:04:00,24.8,22.0,30.57,ESE,112,0.0,0.0,89,0.00,,---,0.02,VWS V14.01,2013-01-12 15:04:00,
2013-01-12 07:05:00,24.8,22.0,30.57,ESE,112,0.0,0.0,89,0.00,,---,0.00,VWS V14.01,2013-01-12 15:05:00,
2013-01-12 07:06:00,24.8,22.0,30.57,ESE,112,0.0,0.0,89,0.00,,---,0.00,VWS V14.01,2013-01-12 15:06:00,
2013-01-12 07:07:00,24.8,22.0,30.58,ESE,112,0.0,0.0,89,0.00,,---,0.00,VWS V14.01,2013-01-12 15:07:00,
2013-01-12 07:08:00,24.8,22.0,30.57,ESE,112,0.0,0.0,89,0.00,,---,0.00,VWS V14.01,2013-01-12 15:08:00,
2013-01-12 07:09:00,24.8,22.0,30.57,ESE,112,0.0,0.0,89,0.00,,---,0.00,VWS V14.01,2013-01-12 15:09:00,
2013-01-12 07:10:00,24.8,22.0,30.57,ESE,112,0.0,0.0,89,0.00,,---,0.00,VWS V14.01,2013-01-12 15:10:00,
2013-01-12 07:11:00,24.8,22.0,30.57,ESE,112,0.0,0.0,89,0.00,,---,0.00,VWS V14.01,2013-01-12 15:11:00,
2013-01-12 07:12:00,24.8,22.0,30.57,ESE,112,0.0,0.0,89,0.00,,---,0.00,VWS V14.01,2013-01-12 15:12:00,
2013-01-12 07:13:00,24.8,22.0,30.58,ESE,112,0.0,0.0,89,0.00,,---,0.00,VWS V14.01,2013-01-12 15:13:00,
2013-01-12 07:14:00,24.8,22.0,30.58,ESE,112,0.0,0.0,89,0.00,,---,0.00,VWS V14.01,2013-01-12 15:14:00,
2013-01-12 07:15:00,24.8,22.0,30.58,ESE,112,0.0,0.0,89,0.00,,---,0.00,VWS V14.01,2013-01-12 15:15:00,
2013-01-12 07:16:00,24.8,22.0,30.58,ESE,112,0.0,0.0,89,0.00,,---,0.00,VWS V14.01,2013-01-12 15:16:00,
2013-01-12 07:17:00,24.8,22.0,30.58,ESE,112,0.0,0.0,89,0.00,,---,0.00,VWS V14.01,2013-01-12 15:17:00,
2013-01-12 07:18:00,24.8,22.0,30.58,ESE,112,0.0,0.0,89,0.00,,---,0.00,VWS V14.01,2013-01-12 15:18:00,
2013-01-12 07:19:00,24.8,22.0,30.58,ESE,112,0.0,0.0,89,0.00,,---,0.00,VWS V14.01,2013-01-12 15:19:00,
2013-01-12 07:20:00,24.8,22.0,30.57,ESE,112,0.0,0.0,89,0.00,,---,0.00,VWS V14.01,2013-01-12 15:20:00,
2013-01-12 07:21:00,24.8,22.0,30.58,ESE,112,0.0,0.0,89,0.00,,---,0.00,VWS V14.01,2013-01-12 15:21:00,
2013-01-12 07:22:00,24.8,22.0,30.58,ESE,112,0.0,0.0,89,0.00,,---,0.00,VWS V14.01,2013-01-12 15:22:00,
2013-01-12 07:23:00,24.8,22.0,30.58,ESE,112,0.4,0.4,89,0.00,,---,0.00,VWS V14.01,2013-01-12 15:23:00,
2013-01-12 07:24:00,24.8,22.0,30.58,ESE,112,0.4,0.4,89,0.00,,---,0.00,VWS V14.01,2013-01-12 15:24:00,
2013-01-12 07:25:00,25.0,22.2,30.58,ESE,112,0.2,0.4,89,0.00,,---,0.00,VWS V14.01,2013-01-12 15:25:00,
2013-01-12 07:26:00,25.0,22.2,30.58,ESE,112,0.4,0.4,89,0.00,,---,0.00,VWS V14.01,2013-01-12 15:26:00,
2013-01-12 07:27:00,25.0,22.5,30.58,ESE,112,0.4,0.4,90,0.00,,---,0.00,VWS V14.01,2013-01-12 15:27:00,
2013-01-12 07:28:00,25.0,22.5,30.58,ESE,112,0.4,0.4,90,0.00,,---,0.00,VWS V14.01,2013-01-12 15:28:00,
2013-01-12 07:29:00,25.0,22.5,30.58,ESE,112,0.4,0.4,90,0.00,,---,0.00,VWS V14.01,2013-01-12 15:29:00,
2013-01-12 07:30:00,25.0,22.5,30.58,ESE,112,0.7,0.7,90,0.00,,---,0.00,VWS V14.01,2013-01-12 15:30:00,
2013-01-12 07:31:00,25.0,22.5,30.58,ESE,112,0.4,0.7,90,0.00,,---,0.00,VWS V14.01,2013-01-12 15:31:00,
2013-01-12 07:32:00,25.2,22.7,30.58,ESE,112,0.7,0.7,90,0.00,,---,0.00,VWS V14.01,2013-01-12 15:32:00,
2013-01-12 07:33:00,25.2,22.7,30.58,ESE,112,0.7,0.7,90,0.00,,---,0.00,VWS V14.01,2013-01-12 15:33:00,
2013-01-12 07:34:00,25.2,22.7,30.58,ESE,112,0.2,0.7,90,0.00,,---,0.00,VWS V14.01,2013-01-12 15:34:00,
2013-01-12 07:35:00,25.2,22.7,30.58,ESE,112,0.0,0.7,90,0.00,,---,0.00,VWS V14.01,2013-01-12 15:35:00,
2013-01-12 07:36:00,25.2,22.7,30.58,ESE,112,0.2,0.2,90,0.00,,---,0.00,VWS V14.01,2013-01-12 15:36:00,
2013-01-12 07:37:00,25.2,22.7,30.58,ESE,112,0.0,0.2,90,0.00,,---,0.00,VWS V14.01,2013-01-12 15:37:00,
2013-01-12 07:38:00,25.2,22.7,30.58,ESE,112,0.4,0.4,90,0.00,,---,0.00,VWS V14.01,2013-01-12 15:38:00,
2013-01-12 07:39:00,25.2,22.7,30.58,ESE,112,0.0,0.2,90,0.00,,---,0.00,VWS V14.01,2013-01-12 15:39:00,
2013-01-12 07:40:00,25.4,22.9,30.58,ESE,112,0.2,0.2,90,0.00,,---,0.00,VWS V14.01,2013-01-12 15:40:00,
2013-01-12 07:41:00,25.4,22.9,30.58,ESE,112,0.0,0.2,90,0.00,,---,0.00,VWS V14.01,2013-01-12 15:41:00,
2013-01-12 07:42:00,25.4,22.9,30.58,ESE,112,0.0,0.0,90,0.00,,---,0.00,VWS V14.01,2013-01-12 15:42:00,
2013-01-12 07:43:00,25.4,22.9,30.58,ESE,112,0.0,0.0,90,0.00,,---,0.00,VWS V14.01,2013-01-12 15:43:00,
2013-01-12 07:44:00,25.4,22.9,30.58,ESE,112,0.0,0.0,90,0.00,,---,0.00,VWS V14.01,2013-01-12 15:44:00,
2013-01-12 07:45:00,25.4,22.9,30.58,ESE,112,0.0,0.0,90,0.00,,---,0.00,VWS V14.01,2013-01-12 15:45:00,
2013-01-12 07:46:00,25.4,22.9,30.58,ESE,112,0.0,0.0,90,0.00,,---,0.00,VWS V14.01,2013-01-12 15:46:00,
2013-01-12 07:47:00,25.4,22.9,30.59,ESE,112,0.0,0.0,90,0.00,,---,0.00,VWS V14.01,2013-01-12 15:47:00,
2013-01-12 07:48:00,25.4,22.9,30.58,ESE,112,0.0,0.0,90,0.00,,---,0.00,VWS V14.01,2013-01-12 15:48:00,
2013-01-12 07:49:00,25.4,22.9,30.58,ESE,112,0.0,0.0,90,0.00,,---,0.00,VWS V14.01,2013-01-12 15:49:00,
2013-01-12 07:50:00,25.4,22.9,30.58,ESE,112,0.0,0.0,90,0.00,,---,0.00,VWS V14.01,2013-01-12 15:50:00,
2013-01-12 07:51:00,25.6,23.1,30.59,ESE,112,0.0,0.0,90,0.00,,---,0.00,VWS V14.01,2013-01-12 15:51:00,
2013-01-12 07:52:00,25.4,22.9,30.59,ESE,112,0.0,0.0,90,0.00,,---,0.00,VWS V14.01,2013-01-12 15:52:00,
2013-01-12 07:53:00,25.6,23.1,30.59,ESE,112,0.0,0.0,90,0.00,,---,0.00,VWS V14.01,2013-01-12 15:53:00,
2013-01-12 07:54:00,25.4,22.9,30.59,ESE,112,0.0,0.0,90,0.00,,---,0.00,VWS V14.01,2013-01-12 15:54:00,
2013-01-12 07:55:00,25.6,23.1,30.59,ESE,112,0.0,0.0,90,0.00,,---,0.00,VWS V14.01,2013-01-12 15:55:00,
2013-01-12 07:56:00,25.6,23.1,30.59,ESE,112,0.0,0.0,90,0.00,,---,0.00,VWS V14.01,2013-01-12 15:56:00,
2013-01-12 07:57:00,25.6,23.1,30.59,ESE,112,0.0,0.0,90,0.00,,---,0.00,VWS V14.01,2013-01-12 15:57:00,
2013-01-12 07:58:00,25.4,22.9,30.59,ESE,112,0.0,0.0,90,0.00,,---,0.00,VWS V14.01,2013-01-12 15:58:00,
2013-01-12 07:59:00,25.6,23.1,30.59,ESE,112,0.0,0.0,90,0.00,,---,0.00,VWS V14.01,2013-01-12 15:59:00,
2013-01-12 08:00:00,25.6,23.1,30.59,ESE,112,0.0,0.0,90,0.00,,---,0.00,VWS V14.01,2013-01-12 16:00:00,
2013-01-12 08:01:00,25.6,23.1,30.59,ESE,112,0.0,0.0,90,0.00,,---,0.00,VWS V14.01,2013-01-12 16:01:00,
2013-01-12 08:02:00,25.6,23.1,30.59,ESE,112,0.0,0.0,90,0.00,,---,0.00,VWS V14.01,2013-01-12 16:02:00,
2013-01-12 08:03:00,25.4,22.9,30.59,ESE,112,0.0,0.0,90,0.00,,---,0.00,VWS V14.01,2013-01-12 16:03:00,
2013-01-12 08:04:00,25.6,23.1,30.59,ESE,112,0.0,0.0,90,0.00,,---,0.00,VWS V14.01,2013-01-12 16:04:00,
2013-01-12 08:05:00,25.6,23.1,30.59,ESE,112,0.0,0.0,90,0.00,,---,0.00,VWS V14.01,2013-01-12 16:05:00,
2013-01-12 08:06:00,25.6,23.1,30.59,ESE,112,0.0,0.0,90,0.00,,---,0.00,VWS V14.01,2013-01-12 16:06:00,
2013-01-12 08:07:00,25.6,23.1,30.59,ESE,112,0.0,0.0,90,0.00,,---,0.00,VWS V14.01,2013-01-12 16:07:00,
2013-01-12 08:08:00,25.6,23.1,30.59,ESE,112,0.0,0.0,90,0.00,,---,0.00,VWS V14.01,2013-01-12 16:08:00,
2013-01-12 08:09:00,25.6,23.1,30.59,ESE,112,0.0,0.0,90,0.00,,---,0.00,VWS V14.01,2013-01-12 16:09:00,
2013-01-12 08:10:00,25.6,23.1,30.59,ESE,112,0.0,0.0,90,0.00,,---,0.00,VWS V14.01,2013-01-12 16:10:00,
2013-01-12 08:11:00,25.6,23.1,30.59,ESE,112,0.0,0.0,90,0.00,,---,0.00,VWS V14.01,2013-01-12 16:11:00,
2013-01-12 08:12:00,25.6,23.1,30.59,ESE,112,0.0,0.0,90,0.00,,---,0.00,VWS V14.01,2013-01-12 16:12:00,
2013-01-12 08:13:00,25.6,23.1,30.59,ESE,112,0.0,0.0,90,0.00,,---,0.00,VWS V14.01,2013-01-12 16:13:00,
2013-01-12 08:14:00,25.6,23.1,30.59,ESE,112,0.0,0.0,90,0.00,,---,0.00,VWS V14.01,2013-01-12 16:14:00,
2013-01-12 08:15:00,25.6,23.1,30.59,ESE,112,0.0,0.0,90,0.00,,---,0.00,VWS V14.01,2013-01-12 16:15:00,
2013-01-12 08:16:00,25.6,23.1,30.59,ESE,112,0.0,0.0,90,0.00,,---,0.00,VWS V14.01,2013-01-12 16:16:00,
2013-01-12 08:17:00,25.6,23.1,30.59,ESE,112,0.0,0.0,90,0.00,,---,0.00,VWS V14.01,2013-01-12 16:17:00,
2013-01-12 08:18:00,25.6,23.1,30.59,ESE,112,0.0,0.0,90,0.00,,---,0.00,VWS V14.01,2013-01-12 16:18:00,
2013-01-12 08:19:00,25.6,23.1,30.59,ESE,112,0.0,0.0,90,0.00,,---,0.00,VWS V14.01,2013-01-12 16:19:00,
2013-01-12 08:20:00,25.6,23.1,30.59,ESE,112,0.0,0.0,90,0.00,,---,0.00,VWS V14.01,2013-01-12 16:20:00,
2013-01-12 08:21:00,25.6,23.1,30.59,ESE,112,0.0,0.0,90,0.00,,---,0.00,VWS V14.01,2013-01-12 16:21:00,
2013-01-12 08:22:00,25.6,23.1,30.59,ESE,112,0.0,0.0,90,0.00,,---,0.00,VWS V14.01,2013-01-12 16:22:00,
2013-01-12 08:23:00,25.6,23.1,30.59,ESE,112,0.0,0.0,90,0.00,,---,0.00,VWS V14.01,2013-01-12 16:23:00,
2013-01-12 08:24:00,25.6,23.1,30.59,ESE,112,0.4,0.4,90,0.00,,---,0.00,VWS V14.01,2013-01-12 16:24:00,
2013-01-12 08:25:00,25.6,23.1,30.60,ESE,112,0.4,0.4,90,0.00,,---,0.00,VWS V14.01,2013-01-12 16:25:00,
2013-01-12 08:26:00,25.6,23.1,30.60,ESE,112,0.2,0.4,90,0.00,,---,0.00,VWS V14.01,2013-01-12 16:26:00,
2013-01-12 08:27:00,25.6,23.1,30.60,ESE,112,0.0,0.2,90,0.00,,---,0.00,VWS V14.01,2013-01-12 16:27:00,
2013-01-12 08:28:00,25.6,23.1,30.60,ESE,112,0.0,0.0,90,0.00,,---,0.00,VWS V14.01,2013-01-12 16:28:00,
2013-01-12 08:29:00,25.7,23.2,30.60,ESE,112,0.0,0.0,90,0.00,,---,0.00,VWS V14.01,2013-01-12 16:29:00,
2013-01-12 08:30:00,25.7,23.2,30.60,ESE,112,0.0,0.0,90,0.00,,---,0.00,VWS V14.01,2013-01-12 16:30:00,
2013-01-12 08:31:00,25.7,23.2,30.60,ESE,112,0.0,0.0,90,0.00,,---,0.00,VWS V14.01,2013-01-12 16:31:00,
2013-01-12 08:32:00,25.7,23.2,30.60,ESE,112,0.0,0.0,90,0.00,,---,0.00,VWS V14.01,2013-01-12 16:32:00,
2013-01-12 08:33:00,25.7,23.2,30.60,ESE,112,0.0,0.0,90,0.00,,---,0.00,VWS V14.01,2013-01-12 16:33:00,
2013-01-12 08:34:00,25.7,23.2,30.60,ESE,112,0.0,0.0,90,0.00,,---,0.00,VWS V14.01,2013-01-12 16:34:00,
2013-01-12 08:35:00,25.7,23.2,30.60,ESE,112,0.0,0.0,90,0.00,,---,0.00,VWS V14.01,2013-01-12 16:35:00,
2013-01-12 08:36:00,25.7,23.2,30.60,ESE,112,0.0,0.0,90,0.00,,---,0.00,VWS V14.01,2013-01-12 16:36:00,
2013-01-12 08:37:00,25.9,23.4,30.60,ESE,112,0.0,0.0,90,0.00,,---,0.00,VWS V14.01,2013-01-12 16:37:00,
2013-01-12 08:38:00,25.9,23.4,30.60,ESE,112,0.0,0.0,90,0.00,,---,0.00,VWS V14.01,2013-01-12 16:38:00,
2013-01-12 08:39:00,25.9,23.4,30.60,ESE,112,0.0,0.0,90,0.00,,---,0.00,VWS V14.01,2013-01-12 16:39:00,
2013-01-12 08:40:00,25.9,23.4,30.60,ESE,112,0.0,0.0,90,0.00,,---,0.00,VWS V14.01,2013-01-12 16:40:00,
2013-01-12 08:41:00,25.9,23.4,30.60,ESE,112,0.0,0.0,90,0.00,,---,0.00,VWS V14.01,2013-01-12 16:41:00,
2013-01-12 08:42:00,25.9,23.4,30.60,ESE,112,0.0,0.0,90,0.00,,---,0.00,VWS V14.01,2013-01-12 16:42:00,
2013-01-12 08:43:00,25.9,23.4,30.60,ESE,112,0.0,0.0,90,0.00,,---,0.00,VWS V14.01,2013-01-12 16:43:00,
2013-01-12 08:44:00,25.9,23.4,30.60,ESE,112,0.0,0.0,90,0.00,,---,0.00,VWS V14.01,2013-01-12 16:44:00,
2013-01-12 08:45:00,25.9,23.4,30.60,ESE,112,0.0,0.0,90,0.00,,---,0.00,VWS V14.01,2013-01-12 16:45:00,
2013-01-12 08:46:00,26.1,23.6,30.60,ESE,112,0.0,0.0,90,0.00,,---,0.00,VWS V14.01,2013-01-12 16:46:00,
2013-01-12 08:47:00,26.1,23.6,30.60,ESE,112,0.0,0.0,90,0.00,,---,0.00,VWS V14.01,2013-01-12 16:47:00,
2013-01-12 08:48:00,26.1,23.6,30.60,ESE,112,0.0,0.0,90,0.00,,---,0.00,VWS V14.01,2013-01-12 16:48:00,
2013-01-12 08:49:00,26.1,23.6,30.60,ESE,112,0.0,0.0,90,0.00,,---,0.00,VWS V14.01,2013-01-12 16:49:00,
2013-01-12 08:50:00,26.1,23.6,30.60,ESE,112,0.0,0.0,90,0.00,,---,0.00,VWS V14.01,2013-01-12 16:50:00,
2013-01-12 08:51:00,26.1,23.6,30.60,ESE,112,0.0,0.0,90,0.00,,---,0.00,VWS V14.01,2013-01-12 16:51:00,
2013-01-12 08:52:00,26.3,23.8,30.60,ESE,112,0.4,0.4,90,0.00,,---,0.00,VWS V14.01,2013-01-12 16:52:00,
2013-01-12 08:53:00,26.3,23.8,30.60,ESE,112,0.4,0.4,90,0.00,,---,0.00,VWS V14.01,2013-01-12 16:53:00,
2013-01-12 08:54:00,26.3,23.8,30.61,ESE,112,0.4,0.4,90,0.00,,---,0.00,VWS V14.01,2013-01-12 16:54:00,
2013-01-12 08:55:00,26.3,23.8,30.61,ESE,112,0.7,0.7,90,0.00,,---,0.00,VWS V14.01,2013-01-12 16:55:00,
2013-01-12 08:56:00,26.3,23.8,30.61,ESE,112,0.4,0.7,90,0.00,,---,0.00,VWS V14.01,2013-01-12 16:56:00,
2013-01-12 08:57:00,26.3,23.8,30.61,ESE,112,0.0,0.4,90,0.00,,---,0.00,VWS V14.01,2013-01-12 16:57:00,
2013-01-12 08:58:00,26.3,23.8,30.61,ESE,112,0.0,0.0,90,0.00,,---,0.00,VWS V14.01,2013-01-12 16:58:00,
2013-01-12 08:59:00,26.3,23.8,30.61,ESE,112,0.0,0.0,90,0.00,,---,0.00,VWS V14.01,2013-01-12 16:59:00,
2013-01-12 09:00:00,26.3,23.8,30.61,ESE,112,0.0,0.0,90,0.00,,---,0.00,VWS V14.01,2013-01-12 17:00:00,
2013-01-12 09:01:00,26.3,23.8,30.61,ESE,112,0.0,0.0,90,0.00,,---,0.00,VWS V14.01,2013-01-12 17:01:00,
2013-01-12 09:02:00,26.5,24.0,30.61,ESE,112,0.0,0.0,90,0.00,,---,0.00,VWS V14.01,2013-01-12 17:02:00,
2013-01-12 09:03:00,26.5,24.0,30.61,ESE,112,0.0,0.0,90,0.00,,---,0.00,VWS V14.01,2013-01-12 17:03:00,
2013-01-12 09:04:00,26.5,24.0,30.61,ESE,112,0.0,0.0,90,0.00,,---,0.00,VWS V14.01,2013-01-12 17:04:00,
2013-01-12 09:05:00,26.5,24.0,30.61,ESE,112,0.4,0.4,90,0.00,,---,0.00,VWS V14.01,2013-01-12 17:05:00,
2013-01-12 09:06:00,26.3,23.8,30.62,ESE,112,0.2,0.4,90,0.00,,---,0.00,VWS V14.01,2013-01-12 17:06:00,
2013-01-12 09:07:00,26.5,24.0,30.61,ESE,112,0.0,0.2,90,0.00,,---,0.00,VWS V14.01,2013-01-12 17:07:00,
2013-01-12 09:08:00,26.6,24.1,30.61,ESE,112,0.0,0.0,90,0.00,,---,0.00,VWS V14.01,2013-01-12 17:08:00,
2013-01-12 09:09:00,26.5,24.0,30.61,ESE,112,0.0,0.0,90,0.00,,---,0.00,VWS V14.01,2013-01-12 17:09:00,
2013-01-12 09:10:00,26.6,24.1,30.61,ESE,112,0.0,0.0,90,0.00,,---,0.00,VWS V14.01,2013-01-12 17:10:00,
2013-01-12 09:11:00,26.6,24.1,30.61,ESE,112,0.0,0.0,90,0.00,,---,0.00,VWS V14.01,2013-01-12 17:11:00,
2013-01-12 09:12:00,26.6,24.1,30.61,ESE,112,0.0,0.0,90,0.00,,---,0.00,VWS V14.01,2013-01-12 17:12:00,
2013-01-12 09:13:00,26.6,24.1,30.62,ESE,112,0.0,0.0,90,0.00,,---,0.00,VWS V14.01,2013-01-12 17:13:00,
2013-01-12 09:14:00,26.6,24.1,30.61,ESE,112,0.0,0.0,90,0.00,,---,0.00,VWS V14.01,2013-01-12 17:14:00,
2013-01-12 09:15:00,26.6,24.1,30.61,ESE,112,0.0,0.0,90,0.00,,---,0.00,VWS V14.01,2013-01-12 17:15:00,
2013-01-12 09:16:00,26.6,24.1,30.61,ESE,112,0.0,0.0,90,0.00,,---,0.00,VWS V14.01,2013-01-12 17:16:00,
2013-01-12 09:17:00,26.6,24.1,30.62,ESE,112,0.0,0.0,90,0.00,,---,0.00,VWS V14.01,2013-01-12 17:17:00,
2013-01-12 09:18:00,26.6,24.1,30.61,ESE,112,0.0,0.0,90,0.00,,---,0.00,VWS V14.01,2013-01-12 17:18:00,
2013-01-12 09:19:00,26.8,24.3,30.62,ESE,112,0.0,0.0,90,0.00,,---,0.00,VWS V14.01,2013-01-12 17:19:00,
2013-01-12 09:20:00,26.8,24.3,30.62,ESE,112,0.0,0.0,90,0.00,,---,0.00,VWS V14.01,2013-01-12 17:20:00,
2013-01-12 09:21:00,26.8,24.3,30.62,ESE,112,0.0,0.0,90,0.00,,---,0.00,VWS V14.01,2013-01-12 17:21:00,
2013-01-12 09:22:00,26.8,24.3,30.62,ESE,112,0.0,0.0,90,0.00,,---,0.00,VWS V14.01,2013-01-12 17:22:00,
2013-01-12 09:23:00,26.8,24.3,30.62,ESE,112,0.0,0.0,90,0.00,,---,0.00,VWS V14.01,2013-01-12 17:23:00,
2013-01-12 09:24:00,26.8,24.3,30.62,ESE,112,0.0,0.0,90,0.00,,---,0.00,VWS V14.01,2013-01-12 17:24:00,
2013-01-12 09:25:00,27.0,24.5,30.62,ESE,112,0.0,0.0,90,0.00,,---,0.00,VWS V14.01,2013-01-12 17:25:00,
2013-01-12 09:26:00,27.0,24.5,30.62,ESE,112,0.0,0.0,90,0.00,,---,0.00,VWS V14.01,2013-01-12 17:26:00,
2013-01-12 09:27:00,27.0,24.5,30.62,ESE,112,0.0,0.0,90,0.00,,---,0.00,VWS V14.01,2013-01-12 17:27:00,
2013-01-12 09:28:00,27.0,24.5,30.62,ESE,112,0.0,0.0,90,0.00,,---,0.00,VWS V14.01,2013-01-12 17:28:00,
2013-01-12 09:29:00,27.0,24.5,30.62,ESE,112,0.0,0.0,90,0.00,,---,0.00,VWS V14.01,2013-01-12 17:29:00,
2013-01-12 09:30:00,27.0,24.5,30.61,ESE,112,0.0,0.0,90,0.00,,---,0.00,VWS V14.01,2013-01-12 17:30:00,
2013-01-12 09:31:00,27.2,24.7,30.62,ESE,112,0.0,0.0,90,0.00,,---,0.00,VWS V14.01,2013-01-12 17:31:00,
2013-01-12 09:32:00,27.2,24.7,30.62,ESE,112,0.0,0.0,90,0.00,,---,0.00,VWS V14.01,2013-01-12 17:32:00,
2013-01-12 09:33:00,27.4,24.9,30.61,ESE,112,0.0,0.0,90,0.00,,---,0.00,VWS V14.01,2013-01-12 17:33:00,
2013-01-12 09:34:00,27.4,24.9,30.61,ESE,112,0.0,0.0,90,0.00,,---,0.00,VWS V14.01,2013-01-12 17:34:00,
2013-01-12 09:35:00,27.4,24.9,30.62,ESE,112,0.0,0.0,90,0.00,,---,0.00,VWS V14.01,2013-01-12 17:35:00,
2013-01-12 09:36:00,27.4,24.9,30.62,ESE,112,0.0,0.0,90,0.00,,---,0.00,VWS V14.01,2013-01-12 17:36:00,
2013-01-12 09:37:00,27.4,24.9,30.62,ESE,112,0.0,0.0,90,0.00,,---,0.00,VWS V14.01,2013-01-12 17:37:00,
2013-01-12 09:38:00,27.5,25.0,30.62,ESE,112,0.0,0.0,90,0.00,,---,0.00,VWS V14.01,2013-01-12 17:38:00,
2013-01-12 09:39:00,27.5,25.0,30.62,ESE,112,0.0,0.0,90,0.00,,---,0.00,VWS V14.01,2013-01-12 17:39:00,
2013-01-12 09:40:00,27.7,25.2,30.62,ESE,112,0.0,0.0,90,0.00,,---,0.00,VWS V14.01,2013-01-12 17:40:00,
2013-01-12 09:41:00,27.7,25.2,30.62,ESE,112,0.0,0.0,90,0.00,,---,0.00,VWS V14.01,2013-01-12 17:41:00,
2013-01-12 09:42:00,27.7,25.2,30.62,ESE,112,0.0,0.0,90,0.00,,---,0.00,VWS V14.01,2013-01-12 17:42:00,
2013-01-12 09:43:00,27.9,25.4,30.62,ESE,112,0.0,0.0,90,0.00,,---,0.00,VWS V14.01,2013-01-12 17:43:00,
2013-01-12 09:44:00,27.9,25.4,30.62,ESE,112,0.0,0.0,90,0.00,,---,0.00,VWS V14.01,2013-01-12 17:44:00,
2013-01-12 09:45:00,27.9,25.4,30.62,ESE,112,0.0,0.0,90,0.00,,---,0.00,VWS V14.01,2013-01-12 17:45:00,
2013-01-12 09:46:00,28.1,25.5,30.62,ESE,112,0.0,0.0,90,0.00,,---,0.00,VWS V14.01,2013-01-12 17:46:00,
2013-01-12 09:47:00,28.1,25.5,30.62,ESE,112,0.0,0.0,90,0.00,,---,0.00,VWS V14.01,2013-01-12 17:47:00,
2013-01-12 09:48:00,28.3,25.8,30.62,ESE,112,0.0,0.0,90,0.00,,---,0.00,VWS V14.01,2013-01-12 17:48:00,
2013-01-12 09:49:00,28.3,25.8,30.62,ESE,112,0.0,0.0,90,0.00,,---,0.00,VWS V14.01,2013-01-12 17:49:00,
2013-01-12 09:50:00,28.4,25.9,30.62,ESE,112,0.0,0.0,90,0.00,,---,0.00,VWS V14.01,2013-01-12 17:50:00,
2013-01-12 09:51:00,28.4,25.9,30.62,ESE,112,0.0,0.0,90,0.00,,---,0.00,VWS V14.01,2013-01-12 17:51:00,
2013-01-12 09:52:00,28.4,25.9,30.62,ESE,112,0.0,0.0,90,0.00,,---,0.00,VWS V14.01,2013-01-12 17:52:00,
2013-01-12 09:53:00,28.4,25.9,30.62,ESE,112,0.0,0.0,90,0.00,,---,0.00,VWS V14.01,2013-01-12 17:53:00,
2013-01-12 09:54:00,28.4,25.9,30.62,ESE,112,0.0,0.0,90,0.00,,---,0.00,VWS V14.01,2013-01-12 17:54:00,
2013-01-12 09:55:00,28.6,26.0,30.62,ESE,112,0.0,0.0,90,0.00,,---,0.00,VWS V14.01,2013-01-12 17:55:00,
2013-01-12 09:56:00,28.8,26.2,30.62,ESE,112,0.0,0.0,90,0.00,,---,0.00,VWS V14.01,2013-01-12 17:56:00,
2013-01-12 09:57:00,28.8,26.2,30.62,ESE,112,0.0,0.2,90,0.00,,---,0.00,VWS V14.01,2013-01-12 17:57:00,
2013-01-12 09:58:00,29.0,26.4,30.62,ESE,112,0.2,0.2,90,0.00,,---,0.00,VWS V14.01,2013-01-12 17:58:00,
2013-01-12 09:59:00,29.0,26.4,30.62,ESE,112,0.2,0.4,90,0.00,,---,0.00,VWS V14.01,2013-01-12 17:59:00,
2013-01-12 10:00:00,29.0,26.2,30.62,ESE,112,0.0,0.2,89,0.00,,---,0.00,VWS V14.01,2013-01-12 18:00:00,
2013-01-12 10:01:00,29.2,26.4,30.62,ESE,112,0.0,0.0,89,0.00,,---,0.00,VWS V14.01,2013-01-12 18:01:00,
2013-01-12 10:02:00,29.2,26.4,30.62,ESE,112,0.0,0.0,89,0.00,,---,0.00,VWS V14.01,2013-01-12 18:02:00,
2013-01-12 10:03:00,29.2,26.4,30.62,ESE,112,0.0,0.0,89,0.00,,---,0.00,VWS V14.01,2013-01-12 18:03:00,
2013-01-12 10:04:00,29.2,26.4,30.62,ESE,112,0.0,0.0,89,0.00,,---,0.00,VWS V14.01,2013-01-12 18:04:00,
2013-01-12 10:05:00,29.2,26.4,30.62,ESE,112,0.0,0.0,89,0.00,,---,0.00,VWS V14.01,2013-01-12 18:05:00,
2013-01-12 10:06:00,29.3,26.5,30.62,ESE,112,1.3,1.3,89,0.00,,---,0.00,VWS V14.01,2013-01-12 18:06:00,
2013-01-12 10:07:00,29.3,26.5,30.62,ESE,112,0.0,1.3,89,0.00,,---,0.00,VWS V14.01,2013-01-12 18:07:00,
2013-01-12 10:08:00,29.5,26.7,30.62,ESE,112,0.0,0.0,89,0.00,,---,0.00,VWS V14.01,2013-01-12 18:08:00,
2013-01-12 10:09:00,29.5,26.7,30.62,ESE,112,0.0,0.0,89,0.00,,---,0.00,VWS V14.01,2013-01-12 18:09:00,
2013-01-12 10:10:00,29.5,26.7,30.62,ESE,112,0.0,0.0,89,0.00,,---,0.00,VWS V14.01,2013-01-12 18:10:00,
2013-01-12 10:11:00,29.5,26.7,30.62,ESE,112,0.0,0.0,89,0.00,,---,0.00,VWS V14.01,2013-01-12 18:11:00,
2013-01-12 10:12:00,29.7,26.9,30.62,ESE,112,0.0,0.0,89,0.00,,---,0.00,VWS V14.01,2013-01-12 18:12:00,
2013-01-12 10:13:00,29.7,26.9,30.62,ESE,112,0.0,0.0,89,0.00,,---,0.00,VWS V14.01,2013-01-12 18:13:00,
2013-01-12 10:14:00,29.7,26.9,30.62,ESE,112,0.0,0.0,89,0.00,,---,0.00,VWS V14.01,2013-01-12 18:14:00,
2013-01-12 10:15:00,29.9,27.1,30.62,ESE,112,0.0,0.0,89,0.00,,---,0.00,VWS V14.01,2013-01-12 18:15:00,
2013-01-12 10:16:00,29.9,27.1,30.62,ESE,112,0.0,0.0,89,0.00,,---,0.00,VWS V14.01,2013-01-12 18:16:00,
2013-01-12 10:17:00,29.9,27.1,30.62,ESE,112,0.0,0.0,89,0.00,,---,0.00,VWS V14.01,2013-01-12 18:17:00,
2013-01-12 10:18:00,29.9,27.1,30.62,ESE,112,0.0,0.0,89,0.00,,---,0.00,VWS V14.01,2013-01-12 18:18:00,
2013-01-12 10:19:00,29.9,27.1,30.62,ESE,112,0.0,0.0,89,0.00,,---,0.00,VWS V14.01,2013-01-12 18:19:00,
2013-01-12 10:20:00,30.1,27.3,30.63,ESE,112,0.0,0.0,89,0.00,,---,0.00,VWS V14.01,2013-01-12 18:20:00,
2013-01-12 10:21:00,30.1,27.3,30.63,ESE,112,0.0,0.0,89,0.00,,---,0.00,VWS V14.01,2013-01-12 18:21:00,
2013-01-12 10:22:00,30.2,27.4,30.63,ESE,112,0.0,0.0,89,0.00,,---,0.00,VWS V14.01,2013-01-12 18:22:00,
2013-01-12 10:23:00,30.4,27.5,30.63,ESE,112,0.0,0.0,89,0.00,,---,0.00,VWS V14.01,2013-01-12 18:23:00,
2013-01-12 10:24:00,30.4,27.5,30.63,ESE,112,0.0,0.0,89,0.00,,---,0.00,VWS V14.01,2013-01-12 18:24:00,
2013-01-12 10:25:00,30.4,27.5,30.63,ESE,112,0.0,0.0,89,0.00,,---,0.00,VWS V14.01,2013-01-12 18:25:00,
2013-01-12 10:26:00,30.4,27.5,30.63,ESE,112,0.0,0.0,89,0.00,,---,0.00,VWS V14.01,2013-01-12 18:26:00,
2013-01-12 10:27:00,30.6,27.8,30.62,ESE,112,0.0,0.0,89,0.00,,---,0.00,VWS V14.01,2013-01-12 18:27:00,
2013-01-12 10:28:00,30.6,27.8,30.63,ESE,112,0.2,0.2,89,0.00,,---,0.00,VWS V14.01,2013-01-12 18:28:00,
2013-01-12 10:29:00,30.6,27.8,30.63,ESE,112,0.2,0.2,89,0.00,,---,0.00,VWS V14.01,2013-01-12 18:29:00,
2013-01-12 10:31:00,30.8,28.0,30.62,ESE,112,0.0,0.4,89,0.00,,---,0.00,VWS V14.01,2013-01-12 18:31:00,
2013-01-12 10:33:00,31.0,28.1,30.63,ESE,112,0.0,0.0,89,0.00,,---,0.00,VWS V14.01,2013-01-12 18:33:00,
2013-01-12 10:34:00,31.0,28.1,30.63,ESE,112,0.0,0.0,89,0.00,,---,0.00,VWS V14.01,2013-01-12 18:34:00,
2013-01-12 10:36:00,31.1,28.2,30.63,ESE,112,0.7,0.7,89,0.00,,---,0.00,VWS V14.01,2013-01-12 18:36:00,
2013-01-12 10:37:00,31.3,28.4,30.63,ESE,112,0.4,0.7,89,0.00,,---,0.00,VWS V14.01,2013-01-12 18:37:00,
2013-01-12 10:38:00,31.3,28.4,30.63,ESE,112,0.7,1.1,89,0.00,,---,0.00,VWS V14.01,2013-01-12 18:38:00,
2013-01-12 10:39:00,31.3,28.4,30.63,ESE,112,0.7,1.1,89,0.00,,---,0.00,VWS V14.01,2013-01-12 18:39:00,
2013-01-12 10:40:00,31.5,28.6,30.63,ESE,112,0.0,0.7,89,0.00,,---,0.00,VWS V14.01,2013-01-12 18:40:00,
2013-01-12 10:41:00,31.5,28.6,30.63,ESE,112,0.4,0.4,89,0.00,,---,0.00,VWS V14.01,2013-01-12 18:41:00,
2013-01-12 10:42:00,31.7,28.8,30.63,ESE,112,0.4,0.4,89,0.00,,---,0.00,VWS V14.01,2013-01-12 18:42:00,
2013-01-12 10:43:00,31.7,28.8,30.63,ESE,112,0.4,0.4,89,0.00,,---,0.00,VWS V14.01,2013-01-12 18:43:00,
2013-01-12 10:44:00,31.7,28.8,30.63,ESE,112,0.4,0.4,89,0.00,,---,0.00,VWS V14.01,2013-01-12 18:44:00,
2013-01-12 10:45:00,31.9,28.8,30.62,ESE,112,1.1,1.1,88,0.00,,---,0.00,VWS V14.01,2013-01-12 18:45:00,
2013-01-12 10:46:00,31.9,28.8,30.63,ESE,112,0.9,1.1,88,0.00,,---,0.00,VWS V14.01,2013-01-12 18:46:00,
2013-01-12 10:47:00,32.0,28.9,30.63,ESE,112,1.1,1.1,88,0.00,,---,0.00,VWS V14.01,2013-01-12 18:47:00,
2013-01-12 10:48:00,32.0,28.9,30.63,ESE,112,0.7,0.7,88,0.00,,---,0.00,VWS V14.01,2013-01-12 18:48:00,
2013-01-12 10:50:00,32.0,28.9,30.63,ESE,112,0.7,0.7,88,0.00,,---,0.00,VWS V14.01,2013-01-12 18:50:00,
2013-01-12 10:51:00,32.2,29.0,30.62,ESE,112,0.4,0.7,88,0.00,,---,0.00,VWS V14.01,2013-01-12 18:51:00,
2013-01-12 10:52:00,32.4,29.0,30.62,ESE,112,0.2,1.1,87,0.00,,---,0.00,VWS V14.01,2013-01-12 18:52:00,
2013-01-12 10:53:00,32.4,29.0,30.62,ESE,112,0.2,0.2,87,0.00,,---,0.00,VWS V14.01,2013-01-12 18:53:00,
2013-01-12 10:54:00,32.6,29.2,30.62,ESE,112,0.0,0.2,87,0.00,,---,0.00,VWS V14.01,2013-01-12 18:54:00,
2013-01-12 10:55:00,32.8,29.4,30.62,ESE,112,0.9,0.9,87,0.00,,---,0.00,VWS V14.01,2013-01-12 18:55:00,
2013-01-12 10:56:00,32.8,29.4,30.62,ESE,112,1.1,1.1,87,0.00,,---,0.00,VWS V14.01,2013-01-12 18:56:00,
2013-01-12 10:57:00,32.8,29.1,30.62,ESE,112,0.4,1.1,86,0.00,,---,0.00,VWS V14.01,2013-01-12 18:57:00,
2013-01-12 10:58:00,32.9,29.2,30.63,ESE,112,0.4,0.9,86,0.00,,---,0.00,VWS V14.01,2013-01-12 18:58:00,
2013-01-12 10:59:00,32.9,29.2,30.63,ESE,112,0.4,0.9,86,0.00,,---,0.00,VWS V14.01,2013-01-12 18:59:00,
2013-01-12 11:00:00,32.9,29.2,30.62,ESE,112,0.2,0.7,86,0.00,,---,0.00,VWS V14.01,2013-01-12 19:00:00,
2013-01-12 11:01:00,32.9,29.2,30.62,ESE,112,0.0,0.2,86,0.00,,---,0.00,VWS V14.01,2013-01-12 19:01:00,
2013-01-12 11:02:00,33.1,29.4,30.62,ESE,112,0.4,0.4,86,0.00,,---,0.00,VWS V14.01,2013-01-12 19:02:00,
2013-01-12 11:03:00,33.1,29.4,30.62,ESE,112,0.0,0.0,86,0.00,,---,0.00,VWS V14.01,2013-01-12 19:03:00,
2013-01-12 11:05:00,33.3,29.6,30.62,ESE,112,0.4,0.4,86,0.00,,---,0.00,VWS V14.01,2013-01-12 19:05:00,
2013-01-12 11:06:00,33.5,29.8,30.62,ESE,112,0.0,0.4,86,0.00,,---,0.00,VWS V14.01,2013-01-12 19:06:00,
2013-01-12 11:07:00,33.5,29.8,30.62,ESE,112,0.0,0.0,86,0.00,,---,0.00,VWS V14.01,2013-01-12 19:07:00,
2013-01-12 11:08:00,33.5,29.8,30.62,ESE,112,0.2,0.2,86,0.00,,---,0.00,VWS V14.01,2013-01-12 19:08:00,
2013-01-12 11:09:00,33.5,29.8,30.62,ESE,112,0.7,0.7,86,0.00,,---,0.00,VWS V14.01,2013-01-12 19:09:00,
2013-01-12 11:10:00,33.5,29.8,30.62,ESE,112,0.2,0.7,86,0.00,,---,0.00,VWS V14.01,2013-01-12 19:10:00,
2013-01-12 11:11:00,33.7,30.0,30.62,ESE,112,0.0,0.2,86,0.00,,---,0.00,VWS V14.01,2013-01-12 19:11:00,
2013-01-12 11:12:00,33.8,30.1,30.62,ESE,112,0.0,0.0,86,0.00,,---,0.00,VWS V14.01,2013-01-12 19:12:00,
2013-01-12 11:13:00,33.8,29.8,30.62,ESE,112,0.0,0.0,85,0.00,,---,0.00,VWS V14.01,2013-01-12 19:13:00,
2013-01-12 11:14:00,33.8,29.8,30.62,ESE,112,0.0,0.0,85,0.00,,---,0.00,VWS V14.01,2013-01-12 19:14:00,
2013-01-12 11:15:00,33.8,29.8,30.62,ESE,112,0.2,0.4,85,0.00,,---,0.00,VWS V14.01,2013-01-12 19:15:00,
2013-01-12 11:16:00,34.0,30.0,30.62,ESE,112,1.8,1.8,85,0.00,,---,0.00,VWS V14.01,2013-01-12 19:16:00,
2013-01-12 11:17:00,34.0,30.0,30.62,ESE,112,0.2,1.8,85,0.00,,---,0.00,VWS V14.01,2013-01-12 19:17:00,
2013-01-12 11:18:00,34.2,29.9,30.62,ESE,112,0.4,0.4,84,0.00,,---,0.00,VWS V14.01,2013-01-12 19:18:00,
2013-01-12 11:19:00,34.2,29.9,30.62,ESE,112,0.4,0.4,84,0.00,,---,0.00,VWS V14.01,2013-01-12 19:19:00,
2013-01-12 11:20:00,34.2,29.9,30.62,ESE,112,0.0,0.4,84,0.00,,---,0.00,VWS V14.01,2013-01-12 19:20:00,
2013-01-12 11:21:00,34.2,30.2,30.62,ESE,112,0.2,0.4,85,0.00,,---,0.00,VWS V14.01,2013-01-12 19:21:00,
2013-01-12 11:22:00,34.2,29.9,30.62,ESE,112,0.7,1.6,84,0.00,,---,0.00,VWS V14.01,2013-01-12 19:22:00,
2013-01-12 11:23:00,34.2,29.9,30.62,ESE,112,0.4,1.1,84,0.00,,---,0.00,VWS V14.01,2013-01-12 19:23:00,
2013-01-12 11:24:00,34.2,29.9,30.62,ESE,112,0.4,1.1,84,0.00,,---,0.00,VWS V14.01,2013-01-12 19:24:00,
2013-01-12 11:25:00,34.4,30.1,30.61,ESE,112,0.9,0.9,84,0.00,,---,0.00,VWS V14.01,2013-01-12 19:25:00,
2013-01-12 11:26:00,34.4,29.8,30.62,ESE,112,0.4,0.9,83,0.00,,---,0.00,VWS V14.01,2013-01-12 19:26:00,
2013-01-12 11:27:00,34.4,29.8,30.62,ESE,112,0.2,0.4,83,0.00,,---,0.00,VWS V14.01,2013-01-12 19:27:00,
2013-01-12 11:28:00,34.4,29.8,30.61,ESE,112,0.4,0.4,83,0.00,,---,0.00,VWS V14.01,2013-01-12 19:28:00,
2013-01-12 11:29:00,34.4,29.8,30.61,ESE,112,1.3,1.3,83,0.00,,---,0.00,VWS V14.01,2013-01-12 19:29:00,
2013-01-12 11:30:00,34.4,29.8,30.61,ESE,112,0.7,1.3,83,0.00,,---,0.00,VWS V14.01,2013-01-12 19:30:00,
2013-01-12 11:31:00,34.6,29.7,30.61,ESE,112,1.1,1.1,82,0.00,,---,0.00,VWS V14.01,2013-01-12 19:31:00,
2013-01-12 11:32:00,34.6,30.0,30.61,ESE,112,0.9,1.1,83,0.00,,---,0.00,VWS V14.01,2013-01-12 19:32:00,
2013-01-12 11:33:00,34.6,29.7,30.61,ESE,112,1.6,1.6,82,0.00,,---,0.00,VWS V14.01,2013-01-12 19:33:00,
2013-01-12 11:34:00,34.6,29.7,30.61,ESE,112,1.6,1.6,82,0.00,,---,0.00,VWS V14.01,2013-01-12 19:34:00,
2013-01-12 11:35:00,34.6,29.4,30.61,ESE,112,1.3,2.2,81,0.00,,---,0.00,VWS V14.01,2013-01-12 19:35:00,
2013-01-12 11:36:00,34.6,29.4,30.61,ESE,112,1.6,1.6,81,0.00,,---,0.00,VWS V14.01,2013-01-12 19:36:00,
2013-01-12 11:37:00,34.7,29.2,30.61,ESE,112,0.7,1.6,80,0.00,,---,0.00,VWS V14.01,2013-01-12 19:37:00,
2013-01-12 11:38:00,34.7,29.2,30.61,ESE,112,0.4,0.7,80,0.00,,---,0.00,VWS V14.01,2013-01-12 19:38:00,
2013-01-12 11:39:00,34.7,29.2,30.61,ESE,112,0.0,0.7,80,0.00,,---,0.00,VWS V14.01,2013-01-12 19:39:00,
2013-01-12 11:40:00,34.7,29.2,30.61,ESE,112,1.1,1.1,80,0.00,,---,0.00,VWS V14.01,2013-01-12 19:40:00,
2013-01-12 11:41:00,34.9,29.4,30.61,ESE,112,0.0,1.1,80,0.00,,---,0.00,VWS V14.01,2013-01-12 19:41:00,
2013-01-12 11:42:00,34.7,29.2,30.61,ESE,112,0.4,0.4,80,0.00,,---,0.00,VWS V14.01,2013-01-12 19:42:00,
2013-01-12 11:43:00,34.9,29.4,30.61,ESE,112,0.4,0.4,80,0.00,,---,0.00,VWS V14.01,2013-01-12 19:43:00,
2013-01-12 11:44:00,34.9,29.7,30.61,ESE,112,0.0,0.4,81,0.00,,---,0.00,VWS V14.01,2013-01-12 19:44:00,
2013-01-12 11:45:00,34.9,29.7,30.61,ESE,112,1.1,1.1,81,0.00,,---,0.00,VWS V14.01,2013-01-12 19:45:00,
2013-01-12 11:46:00,34.9,29.7,30.61,ESE,112,0.9,1.1,81,0.00,,---,0.00,VWS V14.01,2013-01-12 19:46:00,
2013-01-12 11:47:00,35.1,29.9,30.61,ESE,112,0.0,0.9,81,0.00,,---,0.00,VWS V14.01,2013-01-12 19:47:00,
2013-01-12 11:48:00,35.3,30.1,30.61,ESE,112,0.7,0.7,81,0.00,,---,0.00,VWS V14.01,2013-01-12 19:48:00,
2013-01-12 11:49:00,35.1,29.9,30.61,ESE,112,0.7,0.7,81,0.00,,---,0.00,VWS V14.01,2013-01-12 19:49:00,
2013-01-12 11:50:00,35.3,30.1,30.61,ESE,112,0.0,0.9,81,0.00,,---,0.00,VWS V14.01,2013-01-12 19:50:00,
2013-01-12 11:51:00,35.3,30.1,30.61,ESE,112,0.0,0.0,81,0.00,,---,0.00,VWS V14.01,2013-01-12 19:51:00,
2013-01-12 11:52:00,35.3,30.1,30.61,ESE,112,0.9,0.9,81,0.00,,---,0.00,VWS V14.01,2013-01-12 19:52:00,
2013-01-12 11:53:00,35.5,30.3,30.61,ESE,112,0.4,1.1,81,0.00,,---,0.00,VWS V14.01,2013-01-12 19:53:00,
2013-01-12 11:54:00,35.6,30.4,30.61,ESE,112,0.0,1.1,81,0.00,,---,0.00,VWS V14.01,2013-01-12 19:54:00,
2013-01-12 11:55:00,35.6,30.4,30.61,ESE,112,0.0,0.2,81,0.00,,---,0.00,VWS V14.01,2013-01-12 19:55:00,
2013-01-12 11:56:00,35.6,30.4,30.61,ESE,112,1.1,1.1,81,0.00,,---,0.00,VWS V14.01,2013-01-12 19:56:00,
2013-01-12 11:57:00,35.6,30.4,30.61,ESE,112,1.6,1.6,81,0.00,,---,0.00,VWS V14.01,2013-01-12 19:57:00,
2013-01-12 11:58:00,35.8,30.5,30.61,ESE,112,1.6,1.6,81,0.00,,---,0.00,VWS V14.01,2013-01-12 19:58:00,
2013-01-12 11:59:00,36.0,30.8,30.61,ESE,112,1.1,1.6,81,0.00,,---,0.00,VWS V14.01,2013-01-12 19:59:00,
2013-01-12 12:00:00,36.0,30.8,30.61,ESE,112,0.4,1.1,81,0.00,,---,0.00,VWS V14.01,2013-01-12 20:00:00,
2013-01-12 12:01:00,36.0,30.8,30.61,ESE,112,0.0,0.4,81,0.00,,---,0.00,VWS V14.01,2013-01-12 20:01:00,
2013-01-12 12:02:00,36.0,30.1,30.61,ESE,112,0.9,0.9,79,0.00,,---,0.00,VWS V14.01,2013-01-12 20:02:00,
2013-01-12 12:03:00,36.0,29.8,30.61,ESE,112,0.7,1.8,78,0.00,,---,0.00,VWS V14.01,2013-01-12 20:03:00,
2013-01-12 12:04:00,36.0,29.5,30.61,ESE,112,0.7,1.8,77,0.00,,---,0.00,VWS V14.01,2013-01-12 20:04:00,
2013-01-12 12:05:00,36.0,29.8,30.61,ESE,112,1.8,1.8,78,0.00,,---,0.00,VWS V14.01,2013-01-12 20:05:00,
2013-01-12 12:06:00,36.2,30.0,30.61,ESE,112,1.8,1.8,78,0.00,,---,0.00,VWS V14.01,2013-01-12 20:06:00,
2013-01-12 12:07:00,36.2,30.0,30.61,ESE,112,2.2,2.5,78,0.00,,---,0.00,VWS V14.01,2013-01-12 20:07:00,
2013-01-12 12:08:00,36.0,28.9,30.61,ESE,112,0.0,1.8,75,0.00,,---,0.00,VWS V14.01,2013-01-12 20:08:00,
2013-01-12 12:09:00,36.0,28.2,30.61,ESE,112,0.7,1.8,73,0.00,,---,0.00,VWS V14.01,2013-01-12 20:09:00,
2013-01-12 12:10:00,35.8,28.0,30.61,SSE,158,0.4,1.1,73,0.00,,---,0.00,VWS V14.01,2013-01-12 20:10:00,
2013-01-12 12:11:00,35.8,28.3,30.61,SSE,158,0.0,0.4,74,0.00,,---,0.00,VWS V14.01,2013-01-12 20:11:00,
2013-01-12 12:12:00,35.8,28.3,30.61,SE,135,0.2,0.2,74,0.00,,---,0.00,VWS V14.01,2013-01-12 20:12:00,
2013-01-12 12:13:00,35.8,29.0,30.61,SE,135,0.4,0.4,76,0.00,,---,0.00,VWS V14.01,2013-01-12 20:13:00,
2013-01-12 12:14:00,35.8,29.0,30.61,SE,135,0.4,0.4,76,0.00,,---,0.00,VWS V14.01,2013-01-12 20:14:00,
2013-01-12 12:15:00,35.8,29.0,30.61,WSW,248,1.3,1.3,76,0.00,,---,0.00,VWS V14.01,2013-01-12 20:15:00,
2013-01-12 12:16:00,36.0,29.2,30.61,SSW,202,1.6,1.6,76,0.00,,---,0.00,VWS V14.01,2013-01-12 20:16:00,
2013-01-12 12:17:00,36.0,29.2,30.61,SSW,202,0.2,1.6,76,0.00,,---,0.00,VWS V14.01,2013-01-12 20:17:00,
2013-01-12 12:18:00,36.0,29.5,30.61,ESE,112,1.1,1.1,77,0.00,,---,0.00,VWS V14.01,2013-01-12 20:18:00,
2013-01-12 12:19:00,36.0,29.5,30.61,ESE,112,1.1,1.1,77,0.00,,---,0.00,VWS V14.01,2013-01-12 20:19:00,
2013-01-12 12:20:00,36.0,29.2,30.61,SE,135,1.1,1.1,76,0.00,,---,0.00,VWS V14.01,2013-01-12 20:20:00,
2013-01-12 12:21:00,36.2,29.7,30.61,SE,135,0.7,1.1,77,0.00,,---,0.00,VWS V14.01,2013-01-12 20:21:00,
2013-01-12 12:22:00,36.4,29.6,30.61,SE,135,0.9,1.6,76,0.00,,---,0.00,VWS V14.01,2013-01-12 20:22:00,
2013-01-12 12:23:00,36.2,28.7,30.61,East,90,0.0,0.0,74,0.00,,---,0.00,VWS V14.01,2013-01-12 20:23:00,
2013-01-12 12:24:00,36.2,28.4,30.61,NW,315,1.1,1.1,73,0.00,,---,0.00,VWS V14.01,2013-01-12 20:24:00,
2013-01-12 12:25:00,36.0,27.5,30.61,West,270,0.2,2.0,71,0.00,,---,0.00,VWS V14.01,2013-01-12 20:25:00,
2013-01-12 12:26:00,36.0,28.2,30.61,East,90,0.0,0.2,73,0.00,,---,0.00,VWS V14.01,2013-01-12 20:26:00,
2013-01-12 12:27:00,35.8,28.0,30.61,East,90,0.0,0.0,73,0.00,,---,0.00,VWS V14.01,2013-01-12 20:27:00,
2013-01-12 12:28:00,35.8,28.0,30.61,NNW,338,0.4,1.1,73,0.00,,---,0.00,VWS V14.01,2013-01-12 20:28:00,
2013-01-12 12:29:00,35.8,27.3,30.61,SE,135,0.2,1.1,71,0.00,,---,0.00,VWS V14.01,2013-01-12 20:29:00,
2013-01-12 12:30:00,35.8,27.7,30.61,North,0,0.4,1.6,72,0.00,,---,0.00,VWS V14.01,2013-01-12 20:30:00,
2013-01-12 12:31:00,35.6,27.1,30.61,ESE,112,0.0,0.4,71,0.00,,---,0.00,VWS V14.01,2013-01-12 20:31:00,
2013-01-12 12:32:00,35.6,27.1,30.61,ESE,112,0.4,0.4,71,0.00,,---,0.00,VWS V14.01,2013-01-12 20:32:00,
2013-01-12 12:33:00,35.5,27.0,30.61,NE,45,0.7,0.7,71,0.00,,---,0.00,VWS V14.01,2013-01-12 20:33:00,
2013-01-12 12:34:00,35.5,27.0,30.61,North,0,0.4,0.7,71,0.00,,---,0.00,VWS V14.01,2013-01-12 20:34:00,
2013-01-12 12:35:00,35.5,27.4,30.61,ESE,112,2.2,2.2,72,0.00,,---,0.00,VWS V14.01,2013-01-12 20:35:00,
2013-01-12 12:36:00,35.3,27.5,30.61,ESE,112,2.5,2.5,73,0.00,,---,0.00,VWS V14.01,2013-01-12 20:36:00,
2013-01-12 12:37:00,35.5,27.7,30.61,SE,135,2.7,2.7,73,0.00,,---,0.00,VWS V14.01,2013-01-12 20:37:00,
2013-01-12 12:38:00,35.5,27.7,30.61,ESE,112,3.8,3.8,73,0.00,,---,0.00,VWS V14.01,2013-01-12 20:38:00,
2013-01-12 12:39:00,35.5,27.7,30.61,ESE,112,1.8,3.8,73,0.01,,---,0.01,VWS V14.01,2013-01-12 20:39:00,
2013-01-12 12:40:00,35.5,28.0,30.61,East,90,1.1,2.7,74,0.01,,---,0.01,VWS V14.01,2013-01-12 20:40:00,
2013-01-12 12:41:00,35.6,28.1,30.61,SE,135,0.0,1.1,74,0.01,,---,0.01,VWS V14.01,2013-01-12 20:41:00,
2013-01-12 12:42:00,35.6,28.1,30.60,East,90,2.0,2.0,74,0.01,,---,0.01,VWS V14.01,2013-01-12 20:42:00,
2013-01-12 12:43:00,35.6,27.8,30.61,NE,45,0.7,0.7,73,0.01,,---,0.01,VWS V14.01,2013-01-12 20:43:00,
2013-01-12 12:44:00,35.6,27.8,30.60,NNW,338,0.9,0.9,73,0.01,,---,0.01,VWS V14.01,2013-01-12 20:44:00,
2013-01-12 12:45:00,35.6,27.8,30.60,NNW,338,0.0,0.9,73,0.01,,---,0.01,VWS V14.01,2013-01-12 20:45:00,
2013-01-12 12:46:00,35.6,28.1,30.60,SE,135,0.0,0.4,74,0.01,,---,0.01,VWS V14.01,2013-01-12 20:46:00,
2013-01-12 12:47:00,35.6,28.1,30.60,SE,135,0.0,0.0,74,0.01,,---,0.01,VWS V14.01,2013-01-12 20:47:00,
2013-01-12 12:48:00,35.6,27.8,30.60,ENE,68,2.9,2.9,73,0.01,,---,0.01,VWS V14.01,2013-01-12 20:48:00,
2013-01-12 12:49:00,35.6,27.8,30.60,ENE,68,1.8,2.9,73,0.01,,---,0.01,VWS V14.01,2013-01-12 20:49:00,
2013-01-12 12:50:00,35.6,27.8,30.60,West,270,0.2,1.8,73,0.01,,---,0.01,VWS V14.01,2013-01-12 20:50:00,
2013-01-12 12:51:00,35.6,27.5,30.60,NNE,22,0.4,0.4,72,0.01,,---,0.01,VWS V14.01,2013-01-12 20:51:00,
2013-01-12 12:52:00,35.6,27.5,30.60,North,0,0.7,0.7,72,0.01,,---,0.01,VWS V14.01,2013-01-12 20:52:00,
2013-01-12 12:53:00,35.6,27.8,30.60,ENE,68,1.3,2.2,73,0.01,,---,0.01,VWS V14.01,2013-01-12 20:53:00,
2013-01-12 12:54:00,35.6,27.8,30.60,NNE,22,1.1,2.2,73,0.01,,---,0.01,VWS V14.01,2013-01-12 20:54:00,
2013-01-12 12:55:00,35.6,27.8,30.60,SE,135,1.6,1.8,73,0.01,,---,0.01,VWS V14.01,2013-01-12 20:55:00,
2013-01-12 12:56:00,35.6,27.8,30.60,SE,135,1.6,1.6,73,0.01,,---,0.01,VWS V14.01,2013-01-12 20:56:00,
2013-01-12 12:57:00,35.6,27.8,30.60,SE,135,0.9,2.2,73,0.01,,---,0.01,VWS V14.01,2013-01-12 20:57:00,
2013-01-12 12:58:00,35.6,27.5,30.60,NNE,22,0.2,0.2,72,0.01,,---,0.01,VWS V14.01,2013-01-12 20:58:00,
2013-01-12 12:59:00,35.6,27.5,30.60,NNW,338,0.0,0.2,72,0.01,,---,0.01,VWS V14.01,2013-01-12 20:59:00,
2013-01-12 13:00:00,35.6,27.5,30.60,NNW,338,0.2,0.2,72,0.01,,---,0.01,VWS V14.01,2013-01-12 21:00:00,
2013-01-12 13:01:00,35.5,27.0,30.60,SSE,158,1.8,1.8,71,0.01,,---,0.01,VWS V14.01,2013-01-12 21:01:00,
2013-01-12 13:02:00,35.5,27.0,30.60,East,90,0.4,1.8,71,0.01,,---,0.01,VWS V14.01,2013-01-12 21:02:00,
2013-01-12 13:03:00,35.3,26.9,30.60,NE,45,0.9,0.9,71,0.01,,---,0.01,VWS V14.01,2013-01-12 21:03:00,
2013-01-12 13:04:00,35.3,26.9,30.60,SE,135,0.0,0.9,71,0.01,,---,0.01,VWS V14.01,2013-01-12 21:04:00,
2013-01-12 13:05:00,35.1,26.7,30.60,SE,135,3.4,3.4,71,0.01,,---,0.01,VWS V14.01,2013-01-12 21:05:00,
2013-01-12 13:06:00,35.1,26.3,30.60,NNW,338,0.9,3.4,70,0.01,,---,0.01,VWS V14.01,2013-01-12 21:06:00,
2013-01-12 13:07:00,34.9,26.1,30.60,NE,45,0.2,1.1,70,0.01,,---,0.01,VWS V14.01,2013-01-12 21:07:00,
2013-01-12 13:08:00,34.9,26.5,30.60,NNW,338,0.7,0.7,71,0.01,,---,0.01,VWS V14.01,2013-01-12 21:08:00,
2013-01-12 13:09:00,34.9,26.5,30.60,WSW,248,0.4,0.7,71,0.01,,---,0.01,VWS V14.01,2013-01-12 21:09:00,
2013-01-12 13:10:00,34.9,26.5,30.60,WNW,292,1.1,1.8,71,0.01,,---,0.01,VWS V14.01,2013-01-12 21:10:00,
2013-01-12 13:11:00,34.9,26.8,30.60,NNW,338,0.4,1.1,72,0.01,,---,0.01,VWS V14.01,2013-01-12 21:11:00,
2013-01-12 13:12:00,34.9,26.8,30.60,North,0,0.0,0.4,72,0.01,,---,0.01,VWS V14.01,2013-01-12 21:12:00,
2013-01-12 13:13:00,34.7,27.0,30.60,SE,135,0.9,0.9,73,0.01,,---,0.01,VWS V14.01,2013-01-12 21:13:00,
2013-01-12 13:14:00,34.9,27.1,30.60,SE,135,0.9,0.9,73,0.01,,---,0.01,VWS V14.01,2013-01-12 21:14:00,
2013-01-12 13:15:00,34.9,27.1,30.60,South,180,0.0,0.9,73,0.01,,---,0.01,VWS V14.01,2013-01-12 21:15:00,
2013-01-12 13:16:00,34.9,27.1,30.60,West,270,0.4,0.7,73,0.01,,---,0.01,VWS V14.01,2013-01-12 21:16:00,
2013-01-12 13:17:00,34.9,27.1,30.60,SE,135,0.4,1.3,73,0.01,,---,0.01,VWS V14.01,2013-01-12 21:17:00,
2013-01-12 13:18:00,35.1,27.3,30.60,SE,135,0.4,0.4,73,0.01,,---,0.01,VWS V14.01,2013-01-12 21:18:00,
2013-01-12 13:19:00,35.1,27.3,30.60,SE,135,1.8,2.9,73,0.01,,---,0.01,VWS V14.01,2013-01-12 21:19:00,
2013-01-12 13:20:00,35.3,27.5,30.60,SE,135,1.8,1.8,73,0.01,,---,0.01,VWS V14.01,2013-01-12 21:20:00,
2013-01-12 13:21:00,35.1,27.0,30.61,ESE,112,1.8,3.4,72,0.01,,---,0.01,VWS V14.01,2013-01-12 21:21:00,
2013-01-12 13:22:00,35.1,27.3,30.61,ESE,112,1.8,1.8,73,0.01,,---,0.01,VWS V14.01,2013-01-12 21:22:00,
2013-01-12 13:23:00,35.1,27.3,30.60,SE,135,1.1,1.1,73,0.01,,---,0.01,VWS V14.01,2013-01-12 21:23:00,
2013-01-12 13:24:00,35.1,27.3,30.61,SE,135,1.1,1.1,73,0.01,,---,0.01,VWS V14.01,2013-01-12 21:24:00,
2013-01-12 13:25:00,35.1,27.3,30.61,NE,45,0.2,1.1,73,0.01,,---,0.01,VWS V14.01,2013-01-12 21:25:00,
2013-01-12 13:26:00,35.1,27.3,30.61,SE,135,0.7,0.7,73,0.01,,---,0.01,VWS V14.01,2013-01-12 21:26:00,
2013-01-12 13:27:00,34.9,27.1,30.61,ESE,112,0.9,1.1,73,0.01,,---,0.01,VWS V14.01,2013-01-12 21:27:00,
2013-01-12 13:28:00,34.9,27.1,30.61,SSE,158,0.4,0.4,73,0.01,,---,0.01,VWS V14.01,2013-01-12 21:28:00,
2013-01-12 13:29:00,34.9,27.1,30.61,WNW,292,0.4,0.4,73,0.01,,---,0.01,VWS V14.01,2013-01-12 21:29:00,
2013-01-12 13:30:00,34.9,27.1,30.61,SE,135,1.1,1.1,73,0.01,,---,0.01,VWS V14.01,2013-01-12 21:30:00,
2013-01-12 13:31:00,34.9,27.5,30.61,SE,135,0.2,1.6,74,0.01,,---,0.01,VWS V14.01,2013-01-12 21:31:00,
2013-01-12 13:32:00,34.9,27.1,30.61,East,90,0.7,0.7,73,0.01,,---,0.01,VWS V14.01,2013-01-12 21:32:00,
2013-01-12 13:33:00,34.9,27.5,30.61,SE,135,1.1,1.1,74,0.01,,---,0.01,VWS V14.01,2013-01-12 21:33:00,
2013-01-12 13:34:00,34.9,27.1,30.61,SE,135,1.1,1.1,73,0.01,,---,0.01,VWS V14.01,2013-01-12 21:34:00,
2013-01-12 13:35:00,34.9,27.1,30.61,SE,135,1.1,1.1,73,0.01,,---,0.01,VWS V14.01,2013-01-12 21:35:00,
2013-01-12 13:36:00,34.9,27.1,30.61,ESE,112,0.0,1.3,73,0.01,,---,0.01,VWS V14.01,2013-01-12 21:36:00,
2013-01-12 13:37:00,34.9,27.1,30.61,NNE,22,0.4,0.4,73,0.01,,---,0.01,VWS V14.01,2013-01-12 21:37:00,
2013-01-12 13:38:00,34.9,27.1,30.61,ESE,112,1.6,1.6,73,0.01,,---,0.01,VWS V14.01,2013-01-12 21:38:00,
2013-01-12 13:39:00,34.9,27.1,30.61,ESE,112,1.6,1.6,73,0.01,,---,0.01,VWS V14.01,2013-01-12 21:39:00,
2013-01-12 13:40:00,34.9,27.1,30.61,ESE,112,1.6,1.6,73,0.00,,---,0.01,VWS V14.01,2013-01-12 21:40:00,
2013-01-12 13:41:00,34.9,27.1,30.61,SE,135,2.5,2.5,73,0.00,,---,0.01,VWS V14.01,2013-01-12 21:41:00,
2013-01-12 13:42:00,34.9,27.5,30.61,ESE,112,1.8,2.5,74,0.00,,---,0.01,VWS V14.01,2013-01-12 21:42:00,
2013-01-12 13:43:00,34.9,27.5,30.62,ESE,112,2.0,3.4,74,0.00,,---,0.01,VWS V14.01,2013-01-12 21:43:00,
2013-01-12 13:44:00,34.9,27.5,30.62,SSE,158,1.1,3.4,74,0.00,,---,0.01,VWS V14.01,2013-01-12 21:44:00,
2013-01-12 13:45:00,34.9,27.5,30.62,SSE,158,1.1,1.1,74,0.00,,---,0.01,VWS V14.01,2013-01-12 21:45:00,
2013-01-12 13:46:00,34.9,27.5,30.62,ESE,112,0.9,1.1,74,0.00,,---,0.01,VWS V14.01,2013-01-12 21:46:00,
2013-01-12 13:47:00,34.9,27.5,30.62,ESE,112,0.9,0.9,74,0.00,,---,0.01,VWS V14.01,2013-01-12 21:47:00,
2013-01-12 13:48:00,34.9,27.5,30.62,SE,135,0.4,0.7,74,0.00,,---,0.01,VWS V14.01,2013-01-12 21:48:00,
2013-01-12 13:49:00,34.9,27.5,30.62,SE,135,1.1,1.1,74,0.00,,---,0.01,VWS V14.01,2013-01-12 21:49:00,
2013-01-12 13:50:00,34.9,27.5,30.62,ESE,112,0.9,1.1,74,0.00,,---,0.01,VWS V14.01,2013-01-12 21:50:00,
2013-01-12 13:51:00,34.9,27.5,30.62,ESE,112,1.6,1.6,74,0.00,,---,0.01,VWS V14.01,2013-01-12 21:51:00,
2013-01-12 13:52:00,34.9,27.5,30.62,SE,135,0.7,1.6,74,0.00,,---,0.01,VWS V14.01,2013-01-12 21:52:00,
2013-01-12 13:53:00,35.1,27.7,30.62,SSW,202,0.4,0.7,74,0.00,,---,0.01,VWS V14.01,2013-01-12 21:53:00,
2013-01-12 13:54:00,35.3,28.2,30.62,SSW,202,0.4,0.7,75,0.00,,---,0.01,VWS V14.01,2013-01-12 21:54:00,
2013-01-12 13:55:00,35.3,28.2,30.62,SSW,202,0.4,0.4,75,0.00,,---,0.01,VWS V14.01,2013-01-12 21:55:00,
2013-01-12 13:56:00,35.3,28.2,30.62,SSW,202,0.4,0.4,75,0.00,,---,0.01,VWS V14.01,2013-01-12 21:56:00,
2013-01-12 13:57:00,35.5,28.4,30.62,ENE,68,2.0,2.0,75,0.00,,---,0.01,VWS V14.01,2013-01-12 21:57:00,
2013-01-12 13:58:00,35.5,28.4,30.62,East,90,1.8,2.0,75,0.00,,---,0.01,VWS V14.01,2013-01-12 21:58:00,
2013-01-12 13:59:00,35.5,28.4,30.62,East,90,1.8,2.0,75,0.00,,---,0.01,VWS V14.01,2013-01-12 21:59:00,
2013-01-12 14:00:00,35.5,28.0,30.63,ESE,112,2.2,2.2,74,0.00,,---,0.01,VWS V14.01,2013-01-12 22:00:00,
2013-01-12 14:01:00,35.5,28.4,30.63,ESE,112,2.2,2.2,75,0.00,,---,0.01,VWS V14.01,2013-01-12 22:01:00,
2013-01-12 14:02:00,35.5,27.7,30.63,East,90,1.1,2.2,73,0.00,,---,0.01,VWS V14.01,2013-01-12 22:02:00,
2013-01-12 14:03:00,35.5,26.7,30.62,North,0,0.4,1.1,70,0.00,,---,0.01,VWS V14.01,2013-01-12 22:03:00,
2013-01-12 14:04:00,35.5,26.7,30.62,NNE,22,0.0,1.1,70,0.00,,---,0.01,VWS V14.01,2013-01-12 22:04:00,
2013-01-12 14:05:00,35.5,27.0,30.62,North,0,0.0,0.0,71,0.00,,---,0.01,VWS V14.01,2013-01-12 22:05:00,
2013-01-12 14:06:00,35.5,27.0,30.62,North,0,0.0,0.0,71,0.00,,---,0.01,VWS V14.01,2013-01-12 22:06:00,
2013-01-12 14:07:00,35.5,27.0,30.63,NE,45,0.2,2.7,71,0.00,,---,0.01,VWS V14.01,2013-01-12 22:07:00,
2013-01-12 14:08:00,35.3,26.9,30.62,NNW,338,0.0,0.4,71,0.00,,---,0.01,VWS V14.01,2013-01-12 22:08:00,
2013-01-12 14:09:00,35.3,26.9,30.62,NNE,22,0.4,0.4,71,0.00,,---,0.01,VWS V14.01,2013-01-12 22:09:00,
2013-01-12 14:10:00,35.3,26.5,30.62,NE,45,0.2,0.4,70,0.00,,---,0.01,VWS V14.01,2013-01-12 22:10:00,
2013-01-12 14:11:00,35.3,26.9,30.62,North,0,0.9,0.9,71,0.00,,---,0.01,VWS V14.01,2013-01-12 22:11:00,
2013-01-12 14:12:00,35.3,26.9,30.63,NNW,338,0.4,0.9,71,0.00,,---,0.01,VWS V14.01,2013-01-12 22:12:00,
2013-01-12 14:13:00,35.3,26.5,30.62,NNW,338,0.4,0.4,70,0.00,,---,0.01,VWS V14.01,2013-01-12 22:13:00,
2013-01-12 14:14:00,35.1,26.3,30.62,NNW,338,0.7,0.7,70,0.00,,---,0.01,VWS V14.01,2013-01-12 22:14:00,
2013-01-12 14:15:00,35.1,26.3,30.62,NNW,338,0.4,0.9,70,0.00,,---,0.01,VWS V14.01,2013-01-12 22:15:00,
2013-01-12 14:16:00,35.1,26.7,30.62,NNE,22,0.4,0.7,71,0.00,,---,0.01,VWS V14.01,2013-01-12 22:16:00,
2013-01-12 14:17:00,35.1,26.3,30.62,North,0,0.0,0.4,70,0.00,,---,0.01,VWS V14.01,2013-01-12 22:17:00,
2013-01-12 14:18:00,35.1,26.3,30.62,North,0,0.2,0.2,70,0.00,,---,0.02,VWS V14.01,2013-01-12 22:18:00,
2013-01-12 14:19:00,35.1,26.3,30.62,North,0,0.0,0.2,70,0.00,,---,0.01,VWS V14.01,2013-01-12 22:19:00,
2013-01-12 14:20:00,34.9,26.1,30.62,North,0,0.0,0.0,70,0.00,,---,0.01,VWS V14.01,2013-01-12 22:20:00,
2013-01-12 14:21:00,34.9,26.1,30.62,North,0,0.0,0.0,70,0.00,,---,0.01,VWS V14.01,2013-01-12 22:21:00,
2013-01-12 14:22:00,34.9,26.5,30.62,NNE,22,0.0,0.0,71,0.00,,---,0.01,VWS V14.01,2013-01-12 22:22:00,
2013-01-12 14:23:00,34.9,26.5,30.62,NNE,22,0.2,0.2,71,0.00,,---,0.01,VWS V14.01,2013-01-12 22:23:00,
2013-01-12 14:24:00,34.9,26.5,30.62,NNE,22,0.0,0.2,71,0.00,,---,0.01,VWS V14.01,2013-01-12 22:24:00,
2013-01-12 14:25:00,34.9,26.5,30.62,SSE,158,1.3,1.3,71,0.00,,---,0.01,VWS V14.01,2013-01-12 22:25:00,
2013-01-12 14:26:00,34.9,26.8,30.62,SSE,158,1.1,1.3,72,0.00,,---,0.01,VWS V14.01,2013-01-12 22:26:00,
2013-01-12 14:27:00,34.9,26.8,30.62,SE,135,0.9,1.1,72,0.00,,---,0.01,VWS V14.01,2013-01-12 22:27:00,
2013-01-12 14:28:00,34.9,26.8,30.62,SE,135,0.9,0.9,72,0.00,,---,0.01,VWS V14.01,2013-01-12 22:28:00,
2013-01-12 14:29:00,34.9,26.8,30.62,ENE,68,0.4,0.9,72,0.00,,---,0.01,VWS V14.01,2013-01-12 22:29:00,
2013-01-12 14:30:00,34.9,27.1,30.62,SE,135,1.1,1.1,73,0.00,,---,0.01,VWS V14.01,2013-01-12 22:30:00,
2013-01-12 14:31:00,34.9,27.1,30.62,SE,135,1.6,1.6,73,0.00,,---,0.01,VWS V14.01,2013-01-12 22:31:00,
2013-01-12 14:32:00,34.9,27.1,30.62,SE,135,2.2,2.2,73,0.00,,---,0.01,VWS V14.01,2013-01-12 22:32:00,
2013-01-12 14:33:00,34.9,27.1,30.62,ESE,112,1.1,1.1,73,0.00,,---,0.01,VWS V14.01,2013-01-12 22:33:00,
2013-01-12 14:34:00,34.9,27.1,30.62,ESE,112,1.1,1.1,73,0.00,,---,0.01,VWS V14.01,2013-01-12 22:34:00,
2013-01-12 14:35:00,34.9,27.1,30.62,ESE,112,3.4,3.4,73,0.00,,---,0.01,VWS V14.01,2013-01-12 22:35:00,
2013-01-12 14:36:00,34.9,27.1,30.62,ESE,112,3.4,3.4,73,0.00,,---,0.01,VWS V14.01,2013-01-12 22:36:00,
2013-01-12 14:37:00,34.9,27.1,30.62,SE,135,2.7,3.4,73,0.00,,---,0.01,VWS V14.01,2013-01-12 22:37:00,
2013-01-12 14:38:00,34.9,27.1,30.62,SE,135,2.7,2.7,73,0.00,,---,0.01,VWS V14.01,2013-01-12 22:38:00,
2013-01-12 14:39:00,34.9,27.1,30.62,SW,225,0.4,2.7,73,0.00,,---,0.01,VWS V14.01,2013-01-12 22:39:00,
2013-01-12 14:40:00,34.7,26.6,30.62,WSW,248,0.4,0.4,72,0.00,,---,0.01,VWS V14.01,2013-01-12 22:40:00,
2013-01-12 14:41:00,34.7,26.6,30.62,West,270,0.0,0.4,72,0.00,,---,0.01,VWS V14.01,2013-01-12 22:41:00,
2013-01-12 14:42:00,34.7,26.6,30.62,West,270,0.0,0.0,72,0.00,,---,0.01,VWS V14.01,2013-01-12 22:42:00,
2013-01-12 14:43:00,34.7,26.6,30.62,West,270,0.0,0.0,72,0.00,,---,0.01,VWS V14.01,2013-01-12 22:43:00,
2013-01-12 14:44:00,34.7,26.6,30.62,West,270,0.0,0.0,72,0.00,,---,0.01,VWS V14.01,2013-01-12 22:44:00,
2013-01-12 14:45:00,34.7,26.6,30.62,SSW,202,0.0,0.0,72,0.00,,---,0.01,VWS V14.01,2013-01-12 22:45:00,
2013-01-12 14:46:00,34.7,26.6,30.62,SE,135,0.9,0.9,72,0.00,,---,0.01,VWS V14.01,2013-01-12 22:46:00,
2013-01-12 14:47:00,34.9,27.1,30.62,SE,135,0.9,0.9,73,0.00,,---,0.01,VWS V14.01,2013-01-12 22:47:00,
2013-01-12 14:48:00,34.9,27.1,30.62,SE,135,0.9,0.9,73,0.00,,---,0.01,VWS V14.01,2013-01-12 22:48:00,
2013-01-12 14:49:00,34.9,27.1,30.62,WSW,248,0.9,0.9,73,0.00,,---,0.01,VWS V14.01,2013-01-12 22:49:00,
2013-01-12 14:50:00,34.9,27.1,30.62,WSW,248,1.1,1.1,73,0.00,,---,0.01,VWS V14.01,2013-01-12 22:50:00,
2013-01-12 14:51:00,34.9,27.1,30.61,West,270,1.1,1.1,73,0.00,,---,0.01,VWS V14.01,2013-01-12 22:51:00,
2013-01-12 14:52:00,34.9,27.1,30.62,WNW,292,1.1,1.1,73,0.00,,---,0.01,VWS V14.01,2013-01-12 22:52:00,
2013-01-12 14:53:00,34.9,27.1,30.62,WNW,292,0.7,1.3,73,0.00,,---,0.01,VWS V14.01,2013-01-12 22:53:00,
2013-01-12 14:54:00,34.9,27.1,30.62,WNW,292,1.6,1.6,73,0.00,,---,0.01,VWS V14.01,2013-01-12 22:54:00,
2013-01-12 14:55:00,34.9,27.1,30.62,West,270,0.4,1.6,73,0.00,,---,0.01,VWS V14.01,2013-01-12 22:55:00,
2013-01-12 14:56:00,34.9,27.1,30.62,South,180,0.4,0.4,73,0.00,,---,0.01,VWS V14.01,2013-01-12 22:56:00,
2013-01-12 14:57:00,35.1,27.3,30.62,SSE,158,0.4,0.4,73,0.00,,---,0.01,VWS V14.01,2013-01-12 22:57:00,
2013-01-12 14:58:00,35.1,27.3,30.62,SE,135,0.0,0.0,73,0.00,,---,0.01,VWS V14.01,2013-01-12 22:58:00,
2013-01-12 14:59:00,35.3,27.5,30.62,SE,135,0.0,0.0,73,0.00,,---,0.01,VWS V14.01,2013-01-12 22:59:00,
2013-01-12 15:00:00,35.1,27.3,30.62,North,0,0.4,0.4,73,0.00,,---,0.01,VWS V14.01,2013-01-12 23:00:00,
2013-01-12 15:01:00,35.1,27.3,30.62,SSW,202,0.4,0.4,73,0.00,,---,0.01,VWS V14.01,2013-01-12 23:01:00,
2013-01-12 15:02:00,35.1,27.3,30.62,SSW,202,0.4,0.4,73,0.00,,---,0.01,VWS V14.01,2013-01-12 23:02:00,
2013-01-12 15:03:00,35.1,27.0,30.62,North,0,0.4,0.4,72,0.00,,---,0.01,VWS V14.01,2013-01-12 23:03:00,
2013-01-12 15:04:00,34.9,26.5,30.62,North,0,0.0,0.4,71,0.00,,---,0.01,VWS V14.01,2013-01-12 23:04:00,
2013-01-12 15:05:00,34.9,26.5,30.62,North,0,0.0,0.0,71,0.00,,---,0.01,VWS V14.01,2013-01-12 23:05:00,
2013-01-12 15:06:00,35.1,26.7,30.62,North,0,0.0,0.0,71,0.00,,---,0.01,VWS V14.01,2013-01-12 23:06:00,
2013-01-12 15:07:00,35.1,26.7,30.62,NNW,338,0.2,0.2,71,0.00,,---,0.01,VWS V14.01,2013-01-12 23:07:00,
2013-01-12 15:08:00,35.1,27.0,30.62,South,180,1.3,1.3,72,0.00,,---,0.01,VWS V14.01,2013-01-12 23:08:00,
2013-01-12 15:09:00,35.1,27.0,30.62,South,180,0.4,1.3,72,0.00,,---,0.01,VWS V14.01,2013-01-12 23:09:00,
2013-01-12 15:10:00,35.1,27.0,30.62,SSW,202,0.0,0.4,72,0.00,,---,0.01,VWS V14.01,2013-01-12 23:10:00,
2013-01-12 15:11:00,34.9,26.8,30.62,SSW,202,0.0,0.0,72,0.00,,---,0.01,VWS V14.01,2013-01-12 23:11:00,
2013-01-12 15:12:00,35.1,27.3,30.62,East,90,1.8,1.8,73,0.00,,---,0.01,VWS V14.01,2013-01-12 23:12:00,
2013-01-12 15:13:00,35.1,27.0,30.62,SE,135,2.5,2.5,72,0.00,,---,0.01,VWS V14.01,2013-01-12 23:13:00,
2013-01-12 15:14:00,35.1,27.0,30.62,SE,135,2.5,2.5,72,0.00,,---,0.01,VWS V14.01,2013-01-12 23:14:00,
2013-01-12 15:15:00,35.1,27.0,30.62,East,90,1.8,2.5,72,0.00,,---,0.01,VWS V14.01,2013-01-12 23:15:00,
2013-01-12 15:16:00,34.9,27.1,30.62,SE,135,1.8,1.8,73,0.00,,---,0.01,VWS V14.01,2013-01-12 23:16:00,
2013-01-12 15:17:00,34.9,27.1,30.62,SE,135,1.8,1.8,73,0.00,,---,0.01,VWS V14.01,2013-01-12 23:17:00,
2013-01-12 15:18:00,34.9,27.1,30.62,ESE,112,0.0,1.8,73,0.00,,---,0.01,VWS V14.01,2013-01-12 23:18:00,
2013-01-12 15:19:00,34.9,27.1,30.63,ENE,68,0.0,1.8,73,0.00,,---,0.01,VWS V14.01,2013-01-12 23:19:00,
2013-01-12 15:20:00,34.9,27.1,30.62,ESE,112,1.1,1.1,73,0.00,,---,0.01,VWS V14.01,2013-01-12 23:20:00,
2013-01-12 15:21:00,34.9,27.1,30.62,East,90,1.8,1.8,73,0.00,,---,0.01,VWS V14.01,2013-01-12 23:21:00,
2013-01-12 15:22:00,34.9,27.1,30.62,SE,135,0.4,1.8,73,0.00,,---,0.01,VWS V14.01,2013-01-12 23:22:00,
2013-01-12 15:23:00,34.9,27.1,30.62,SE,135,0.0,0.0,73,0.00,,---,0.01,VWS V14.01,2013-01-12 23:23:00,
2013-01-12 15:24:00,34.9,27.1,30.62,East,90,1.1,1.1,73,0.00,,---,0.01,VWS V14.01,2013-01-12 23:24:00,
2013-01-12 15:25:00,34.9,27.1,30.62,East,90,1.1,1.1,73,0.00,,---,0.01,VWS V14.01,2013-01-12 23:25:00,
2013-01-12 15:26:00,34.9,27.1,30.62,SE,135,1.1,1.1,73,0.00,,---,0.01,VWS V14.01,2013-01-12 23:26:00,
2013-01-12 15:27:00,34.7,26.9,30.62,SE,135,1.3,1.3,73,0.00,,---,0.01,VWS V14.01,2013-01-12 23:27:00,
2013-01-12 15:28:00,34.7,27.0,30.62,ESE,112,0.4,0.4,73,0.00,,---,0.01,VWS V14.01,2013-01-12 23:28:00,
2013-01-12 15:29:00,34.7,26.9,30.62,ESE,112,1.6,1.6,73,0.00,,---,0.01,VWS V14.01,2013-01-12 23:29:00,
2013-01-12 15:30:00,34.7,26.9,30.62,ESE,112,0.9,1.6,73,0.00,,---,0.01,VWS V14.01,2013-01-12 23:30:00,
2013-01-12 15:31:00,34.7,26.9,30.62,SE,135,0.2,0.9,73,0.00,,---,0.01,VWS V14.01,2013-01-12 23:31:00,
2013-01-12 15:32:00,34.7,26.9,30.62,SE,135,0.0,0.2,73,0.00,,---,0.01,VWS V14.01,2013-01-12 23:32:00,
2013-01-12 15:33:00,34.7,27.0,30.62,SE,135,0.2,0.2,73,0.00,,---,0.01,VWS V14.01,2013-01-12 23:33:00,
2013-01-12 15:34:00,34.7,26.9,30.62,SE,135,0.0,0.2,73,0.00,,---,0.01,VWS V14.01,2013-01-12 23:34:00,
2013-01-12 15:35:00,34.7,26.9,30.62,SE,135,0.4,1.1,73,0.00,,---,0.01,VWS V14.01,2013-01-12 23:35:00,
2013-01-12 15:36:00,34.7,26.9,30.62,SE,135,0.4,0.4,73,0.00,,---,0.01,VWS V14.01,2013-01-12 23:36:00,
2013-01-12 15:37:00,34.7,26.9,30.62,WSW,248,0.9,0.9,73,0.00,,---,0.01,VWS V14.01,2013-01-12 23:37:00,
2013-01-12 15:38:00,34.7,27.0,30.62,West,270,0.2,0.2,73,0.00,,---,0.02,VWS V14.01,2013-01-12 23:38:00,
2013-01-12 15:39:00,34.6,27.2,30.62,West,270,0.0,0.4,74,0.00,,---,0.01,VWS V14.01,2013-01-12 23:39:00,
2013-01-12 15:40:00,34.6,27.2,30.62,WNW,292,0.2,0.2,74,0.00,,---,0.01,VWS V14.01,2013-01-12 23:40:00,
2013-01-12 15:41:00,34.4,27.0,30.62,WNW,292,0.9,0.9,74,0.00,,---,0.01,VWS V14.01,2013-01-12 23:41:00,
2013-01-12 15:42:00,34.2,26.8,30.62,West,270,0.4,0.9,74,0.00,,---,0.01,VWS V14.01,2013-01-12 23:42:00,
2013-01-12 15:43:00,34.2,26.8,30.63,West,270,0.0,0.0,74,0.00,,---,0.01,VWS V14.01,2013-01-12 23:43:00,
2013-01-12 15:44:00,34.2,27.1,30.63,West,270,0.0,0.0,75,0.00,,---,0.01,VWS V14.01,2013-01-12 23:44:00,
2013-01-12 15:45:00,34.2,27.1,30.62,West,270,0.0,0.0,75,0.00,,---,0.01,VWS V14.01,2013-01-12 23:45:00,
2013-01-12 15:46:00,34.0,26.9,30.63,West,270,0.0,0.4,75,0.00,,---,0.01,VWS V14.01,2013-01-12 23:46:00,
2013-01-12 15:47:00,34.0,26.9,30.63,West,270,0.0,0.0,75,0.00,,---,0.01,VWS V14.01,2013-01-12 23:47:00,
2013-01-12 15:48:00,33.8,26.7,30.63,West,270,0.9,0.9,75,0.00,,---,0.01,VWS V14.01,2013-01-12 23:48:00,
2013-01-12 15:49:00,33.8,26.7,30.63,West,270,0.9,0.9,75,0.00,,---,0.01,VWS V14.01,2013-01-12 23:49:00,
2013-01-12 15:50:00,33.7,27.0,30.63,West,270,0.4,0.9,76,0.00,,---,0.01,VWS V14.01,2013-01-12 23:50:00,
2013-01-12 15:51:00,33.5,26.8,30.63,West,270,0.0,0.4,76,0.00,,---,0.01,VWS V14.01,2013-01-12 23:51:00,
2013-01-12 15:52:00,33.5,26.8,30.63,West,270,0.0,0.0,76,0.00,,---,0.01,VWS V14.01,2013-01-12 23:52:00,
2013-01-12 15:53:00,33.5,26.8,30.63,West,270,0.0,0.0,76,0.00,,---,0.01,VWS V14.01,2013-01-12 23:53:00,
2013-01-12 15:54:00,33.3,26.6,30.62,West,270,0.0,0.0,76,0.00,,---,0.01,VWS V14.01,2013-01-12 23:54:00,
2013-01-12 15:55:00,33.3,26.6,30.63,West,270,0.2,0.2,76,0.00,,---,0.01,VWS V14.01,2013-01-12 23:55:00,
2013-01-12 15:56:00,33.3,26.6,30.63,West,270,0.0,0.2,76,0.00,,---,0.01,VWS V14.01,2013-01-12 23:56:00,
2013-01-12 15:57:00,33.1,26.4,30.62,West,270,0.0,0.0,76,0.00,,---,0.01,VWS V14.01,2013-01-12 23:57:00,
2013-01-12 15:58:00,33.1,26.4,30.62,West,270,0.0,0.0,76,0.00,,---,0.01,VWS V14.01,2013-01-12 23:58:00,
2013-01-12 15:59:00,32.9,26.5,30.63,West,270,0.0,0.0,77,0.00,,---,0.01,VWS V14.01,2013-01-12 23:59:00,
2013-01-12 16:00:00,32.9,26.5,30.62,West,270,0.0,0.0,77,0.00,,---,0.01,VWS V14.01,2013-01-13 00:00:00,
2013-01-12 16:01:00,32.9,26.5,30.62,West,270,0.0,0.0,77,0.00,,---,0.01,VWS V14.01,2013-01-13 00:01:00,
2013-01-12 16:02:00,32.8,26.4,30.62,West,270,0.0,0.0,77,0.00,,---,0.01,VWS V14.01,2013-01-13 00:02:00,
2013-01-12 16:03:00,32.8,26.4,30.62,West,270,0.0,0.0,77,0.00,,---,0.01,VWS V14.01,2013-01-13 00:03:00,
2013-01-12 16:04:00,32.8,26.4,30.62,West,270,0.0,0.0,77,0.00,,---,0.01,VWS V14.01,2013-01-13 00:04:00,
2013-01-12 16:05:00,32.8,26.4,30.63,West,270,0.0,0.0,77,0.00,,---,0.01,VWS V14.01,2013-01-13 00:05:00,
2013-01-12 16:06:00,32.6,26.5,30.63,West,270,0.0,0.0,78,0.00,,---,0.01,VWS V14.01,2013-01-13 00:06:00,
2013-01-12 16:07:00,32.4,26.3,30.63,West,270,0.0,0.0,78,0.00,,---,0.01,VWS V14.01,2013-01-13 00:07:00,
2013-01-12 16:08:00,32.4,26.3,30.63,West,270,0.0,0.0,78,0.00,,---,0.01,VWS V14.01,2013-01-13 00:08:00,
2013-01-12 16:09:00,32.4,26.3,30.63,West,270,0.0,0.0,78,0.00,,---,0.01,VWS V14.01,2013-01-13 00:09:00,
2013-01-12 16:10:00,32.4,26.3,30.63,West,270,0.0,0.0,78,0.00,,---,0.01,VWS V14.01,2013-01-13 00:10:00,
2013-01-12 16:11:00,32.4,26.3,30.63,West,270,0.0,0.0,78,0.00,,---,0.01,VWS V14.01,2013-01-13 00:11:00,
2013-01-12 16:12:00,32.2,26.1,30.63,West,270,0.0,0.0,78,0.00,,---,0.01,VWS V14.01,2013-01-13 00:12:00,
2013-01-12 16:13:00,32.2,26.1,30.63,West,270,0.0,0.0,78,0.00,,---,0.01,VWS V14.01,2013-01-13 00:13:00,
2013-01-12 16:14:00,32.2,26.1,30.63,West,270,0.0,0.0,78,0.00,,---,0.01,VWS V14.01,2013-01-13 00:14:00,
2013-01-12 16:15:00,32.2,26.4,30.63,West,270,0.0,0.0,79,0.00,,---,0.01,VWS V14.01,2013-01-13 00:15:00,
2013-01-12 16:16:00,32.0,26.2,30.63,West,270,0.0,0.0,79,0.00,,---,0.01,VWS V14.01,2013-01-13 00:16:00,
2013-01-12 16:17:00,32.0,26.2,30.63,West,270,0.0,0.0,79,0.00,,---,0.01,VWS V14.01,2013-01-13 00:17:00,
2013-01-12 16:18:00,32.0,26.2,30.63,West,270,0.0,0.0,79,0.00,,---,0.01,VWS V14.01,2013-01-13 00:18:00,
2013-01-12 16:19:00,32.0,26.2,30.63,West,270,0.0,0.0,79,0.00,,---,0.01,VWS V14.01,2013-01-13 00:19:00,
2013-01-12 16:20:00,32.0,25.9,30.63,West,270,0.0,0.0,78,0.00,,---,0.01,VWS V14.01,2013-01-13 00:20:00,
2013-01-12 16:21:00,32.0,25.9,30.63,West,270,0.0,0.0,78,0.00,,---,0.01,VWS V14.01,2013-01-13 00:21:00,
2013-01-12 16:22:00,31.9,25.8,30.63,West,270,0.0,0.0,78,0.00,,---,0.01,VWS V14.01,2013-01-13 00:22:00,
2013-01-12 16:23:00,31.9,25.8,30.63,West,270,0.0,0.0,78,0.00,,---,0.01,VWS V14.01,2013-01-13 00:23:00,
2013-01-12 16:24:00,31.9,26.1,30.63,West,270,0.0,0.0,79,0.00,,---,0.01,VWS V14.01,2013-01-13 00:24:00,
2013-01-12 16:25:00,31.7,25.9,30.63,West,270,0.0,0.0,79,0.00,,---,0.01,VWS V14.01,2013-01-13 00:25:00,
2013-01-12 16:26:00,31.7,25.9,30.62,West,270,0.0,0.0,79,0.00,,---,0.01,VWS V14.01,2013-01-13 00:26:00,
2013-01-12 16:27:00,31.7,25.9,30.62,West,270,0.0,0.0,79,0.00,,---,0.01,VWS V14.01,2013-01-13 00:27:00,
2013-01-12 16:28:00,31.7,25.9,30.62,West,270,0.0,0.0,79,0.00,,---,0.01,VWS V14.01,2013-01-13 00:28:00,
2013-01-12 16:29:00,31.5,25.8,30.62,West,270,0.0,0.0,79,0.00,,---,0.01,VWS V14.01,2013-01-13 00:29:00,
2013-01-12 16:30:00,31.5,25.8,30.62,West,270,0.0,0.0,79,0.00,,---,0.01,VWS V14.01,2013-01-13 00:30:00,
2013-01-12 16:31:00,31.5,25.8,30.62,West,270,0.0,0.0,79,0.00,,---,0.01,VWS V14.01,2013-01-13 00:31:00,
2013-01-12 16:32:00,31.3,25.6,30.62,West,270,0.0,0.0,79,0.00,,---,0.01,VWS V14.01,2013-01-13 00:32:00,
2013-01-12 16:33:00,31.3,25.6,30.62,West,270,0.0,0.0,79,0.00,,---,0.01,VWS V14.01,2013-01-13 00:33:00,
2013-01-12 16:34:00,31.3,25.6,30.62,West,270,0.0,0.0,79,0.00,,---,0.01,VWS V14.01,2013-01-13 00:34:00,
2013-01-12 16:35:00,31.3,25.6,30.62,West,270,0.0,0.0,79,0.00,,---,0.01,VWS V14.01,2013-01-13 00:35:00,
2013-01-12 16:36:00,31.3,25.6,30.62,West,270,0.0,0.0,79,0.00,,---,0.01,VWS V14.01,2013-01-13 00:36:00,
2013-01-12 16:37:00,31.1,25.4,30.62,West,270,0.0,0.0,79,0.00,,---,0.02,VWS V14.01,2013-01-13 00:37:00,
2013-01-12 16:38:00,31.1,25.4,30.62,West,270,0.0,0.0,79,0.00,,---,0.01,VWS V14.01,2013-01-13 00:38:00,
2013-01-12 16:39:00,31.1,25.4,30.62,West,270,0.0,0.0,79,0.00,,---,0.01,VWS V14.01,2013-01-13 00:39:00,
2013-01-12 16:40:00,31.1,25.4,30.62,West,270,0.0,0.0,79,0.00,,---,0.01,VWS V14.01,2013-01-13 00:40:00,
2013-01-12 16:41:00,31.1,25.4,30.62,West,270,0.0,0.0,79,0.00,,---,0.01,VWS V14.01,2013-01-13 00:41:00,
2013-01-12 16:42:00,31.0,25.6,30.62,West,270,0.0,0.0,80,0.00,,---,0.01,VWS V14.01,2013-01-13 00:42:00,
2013-01-12 16:43:00,31.0,25.6,30.62,West,270,0.0,0.0,80,0.00,,---,0.01,VWS V14.01,2013-01-13 00:43:00,
2013-01-12 16:44:00,31.0,25.6,30.62,West,270,0.0,0.0,80,0.00,,---,0.01,VWS V14.01,2013-01-13 00:44:00,
2013-01-12 16:45:00,31.0,25.6,30.62,West,270,0.0,0.0,80,0.00,,---,0.01,VWS V14.01,2013-01-13 00:45:00,
2013-01-12 16:46:00,30.8,25.4,30.62,West,270,0.0,0.0,80,0.00,,---,0.01,VWS V14.01,2013-01-13 00:46:00,
2013-01-12 16:47:00,30.8,25.4,30.62,West,270,0.0,0.0,80,0.00,,---,0.01,VWS V14.01,2013-01-13 00:47:00,
2013-01-12 16:48:00,30.8,25.4,30.62,West,270,0.0,0.0,80,0.00,,---,0.01,VWS V14.01,2013-01-13 00:48:00,
2013-01-12 16:49:00,30.6,25.2,30.62,West,270,0.0,0.0,80,0.00,,---,0.01,VWS V14.01,2013-01-13 00:49:00,
2013-01-12 16:50:00,30.6,25.2,30.62,West,270,0.0,0.0,80,0.00,,---,0.01,VWS V14.01,2013-01-13 00:50:00,
2013-01-12 16:51:00,30.6,25.2,30.62,NNW,338,0.0,0.0,80,0.00,,---,0.01,VWS V14.01,2013-01-13 00:51:00,
2013-01-12 16:52:00,30.6,25.2,30.62,NNW,338,0.0,0.0,80,0.00,,---,0.01,VWS V14.01,2013-01-13 00:52:00,
2013-01-12 16:53:00,30.6,25.2,30.62,NNW,338,0.0,0.0,80,0.00,,---,0.01,VWS V14.01,2013-01-13 00:53:00,
2013-01-12 16:54:00,30.6,25.2,30.63,NNW,338,0.0,0.0,80,0.00,,---,0.01,VWS V14.01,2013-01-13 00:54:00,
2013-01-12 16:55:00,30.4,25.0,30.63,NNW,338,0.0,0.0,80,0.00,,---,0.01,VWS V14.01,2013-01-13 00:55:00,
2013-01-12 16:56:00,30.4,25.3,30.63,NNW,338,0.0,0.0,81,0.00,,---,0.01,VWS V14.01,2013-01-13 00:56:00,
2013-01-12 16:57:00,30.4,25.3,30.63,NNW,338,0.0,0.0,81,0.00,,---,0.01,VWS V14.01,2013-01-13 00:57:00,
2013-01-12 16:58:00,30.4,25.3,30.63,NNW,338,0.0,0.0,81,0.00,,---,0.01,VWS V14.01,2013-01-13 00:58:00,
2013-01-12 16:59:00,30.4,25.3,30.63,NNW,338,0.0,0.0,81,0.00,,---,0.01,VWS V14.01,2013-01-13 00:59:00,
2013-01-12 17:00:00,30.2,25.1,30.63,NNW,338,0.0,0.0,81,0.00,,---,0.01,VWS V14.01,2013-01-13 01:00:00,
2013-01-12 17:01:00,30.2,25.1,30.63,NNW,338,0.0,0.0,81,0.00,,---,0.01,VWS V14.01,2013-01-13 01:01:00,
2013-01-12 17:02:00,30.2,25.1,30.63,NNW,338,0.0,0.0,81,0.00,,---,0.01,VWS V14.01,2013-01-13 01:02:00,
2013-01-12 17:03:00,30.2,25.1,30.63,NNW,338,0.0,0.0,81,0.00,,---,0.01,VWS V14.01,2013-01-13 01:03:00,
2013-01-12 17:04:00,30.2,25.1,30.63,NNW,338,0.0,0.0,81,0.00,,---,0.01,VWS V14.01,2013-01-13 01:04:00,
2013-01-12 17:05:00,30.2,25.1,30.63,NNW,338,0.0,0.0,81,0.00,,---,0.01,VWS V14.01,2013-01-13 01:05:00,
2013-01-12 17:06:00,30.1,25.0,30.63,NNW,338,0.0,0.0,81,0.00,,---,0.01,VWS V14.01,2013-01-13 01:06:00,
2013-01-12 17:07:00,30.1,25.0,30.63,NNW,338,0.0,0.0,81,0.00,,---,0.01,VWS V14.01,2013-01-13 01:07:00,
2013-01-12 17:08:00,30.1,25.0,30.63,NNW,338,0.0,0.0,81,0.00,,---,0.01,VWS V14.01,2013-01-13 01:08:00,
2013-01-12 17:09:00,29.9,24.8,30.63,NNW,338,0.0,0.0,81,0.00,,---,0.01,VWS V14.01,2013-01-13 01:09:00,
2013-01-12 17:10:00,29.9,24.8,30.63,NNW,338,0.0,0.0,81,0.00,,---,0.01,VWS V14.01,2013-01-13 01:10:00,
2013-01-12 17:11:00,29.9,24.8,30.63,NNW,338,0.0,0.0,81,0.00,,---,0.01,VWS V14.01,2013-01-13 01:11:00,
2013-01-12 17:12:00,29.9,24.8,30.63,NNW,338,0.0,0.0,81,0.00,,---,0.01,VWS V14.01,2013-01-13 01:12:00,
2013-01-12 17:13:00,29.9,24.8,30.63,NNW,338,0.0,0.0,81,0.00,,---,0.01,VWS V14.01,2013-01-13 01:13:00,
2013-01-12 17:14:00,29.9,25.1,30.63,NNW,338,0.0,0.0,82,0.00,,---,0.01,VWS V14.01,2013-01-13 01:14:00,
2013-01-12 17:15:00,29.7,24.9,30.63,North,0,0.0,0.0,82,0.00,,---,0.01,VWS V14.01,2013-01-13 01:15:00,
2013-01-12 17:16:00,29.7,24.9,30.63,North,0,0.0,0.0,82,0.00,,---,0.01,VWS V14.01,2013-01-13 01:16:00,
2013-01-12 17:17:00,29.5,24.7,30.63,NE,45,0.0,0.0,82,0.00,,---,0.01,VWS V14.01,2013-01-13 01:17:00,
2013-01-12 17:18:00,29.5,24.7,30.63,NE,45,0.0,0.0,82,0.00,,---,0.01,VWS V14.01,2013-01-13 01:18:00,
2013-01-12 17:19:00,29.5,24.7,30.63,NE,45,0.0,0.0,82,0.00,,---,0.01,VWS V14.01,2013-01-13 01:19:00,
2013-01-12 17:20:00,29.5,24.7,30.63,NE,45,0.0,0.0,82,0.00,,---,0.01,VWS V14.01,2013-01-13 01:20:00,
2013-01-12 17:21:00,29.5,24.7,30.63,NE,45,0.0,0.0,82,0.00,,---,0.01,VWS V14.01,2013-01-13 01:21:00,
2013-01-12 17:22:00,29.3,24.5,30.63,NE,45,0.0,0.0,82,0.00,,---,0.01,VWS V14.01,2013-01-13 01:22:00,
2013-01-12 17:23:00,29.3,24.5,30.63,NE,45,0.0,0.0,82,0.00,,---,0.01,VWS V14.01,2013-01-13 01:23:00,
2013-01-12 17:24:00,29.3,24.5,30.63,NE,45,0.0,0.0,82,0.00,,---,0.01,VWS V14.01,2013-01-13 01:24:00,
2013-01-12 17:25:00,29.3,24.5,30.63,NE,45,0.0,0.0,82,0.00,,---,0.01,VWS V14.01,2013-01-13 01:25:00,
2013-01-12 17:26:00,29.2,24.7,30.63,NE,45,0.0,0.0,83,0.00,,---,0.01,VWS V14.01,2013-01-13 01:26:00,
2013-01-12 17:27:00,29.2,24.7,30.63,NE,45,0.0,0.0,83,0.00,,---,0.01,VWS V14.01,2013-01-13 01:27:00,
2013-01-12 17:28:00,29.2,24.7,30.63,NE,45,0.0,0.0,83,0.00,,---,0.01,VWS V14.01,2013-01-13 01:28:00,
2013-01-12 17:29:00,29.2,24.7,30.63,NE,45,0.0,0.0,83,0.00,,---,0.01,VWS V14.01,2013-01-13 01:29:00,
2013-01-12 17:30:00,29.2,24.7,30.63,NE,45,0.0,0.0,83,0.00,,---,0.01,VWS V14.01,2013-01-13 01:30:00,
2013-01-12 17:31:00,29.2,24.7,30.63,NE,45,0.0,0.0,83,0.00,,---,0.01,VWS V14.01,2013-01-13 01:31:00,
2013-01-12 17:32:00,29.0,24.5,30.64,NE,45,0.0,0.0,83,0.00,,---,0.01,VWS V14.01,2013-01-13 01:32:00,
2013-01-12 17:33:00,29.0,24.5,30.64,NE,45,0.0,0.0,83,0.00,,---,0.01,VWS V14.01,2013-01-13 01:33:00,
2013-01-12 17:34:00,29.0,24.5,30.63,NE,45,0.0,0.0,83,0.00,,---,0.01,VWS V14.01,2013-01-13 01:34:00,
2013-01-12 17:35:00,29.0,24.5,30.63,NE,45,0.0,0.0,83,0.00,,---,0.01,VWS V14.01,2013-01-13 01:35:00,
2013-01-12 17:36:00,29.0,24.5,30.63,NE,45,0.0,0.0,83,0.00,,---,0.01,VWS V14.01,2013-01-13 01:36:00,
2013-01-12 17:37:00,29.0,24.5,30.63,NE,45,0.0,0.0,83,0.00,,---,0.01,VWS V14.01,2013-01-13 01:37:00,
2013-01-12 17:38:00,29.0,24.5,30.63,NE,45,0.0,0.0,83,0.00,,---,0.01,VWS V14.01,2013-01-13 01:38:00,
2013-01-12 17:39:00,28.8,24.3,30.63,NE,45,0.0,0.0,83,0.00,,---,0.01,VWS V14.01,2013-01-13 01:39:00,
2013-01-12 17:40:00,28.8,24.3,30.63,NE,45,0.0,0.0,83,0.00,,---,0.01,VWS V14.01,2013-01-13 01:40:00,
2013-01-12 17:41:00,28.8,24.3,30.63,NE,45,0.0,0.0,83,0.00,,---,0.01,VWS V14.01,2013-01-13 01:41:00,
2013-01-12 17:42:00,28.8,24.3,30.63,NE,45,0.0,0.0,83,0.00,,---,0.01,VWS V14.01,2013-01-13 01:42:00,
2013-01-12 17:43:00,28.8,24.3,30.63,NE,45,0.0,0.0,83,0.00,,---,0.01,VWS V14.01,2013-01-13 01:43:00,
2013-01-12 17:44:00,28.6,24.1,30.63,NE,45,0.0,0.0,83,0.00,,---,0.01,VWS V14.01,2013-01-13 01:44:00,
2013-01-12 17:45:00,28.6,24.1,30.63,NE,45,0.4,0.4,83,0.00,,---,0.01,VWS V14.01,2013-01-13 01:45:00,
2013-01-12 17:46:00,28.6,24.1,30.63,NE,45,0.4,0.4,83,0.00,,---,0.01,VWS V14.01,2013-01-13 01:46:00,
2013-01-12 17:47:00,28.6,24.1,30.63,NE,45,0.7,0.7,83,0.00,,---,0.01,VWS V14.01,2013-01-13 01:47:00,
2013-01-12 17:48:00,28.4,23.9,30.63,NE,45,0.4,0.7,83,0.00,,---,0.01,VWS V14.01,2013-01-13 01:48:00,
2013-01-12 17:49:00,28.4,23.9,30.63,NE,45,0.4,0.4,83,0.00,,---,0.01,VWS V14.01,2013-01-13 01:49:00,
2013-01-12 17:50:00,28.4,23.9,30.63,NE,45,0.4,0.7,83,0.00,,---,0.01,VWS V14.01,2013-01-13 01:50:00,
2013-01-12 17:51:00,28.4,23.9,30.63,NE,45,0.2,0.4,83,0.00,,---,0.01,VWS V14.01,2013-01-13 01:51:00,
2013-01-12 17:52:00,28.4,23.9,30.63,NE,45,0.0,0.0,83,0.00,,---,0.01,VWS V14.01,2013-01-13 01:52:00,
2013-01-12 17:53:00,28.4,23.9,30.63,NE,45,0.0,0.0,83,0.00,,---,0.01,VWS V14.01,2013-01-13 01:53:00,
2013-01-12 17:54:00,28.4,24.2,30.63,NE,45,1.1,1.1,84,0.00,,---,0.01,VWS V14.01,2013-01-13 01:54:00,
2013-01-12 17:55:00,28.4,24.2,30.63,NE,45,1.1,1.1,84,0.00,,---,0.01,VWS V14.01,2013-01-13 01:55:00,
2013-01-12 17:56:00,28.4,24.2,30.63,NE,45,0.4,1.1,84,0.00,,---,0.01,VWS V14.01,2013-01-13 01:56:00,
2013-01-12 17:57:00,28.4,24.2,30.63,NE,45,0.7,0.7,84,0.00,,---,0.01,VWS V14.01,2013-01-13 01:57:00,
2013-01-12 17:58:00,28.4,24.2,30.63,NE,45,0.7,0.7,84,0.00,,---,0.01,VWS V14.01,2013-01-13 01:58:00,
2013-01-12 17:59:00,28.4,24.2,30.63,NE,45,0.7,0.7,84,0.00,,---,0.01,VWS V14.01,2013-01-13 01:59:00,
2013-01-12 18:00:00,28.3,24.1,30.63,NE,45,0.7,0.7,84,0.00,,---,0.01,VWS V14.01,2013-01-13 02:00:00,
2013-01-12 18:01:00,28.3,24.1,30.63,NE,45,0.4,0.7,84,0.00,,---,0.01,VWS V14.01,2013-01-13 02:01:00,
2013-01-12 18:02:00,28.3,24.1,30.63,NE,45,0.7,0.9,84,0.00,,---,0.01,VWS V14.01,2013-01-13 02:02:00,
2013-01-12 18:03:00,28.3,24.1,30.63,NE,45,0.7,0.9,84,0.00,,---,0.01,VWS V14.01,2013-01-13 02:03:00,
2013-01-12 18:04:00,28.3,24.1,30.63,NE,45,0.7,0.7,84,0.00,,---,0.01,VWS V14.01,2013-01-13 02:04:00,
2013-01-12 18:05:00,28.3,24.1,30.63,NE,45,0.4,0.7,84,0.00,,---,0.01,VWS V14.01,2013-01-13 02:05:00,
2013-01-12 18:06:00,28.1,23.6,30.63,NE,45,0.4,0.4,83,0.00,,---,0.01,VWS V14.01,2013-01-13 02:06:00,
2013-01-12 18:07:00,28.1,23.6,30.63,NE,45,0.4,0.4,83,0.00,,---,0.01,VWS V14.01,2013-01-13 02:07:00,
2013-01-12 18:08:00,28.1,23.6,30.63,NE,45,0.4,0.4,83,0.00,,---,0.01,VWS V14.01,2013-01-13 02:08:00,
2013-01-12 18:09:00,28.1,23.6,30.63,NE,45,0.4,0.4,83,0.00,,---,0.01,VWS V14.01,2013-01-13 02:09:00,
2013-01-12 18:10:00,28.1,23.6,30.63,NE,45,0.4,0.4,83,0.00,,---,0.01,VWS V14.01,2013-01-13 02:10:00,
2013-01-12 18:11:00,28.1,23.6,30.63,NE,45,0.4,0.4,83,0.00,,---,0.01,VWS V14.01,2013-01-13 02:11:00,
2013-01-12 18:12:00,27.9,23.4,30.63,NE,45,0.7,0.7,83,0.00,,---,0.01,VWS V14.01,2013-01-13 02:12:00,
2013-01-12 18:13:00,27.9,23.4,30.63,NE,45,0.7,0.7,83,0.00,,---,0.01,VWS V14.01,2013-01-13 02:13:00,
2013-01-12 18:14:00,27.9,23.4,30.63,NE,45,0.9,0.9,83,0.00,,---,0.01,VWS V14.01,2013-01-13 02:14:00,
2013-01-12 18:15:00,27.9,23.4,30.63,NE,45,0.4,0.9,83,0.00,,---,0.01,VWS V14.01,2013-01-13 02:15:00,
2013-01-12 18:16:00,27.9,23.7,30.63,NE,45,0.0,0.4,84,0.00,,---,0.01,VWS V14.01,2013-01-13 02:16:00,
2013-01-12 18:17:00,27.9,23.7,30.63,NE,45,0.0,0.0,84,0.00,,---,0.01,VWS V14.01,2013-01-13 02:17:00,
2013-01-12 18:18:00,27.7,23.5,30.63,NE,45,0.0,0.0,84,0.00,,---,0.01,VWS V14.01,2013-01-13 02:18:00,
2013-01-12 18:19:00,27.7,23.5,30.63,NE,45,0.0,0.0,84,0.00,,---,0.01,VWS V14.01,2013-01-13 02:19:00,
2013-01-12 18:20:00,27.7,23.5,30.63,NE,45,0.0,0.0,84,0.00,,---,0.01,VWS V14.01,2013-01-13 02:20:00,
2013-01-12 18:21:00,27.7,23.5,30.63,NE,45,0.0,0.0,84,0.00,,---,0.01,VWS V14.01,2013-01-13 02:21:00,
2013-01-12 18:22:00,27.7,23.5,30.63,NE,45,0.0,0.0,84,0.00,,---,0.01,VWS V14.01,2013-01-13 02:22:00,
2013-01-12 18:23:00,27.7,23.5,30.64,NE,45,0.0,0.0,84,0.00,,---,0.01,VWS V14.01,2013-01-13 02:23:00,
2013-01-12 18:24:00,27.7,23.5,30.64,NE,45,0.0,0.0,84,0.00,,---,0.01,VWS V14.01,2013-01-13 02:24:00,
2013-01-12 18:25:00,27.7,23.5,30.63,NE,45,0.0,0.0,84,0.00,,---,0.01,VWS V14.01,2013-01-13 02:25:00,
2013-01-12 18:26:00,27.7,23.5,30.64,NE,45,0.0,0.0,84,0.00,,---,0.01,VWS V14.01,2013-01-13 02:26:00,
2013-01-12 18:27:00,27.7,23.5,30.64,NE,45,0.0,0.2,84,0.00,,---,0.01,VWS V14.01,2013-01-13 02:27:00,
2013-01-12 18:28:00,27.7,23.5,30.64,NE,45,0.0,0.2,84,0.00,,---,0.01,VWS V14.01,2013-01-13 02:28:00,
2013-01-12 18:29:00,27.7,23.5,30.64,NE,45,0.0,0.0,84,0.00,,---,0.01,VWS V14.01,2013-01-13 02:29:00,
2013-01-12 18:30:00,27.7,23.5,30.64,NE,45,0.0,0.0,84,0.00,,---,0.01,VWS V14.01,2013-01-13 02:30:00,
2013-01-12 18:31:00,27.5,23.3,30.64,NE,45,0.0,0.0,84,0.00,,---,0.01,VWS V14.01,2013-01-13 02:31:00,
2013-01-12 18:32:00,27.5,23.3,30.64,NE,45,0.0,0.0,84,0.00,,---,0.01,VWS V14.01,2013-01-13 02:32:00,
2013-01-12 18:33:00,27.5,23.3,30.64,NE,45,0.0,0.0,84,0.00,,---,0.01,VWS V14.01,2013-01-13 02:33:00,
2013-01-12 18:34:00,27.5,23.3,30.64,NE,45,0.0,0.0,84,0.00,,---,0.01,VWS V14.01,2013-01-13 02:34:00,
2013-01-12 18:35:00,27.4,23.2,30.64,NE,45,0.0,0.0,84,0.00,,---,0.01,VWS V14.01,2013-01-13 02:35:00,
2013-01-12 18:36:00,27.4,23.2,30.64,NE,45,0.0,0.0,84,0.00,,---,0.01,VWS V14.01,2013-01-13 02:36:00,
2013-01-12 18:37:00,27.4,23.2,30.64,NE,45,0.4,0.4,84,0.00,,---,0.01,VWS V14.01,2013-01-13 02:37:00,
2013-01-12 18:38:00,27.4,23.2,30.64,NE,45,0.4,0.4,84,0.00,,---,0.01,VWS V14.01,2013-01-13 02:38:00,
2013-01-12 18:39:00,27.4,23.2,30.64,NE,45,0.4,0.4,84,0.00,,---,0.01,VWS V14.01,2013-01-13 02:39:00,
2013-01-12 18:40:00,27.4,23.2,30.65,NE,45,0.4,0.4,84,0.00,,---,0.01,VWS V14.01,2013-01-13 02:40:00,
2013-01-12 18:41:00,27.4,23.5,30.64,NE,45,0.2,0.4,85,0.00,,---,0.01,VWS V14.01,2013-01-13 02:41:00,
2013-01-12 18:42:00,27.4,23.5,30.65,NE,45,0.0,0.2,85,0.00,,---,0.01,VWS V14.01,2013-01-13 02:42:00,
2013-01-12 18:43:00,27.4,23.5,30.65,NE,45,0.0,0.2,85,0.00,,---,0.01,VWS V14.01,2013-01-13 02:43:00,
2013-01-12 18:44:00,27.2,23.3,30.65,NE,45,0.0,0.0,85,0.00,,---,0.01,VWS V14.01,2013-01-13 02:44:00,
2013-01-12 18:45:00,27.2,23.3,30.65,NE,45,0.0,0.0,85,0.00,,---,0.01,VWS V14.01,2013-01-13 02:45:00,
2013-01-12 18:46:00,27.2,23.3,30.65,NE,45,0.0,0.0,85,0.00,,---,0.01,VWS V14.01,2013-01-13 02:46:00,
2013-01-12 18:47:00,27.2,23.3,30.65,NE,45,0.0,0.0,85,0.00,,---,0.01,VWS V14.01,2013-01-13 02:47:00,
2013-01-12 18:48:00,27.2,23.3,30.65,NE,45,0.0,0.0,85,0.00,,---,0.01,VWS V14.01,2013-01-13 02:48:00,
2013-01-12 18:49:00,27.2,23.3,30.65,NE,45,0.0,0.0,85,0.00,,---,0.01,VWS V14.01,2013-01-13 02:49:00,
2013-01-12 18:50:00,27.0,23.1,30.65,NE,45,0.0,0.0,85,0.00,,---,0.01,VWS V14.01,2013-01-13 02:50:00,
2013-01-12 18:51:00,27.0,23.1,30.65,NE,45,0.7,0.7,85,0.00,,---,0.01,VWS V14.01,2013-01-13 02:51:00,
2013-01-12 18:52:00,27.0,23.1,30.65,NE,45,0.2,0.4,85,0.00,,---,0.01,VWS V14.01,2013-01-13 02:52:00,
2013-01-12 18:53:00,27.0,23.1,30.65,NE,45,0.0,0.4,85,0.00,,---,0.01,VWS V14.01,2013-01-13 02:53:00,
2013-01-12 18:54:00,27.0,23.1,30.65,NE,45,0.0,0.0,85,0.00,,---,0.01,VWS V14.01,2013-01-13 02:54:00,
2013-01-12 18:55:00,27.0,23.1,30.65,NE,45,0.0,0.0,85,0.00,,---,0.01,VWS V14.01,2013-01-13 02:55:00,
2013-01-12 18:56:00,27.0,23.1,30.65,NE,45,0.0,0.0,85,0.00,,---,0.01,VWS V14.01,2013-01-13 02:56:00,
2013-01-12 18:57:00,27.0,23.1,30.65,NE,45,0.0,0.0,85,0.00,,---,0.01,VWS V14.01,2013-01-13 02:57:00,
2013-01-12 18:58:00,27.0,23.1,30.65,NE,45,0.7,0.7,85,0.00,,---,0.01,VWS V14.01,2013-01-13 02:58:00,
2013-01-12 18:59:00,27.0,23.1,30.65,NE,45,0.4,0.7,85,0.00,,---,0.01,VWS V14.01,2013-01-13 02:59:00,
2013-01-12 19:00:00,27.0,23.1,30.65,NE,45,0.4,0.4,85,0.00,,---,0.01,VWS V14.01,2013-01-13 03:00:00,
2013-01-12 19:01:00,27.0,23.1,30.65,NE,45,0.4,0.4,85,0.00,,---,0.01,VWS V14.01,2013-01-13 03:01:00,
2013-01-12 19:02:00,27.0,23.1,30.65,NE,45,0.7,0.7,85,0.00,,---,0.01,VWS V14.01,2013-01-13 03:02:00,
2013-01-12 19:03:00,27.0,23.1,30.65,NE,45,0.9,0.9,85,0.00,,---,0.01,VWS V14.01,2013-01-13 03:03:00,
2013-01-12 19:04:00,27.0,23.1,30.65,NE,45,1.6,1.6,85,0.00,,---,0.01,VWS V14.01,2013-01-13 03:04:00,
2013-01-12 19:05:00,27.0,23.1,30.65,NE,45,1.1,1.6,85,0.00,,---,0.01,VWS V14.01,2013-01-13 03:05:00,
2013-01-12 19:06:00,27.0,23.1,30.65,NE,45,0.9,1.1,85,0.00,,---,0.01,VWS V14.01,2013-01-13 03:06:00,
2013-01-12 19:07:00,27.0,23.1,30.65,NE,45,1.1,1.1,85,0.00,,---,0.01,VWS V14.01,2013-01-13 03:07:00,
2013-01-12 19:08:00,27.0,23.1,30.65,NE,45,1.1,1.1,85,0.00,,---,0.01,VWS V14.01,2013-01-13 03:08:00,
2013-01-12 19:09:00,27.0,23.1,30.65,NE,45,0.9,1.1,85,0.00,,---,0.01,VWS V14.01,2013-01-13 03:09:00,
2013-01-12 19:10:00,27.0,23.1,30.65,NE,45,0.7,0.9,85,0.00,,---,0.01,VWS V14.01,2013-01-13 03:10:00,
2013-01-12 19:11:00,27.0,23.1,30.65,NE,45,1.1,1.1,85,0.00,,---,0.01,VWS V14.01,2013-01-13 03:11:00,
2013-01-12 19:12:00,27.0,23.1,30.65,NE,45,0.7,0.7,85,0.00,,---,0.01,VWS V14.01,2013-01-13 03:12:00,
2013-01-12 19:15:00,27.0,23.1,30.65,NE,45,0.7,0.7,85,0.00,,---,0.01,VWS V14.01,2013-01-13 03:15:00,
2013-01-12 19:16:00,27.0,23.1,30.65,NE,45,1.3,1.3,85,0.00,,---,0.01,VWS V14.01,2013-01-13 03:16:00,
2013-01-12 19:17:00,27.0,23.1,30.65,NE,45,1.3,1.3,85,0.00,,---,0.01,VWS V14.01,2013-01-13 03:17:00,
2013-01-12 19:18:00,27.0,23.1,30.65,NE,45,1.3,1.3,85,0.00,,---,0.01,VWS V14.01,2013-01-13 03:18:00,
2013-01-12 19:19:00,27.0,23.1,30.65,NE,45,1.3,1.8,85,0.00,,---,0.01,VWS V14.01,2013-01-13 03:19:00,
2013-01-12 19:20:00,27.0,23.1,30.65,NE,45,1.3,1.3,85,0.00,,---,0.01,VWS V14.01,2013-01-13 03:20:00,
2013-01-12 19:21:00,27.2,23.3,30.65,NE,45,1.1,1.3,85,0.00,,---,0.01,VWS V14.01,2013-01-13 03:21:00,
2013-01-12 19:22:00,27.0,23.1,30.65,NE,45,0.4,0.7,85,0.00,,---,0.01,VWS V14.01,2013-01-13 03:22:00,
2013-01-12 19:23:00,27.2,23.3,30.65,NE,45,0.4,0.7,85,0.00,,---,0.01,VWS V14.01,2013-01-13 03:23:00,
2013-01-12 19:24:00,27.0,23.1,30.65,NE,45,0.4,0.4,85,0.00,,---,0.01,VWS V14.01,2013-01-13 03:24:00,
2013-01-12 19:25:00,27.0,23.1,30.65,NE,45,0.4,0.4,85,0.00,,---,0.01,VWS V14.01,2013-01-13 03:25:00,
2013-01-12 19:26:00,27.2,23.3,30.65,NE,45,0.0,0.4,85,0.00,,---,0.01,VWS V14.01,2013-01-13 03:26:00,
2013-01-12 19:27:00,27.2,23.3,30.65,NE,45,0.0,0.0,85,0.00,,---,0.02,VWS V14.01,2013-01-13 03:27:00,
2013-01-12 19:28:00,27.2,23.3,30.65,NE,45,0.0,0.0,85,0.00,,---,0.01,VWS V14.01,2013-01-13 03:28:00,
2013-01-12 19:29:00,27.0,23.1,30.65,NE,45,0.0,0.0,85,0.00,,---,0.01,VWS V14.01,2013-01-13 03:29:00,
2013-01-12 19:30:00,27.0,23.1,30.65,NE,45,0.0,0.0,85,0.00,,---,0.01,VWS V14.01,2013-01-13 03:30:00,
2013-01-12 19:31:00,27.2,23.3,30.64,NE,45,0.0,0.0,85,0.00,,---,0.01,VWS V14.01,2013-01-13 03:31:00,
2013-01-12 19:32:00,27.0,23.1,30.65,NE,45,0.0,0.0,85,0.00,,---,0.01,VWS V14.01,2013-01-13 03:32:00,
2013-01-12 19:33:00,27.0,23.1,30.65,NE,45,0.0,0.0,85,0.00,,---,0.01,VWS V14.01,2013-01-13 03:33:00,
2013-01-12 19:34:00,27.2,23.3,30.64,NE,45,0.0,0.0,85,0.00,,---,0.01,VWS V14.01,2013-01-13 03:34:00,
2013-01-12 19:35:00,27.2,23.6,30.64,NE,45,0.0,0.0,86,0.00,,---,0.01,VWS V14.01,2013-01-13 03:35:00,
2013-01-12 19:36:00,27.2,23.6,30.64,NE,45,0.0,0.0,86,0.00,,---,0.01,VWS V14.01,2013-01-13 03:36:00,
2013-01-12 19:37:00,27.0,23.4,30.64,NE,45,0.0,0.0,86,0.00,,---,0.01,VWS V14.01,2013-01-13 03:37:00,
2013-01-12 19:38:00,27.0,23.4,30.65,NE,45,0.0,0.0,86,0.00,,---,0.01,VWS V14.01,2013-01-13 03:38:00,
2013-01-12 19:39:00,27.0,23.4,30.65,NE,45,0.0,0.0,86,0.00,,---,0.01,VWS V14.01,2013-01-13 03:39:00,
2013-01-12 19:40:00,27.0,23.4,30.64,NE,45,0.0,0.0,86,0.00,,---,0.01,VWS V14.01,2013-01-13 03:40:00,
2013-01-12 19:41:00,27.0,23.4,30.64,NE,45,0.0,0.0,86,0.00,,---,0.01,VWS V14.01,2013-01-13 03:41:00,
2013-01-12 19:42:00,27.0,23.4,30.64,NE,45,0.7,0.7,86,0.00,,---,0.01,VWS V14.01,2013-01-13 03:42:00,
2013-01-12 19:43:00,27.0,23.4,30.64,NE,45,0.7,0.7,86,0.00,,---,0.01,VWS V14.01,2013-01-13 03:43:00,
2013-01-12 19:44:00,27.0,23.4,30.64,NE,45,0.4,0.7,86,0.00,,---,0.01,VWS V14.01,2013-01-13 03:44:00,
2013-01-12 19:45:00,27.0,23.4,30.64,NE,45,0.7,0.7,86,0.00,,---,0.01,VWS V14.01,2013-01-13 03:45:00,
2013-01-12 19:46:00,27.0,23.4,30.64,NE,45,0.4,0.7,86,0.00,,---,0.01,VWS V14.01,2013-01-13 03:46:00,
2013-01-12 19:47:00,27.0,23.4,30.64,NE,45,0.4,0.4,86,0.00,,---,0.01,VWS V14.01,2013-01-13 03:47:00,
2013-01-12 19:48:00,27.0,23.4,30.65,NE,45,0.4,0.4,86,0.00,,---,0.01,VWS V14.01,2013-01-13 03:48:00,
2013-01-12 19:49:00,27.0,23.4,30.64,NE,45,0.0,0.4,86,0.00,,---,0.01,VWS V14.01,2013-01-13 03:49:00,
2013-01-12 19:50:00,27.0,23.4,30.65,NE,45,0.0,0.0,86,0.00,,---,0.01,VWS V14.01,2013-01-13 03:50:00,
2013-01-12 19:51:00,27.0,23.4,30.65,NE,45,0.0,0.0,86,0.00,,---,0.01,VWS V14.01,2013-01-13 03:51:00,
2013-01-12 19:52:00,27.0,23.4,30.64,NE,45,0.0,0.0,86,0.00,,---,0.01,VWS V14.01,2013-01-13 03:52:00,
2013-01-12 19:53:00,27.0,23.4,30.64,NE,45,0.0,0.0,86,0.00,,---,0.01,VWS V14.01,2013-01-13 03:53:00,
2013-01-12 19:54:00,27.0,23.4,30.64,NE,45,0.0,0.0,86,0.00,,---,0.01,VWS V14.01,2013-01-13 03:54:00,
2013-01-12 19:55:00,27.0,23.4,30.64,NE,45,0.0,0.0,86,0.00,,---,0.01,VWS V14.01,2013-01-13 03:55:00,
2013-01-12 19:56:00,27.0,23.4,30.64,NE,45,0.0,0.0,86,0.00,,---,0.01,VWS V14.01,2013-01-13 03:56:00,
2013-01-12 19:57:00,27.0,23.4,30.64,NE,45,0.0,0.0,86,0.00,,---,0.01,VWS V14.01,2013-01-13 03:57:00,
2013-01-12 19:58:00,26.8,23.2,30.64,NE,45,0.0,0.0,86,0.00,,---,0.01,VWS V14.01,2013-01-13 03:58:00,
2013-01-12 19:59:00,26.8,23.2,30.64,NE,45,0.0,0.0,86,0.00,,---,0.01,VWS V14.01,2013-01-13 03:59:00,
2013-01-12 20:00:00,26.8,23.2,30.64,NE,45,0.0,0.0,86,0.00,,---,0.01,VWS V14.01,2013-01-13 04:00:00,
2013-01-12 20:01:00,26.8,23.2,30.64,NE,45,0.0,0.0,86,0.00,,---,0.01,VWS V14.01,2013-01-13 04:01:00,
2013-01-12 20:02:00,26.8,23.2,30.64,NE,45,0.0,0.0,86,0.00,,---,0.01,VWS V14.01,2013-01-13 04:02:00,
2013-01-12 20:03:00,26.8,23.2,30.64,NE,45,0.0,0.0,86,0.00,,---,0.01,VWS V14.01,2013-01-13 04:03:00,
2013-01-12 20:04:00,26.6,23.0,30.64,NE,45,0.0,0.0,86,0.00,,---,0.01,VWS V14.01,2013-01-13 04:04:00,
2013-01-12 20:05:00,26.6,23.0,30.64,NE,45,0.0,0.0,86,0.00,,---,0.01,VWS V14.01,2013-01-13 04:05:00,
2013-01-12 20:06:00,26.6,23.0,30.64,NE,45,0.4,0.4,86,0.00,,---,0.01,VWS V14.01,2013-01-13 04:06:00,
2013-01-12 20:07:00,26.6,23.0,30.64,NE,45,0.4,0.4,86,0.00,,---,0.01,VWS V14.01,2013-01-13 04:07:00,
2013-01-12 20:08:00,26.6,23.0,30.64,NE,45,0.0,0.4,86,0.00,,---,0.01,VWS V14.01,2013-01-13 04:08:00,
2013-01-12 20:09:00,26.6,23.0,30.64,NE,45,0.0,0.0,86,0.00,,---,0.01,VWS V14.01,2013-01-13 04:09:00,
2013-01-12 20:10:00,26.6,23.0,30.64,NE,45,0.0,0.0,86,0.00,,---,0.01,VWS V14.01,2013-01-13 04:10:00,
2013-01-12 20:11:00,26.6,23.0,30.64,NE,45,0.0,0.0,86,0.00,,---,0.01,VWS V14.01,2013-01-13 04:11:00,
2013-01-12 20:12:00,26.5,22.9,30.64,NE,45,0.0,0.0,86,0.00,,---,0.01,VWS V14.01,2013-01-13 04:12:00,
2013-01-12 20:13:00,26.5,22.9,30.64,NE,45,0.0,0.0,86,0.00,,---,0.01,VWS V14.01,2013-01-13 04:13:00,
2013-01-12 20:14:00,26.5,22.9,30.65,NE,45,0.0,0.0,86,0.00,,---,0.01,VWS V14.01,2013-01-13 04:14:00,
2013-01-12 20:15:00,26.5,22.9,30.65,NE,45,0.0,0.0,86,0.00,,---,0.01,VWS V14.01,2013-01-13 04:15:00,
2013-01-12 20:16:00,26.5,22.9,30.64,NE,45,0.0,0.0,86,0.00,,---,0.01,VWS V14.01,2013-01-13 04:16:00,
2013-01-12 20:17:00,26.5,22.9,30.64,NE,45,0.0,0.0,86,0.00,,---,0.01,VWS V14.01,2013-01-13 04:17:00,
2013-01-12 20:18:00,26.5,22.9,30.65,NE,45,0.0,0.0,86,0.00,,---,0.01,VWS V14.01,2013-01-13 04:18:00,
2013-01-12 20:19:00,26.5,22.9,30.65,NE,45,0.0,0.0,86,0.00,,---,0.01,VWS V14.01,2013-01-13 04:19:00,
2013-01-12 20:20:00,26.5,22.9,30.65,NE,45,0.0,0.0,86,0.00,,---,0.01,VWS V14.01,2013-01-13 04:20:00,
2013-01-12 20:21:00,26.5,22.9,30.65,NE,45,0.0,0.0,86,0.00,,---,0.01,VWS V14.01,2013-01-13 04:21:00,
2013-01-12 20:22:00,26.3,22.7,30.64,NE,45,0.0,0.0,86,0.00,,---,0.01,VWS V14.01,2013-01-13 04:22:00,
2013-01-12 20:23:00,26.5,22.9,30.64,NE,45,0.0,0.0,86,0.00,,---,0.01,VWS V14.01,2013-01-13 04:23:00,
2013-01-12 20:24:00,26.3,22.7,30.64,NE,45,0.0,0.0,86,0.00,,---,0.01,VWS V14.01,2013-01-13 04:24:00,
2013-01-12 20:25:00,26.3,22.7,30.64,NE,45,0.0,0.0,86,0.00,,---,0.01,VWS V14.01,2013-01-13 04:25:00,
2013-01-12 20:26:00,26.3,22.7,30.64,NE,45,0.0,0.0,86,0.00,,---,0.01,VWS V14.01,2013-01-13 04:26:00,
2013-01-12 20:27:00,26.3,22.7,30.64,NE,45,0.0,0.0,86,0.00,,---,0.01,VWS V14.01,2013-01-13 04:27:00,
2013-01-12 20:28:00,26.3,22.7,30.64,NE,45,0.0,0.0,86,0.00,,---,0.01,VWS V14.01,2013-01-13 04:28:00,
2013-01-12 20:29:00,26.3,22.7,30.64,NE,45,0.0,0.0,86,0.00,,---,0.01,VWS V14.01,2013-01-13 04:29:00,
2013-01-12 20:30:00,26.3,22.7,30.64,NE,45,0.4,0.4,86,0.00,,---,0.01,VWS V14.01,2013-01-13 04:30:00,
2013-01-12 20:31:00,26.3,22.7,30.64,NE,45,0.2,0.4,86,0.00,,---,0.01,VWS V14.01,2013-01-13 04:31:00,
2013-01-12 20:32:00,26.3,23.0,30.64,NE,45,0.7,0.7,87,0.00,,---,0.01,VWS V14.01,2013-01-13 04:32:00,
2013-01-12 20:33:00,26.3,23.0,30.64,NE,45,0.7,0.7,87,0.00,,---,0.01,VWS V14.01,2013-01-13 04:33:00,
2013-01-12 20:34:00,26.3,23.0,30.63,NE,45,0.4,0.7,87,0.00,,---,0.01,VWS V14.01,2013-01-13 04:34:00,
2013-01-12 20:35:00,26.1,22.8,30.63,NE,45,0.0,0.4,87,0.00,,---,0.01,VWS V14.01,2013-01-13 04:35:00,
2013-01-12 20:36:00,26.1,22.8,30.63,NE,45,1.1,1.1,87,0.00,,---,0.01,VWS V14.01,2013-01-13 04:36:00,
2013-01-12 20:37:00,26.1,22.8,30.63,NE,45,0.4,0.7,87,0.00,,---,0.01,VWS V14.01,2013-01-13 04:37:00,
2013-01-12 20:38:00,26.1,22.8,30.63,NE,45,0.4,0.7,87,0.00,,---,0.01,VWS V14.01,2013-01-13 04:38:00,
2013-01-12 20:39:00,26.1,22.8,30.64,NE,45,0.4,1.1,87,0.00,,---,0.01,VWS V14.01,2013-01-13 04:39:00,
2013-01-12 20:40:00,25.9,22.6,30.64,NE,45,0.4,0.4,87,0.00,,---,0.01,VWS V14.01,2013-01-13 04:40:00,
2013-01-12 20:41:00,25.9,22.6,30.64,NE,45,0.0,0.4,87,0.00,,---,0.01,VWS V14.01,2013-01-13 04:41:00,
2013-01-12 20:42:00,25.9,22.6,30.64,NE,45,0.7,0.7,87,0.00,,---,0.01,VWS V14.01,2013-01-13 04:42:00,
2013-01-12 20:43:00,25.9,22.6,30.64,NE,45,0.2,0.7,87,0.00,,---,0.01,VWS V14.01,2013-01-13 04:43:00,
2013-01-12 20:44:00,25.9,22.6,30.64,NE,45,0.0,0.2,87,0.00,,---,0.01,VWS V14.01,2013-01-13 04:44:00,
2013-01-12 20:45:00,25.9,22.6,30.64,NE,45,0.0,0.0,87,0.00,,---,0.01,VWS V14.01,2013-01-13 04:45:00,
2013-01-12 20:46:00,25.9,22.6,30.64,NE,45,0.0,0.0,87,0.00,,---,0.01,VWS V14.01,2013-01-13 04:46:00,
2013-01-12 20:47:00,25.9,22.6,30.64,NE,45,0.0,0.0,87,0.00,,---,0.01,VWS V14.01,2013-01-13 04:47:00,
2013-01-12 20:48:00,25.9,22.6,30.64,NE,45,0.0,0.0,87,0.00,,---,0.01,VWS V14.01,2013-01-13 04:48:00,
2013-01-12 20:49:00,25.9,22.6,30.64,NE,45,0.0,0.0,87,0.00,,---,0.01,VWS V14.01,2013-01-13 04:49:00,
2013-01-12 20:50:00,25.9,22.6,30.64,NE,45,0.0,0.0,87,0.00,,---,0.01,VWS V14.01,2013-01-13 04:50:00,
2013-01-12 20:51:00,25.9,22.6,30.64,NE,45,0.0,0.0,87,0.00,,---,0.01,VWS V14.01,2013-01-13 04:51:00,
2013-01-12 20:52:00,25.7,22.4,30.64,NE,45,0.0,0.0,87,0.00,,---,0.01,VWS V14.01,2013-01-13 04:52:00,
2013-01-12 20:53:00,25.7,22.4,30.64,NE,45,0.4,0.4,87,0.00,,---,0.01,VWS V14.01,2013-01-13 04:53:00,
2013-01-12 20:54:00,25.7,22.4,30.64,NE,45,0.4,0.4,87,0.00,,---,0.01,VWS V14.01,2013-01-13 04:54:00,
2013-01-12 20:55:00,25.7,22.4,30.65,NE,45,0.0,0.4,87,0.00,,---,0.01,VWS V14.01,2013-01-13 04:55:00,
2013-01-12 20:56:00,25.7,22.4,30.64,NE,45,0.0,0.0,87,0.00,,---,0.01,VWS V14.01,2013-01-13 04:56:00,
2013-01-12 20:57:00,25.7,22.4,30.65,NE,45,0.0,0.0,87,0.00,,---,0.01,VWS V14.01,2013-01-13 04:57:00,
2013-01-12 20:58:00,25.7,22.4,30.65,NE,45,0.0,0.0,87,0.00,,---,0.01,VWS V14.01,2013-01-13 04:58:00,
2013-01-12 20:59:00,25.7,22.4,30.65,NE,45,0.0,0.0,87,0.00,,---,0.01,VWS V14.01,2013-01-13 04:59:00,
2013-01-12 21:00:00,25.7,22.4,30.65,NE,45,0.0,0.0,87,0.00,,---,0.01,VWS V14.01,2013-01-13 05:00:00,
2013-01-12 21:01:00,25.7,22.4,30.65,NE,45,0.0,0.0,87,0.00,,---,0.01,VWS V14.01,2013-01-13 05:01:00,
2013-01-12 21:02:00,25.6,22.3,30.65,NE,45,0.0,0.0,87,0.00,,---,0.01,VWS V14.01,2013-01-13 05:02:00,
2013-01-12 21:03:00,25.6,22.3,30.65,NE,45,0.0,0.0,87,0.00,,---,0.01,VWS V14.01,2013-01-13 05:03:00,
2013-01-12 21:04:00,25.6,22.3,30.65,NE,45,0.0,0.0,87,0.00,,---,0.01,VWS V14.01,2013-01-13 05:04:00,
2013-01-12 21:05:00,25.6,22.3,30.65,NE,45,0.0,0.0,87,0.00,,---,0.01,VWS V14.01,2013-01-13 05:05:00,
2013-01-12 21:06:00,25.6,22.3,30.65,NE,45,0.0,0.0,87,0.00,,---,0.01,VWS V14.01,2013-01-13 05:06:00,
2013-01-12 21:07:00,25.6,22.3,30.65,NE,45,0.0,0.0,87,0.00,,---,0.01,VWS V14.01,2013-01-13 05:07:00,
2013-01-12 21:08:00,25.6,22.3,30.65,NE,45,0.0,0.0,87,0.00,,---,0.01,VWS V14.01,2013-01-13 05:08:00,
2013-01-12 21:09:00,25.6,22.3,30.65,NE,45,0.0,0.0,87,0.00,,---,0.01,VWS V14.01,2013-01-13 05:09:00,
2013-01-12 21:10:00,25.6,22.3,30.65,NE,45,0.0,0.0,87,0.00,,---,0.01,VWS V14.01,2013-01-13 05:10:00,
2013-01-12 21:11:00,25.6,22.3,30.65,NE,45,0.0,0.0,87,0.00,,---,0.01,VWS V14.01,2013-01-13 05:11:00,
2013-01-12 21:12:00,25.6,22.3,30.65,NE,45,0.0,0.0,87,0.00,,---,0.01,VWS V14.01,2013-01-13 05:12:00,
2013-01-12 21:13:00,25.6,22.3,30.65,NE,45,0.0,0.0,87,0.00,,---,0.01,VWS V14.01,2013-01-13 05:13:00,
2013-01-12 21:14:00,25.6,22.3,30.65,NE,45,0.0,0.0,87,0.00,,---,0.01,VWS V14.01,2013-01-13 05:14:00,
2013-01-12 21:15:00,25.6,22.3,30.65,NE,45,0.0,0.0,87,0.00,,---,0.01,VWS V14.01,2013-01-13 05:15:00,
2013-01-12 21:16:00,25.6,22.3,30.65,NE,45,0.0,0.0,87,0.00,,---,0.01,VWS V14.01,2013-01-13 05:16:00,
2013-01-12 21:17:00,25.4,22.1,30.65,NE,45,0.0,0.0,87,0.00,,---,0.01,VWS V14.01,2013-01-13 05:17:00,
2013-01-12 21:18:00,25.4,22.1,30.65,NE,45,0.0,0.0,87,0.00,,---,0.01,VWS V14.01,2013-01-13 05:18:00,
2013-01-12 21:19:00,25.4,22.1,30.65,NE,45,0.0,0.0,87,0.00,,---,0.01,VWS V14.01,2013-01-13 05:19:00,
2013-01-12 21:20:00,25.4,22.1,30.65,NE,45,0.0,0.0,87,0.00,,---,0.01,VWS V14.01,2013-01-13 05:20:00,
2013-01-12 21:21:00,25.4,22.1,30.66,NE,45,0.0,0.0,87,0.00,,---,0.01,VWS V14.01,2013-01-13 05:21:00,
2013-01-12 21:22:00,25.4,22.1,30.66,NE,45,0.0,0.0,87,0.00,,---,0.01,VWS V14.01,2013-01-13 05:22:00,
2013-01-12 21:23:00,25.4,22.1,30.66,NE,45,0.0,0.0,87,0.00,,---,0.01,VWS V14.01,2013-01-13 05:23:00,
2013-01-12 21:24:00,25.4,22.1,30.66,NE,45,0.0,0.0,87,0.00,,---,0.01,VWS V14.01,2013-01-13 05:24:00,
2013-01-12 21:25:00,25.4,22.1,30.66,NE,45,0.0,0.0,87,0.00,,---,0.01,VWS V14.01,2013-01-13 05:25:00,
2013-01-12 21:26:00,25.4,22.1,30.66,NE,45,0.0,0.0,87,0.00,,---,0.01,VWS V14.01,2013-01-13 05:26:00,
2013-01-12 21:27:00,25.4,22.1,30.66,NE,45,0.0,0.0,87,0.00,,---,0.01,VWS V14.01,2013-01-13 05:27:00,
2013-01-12 21:28:00,25.2,21.9,30.66,NE,45,0.0,0.0,87,0.00,,---,0.01,VWS V14.01,2013-01-13 05:28:00,
2013-01-12 21:29:00,25.2,21.9,30.66,NE,45,0.0,0.0,87,0.00,,---,0.01,VWS V14.01,2013-01-13 05:29:00,
2013-01-12 21:30:00,25.2,21.9,30.66,NE,45,0.0,0.0,87,0.00,,---,0.01,VWS V14.01,2013-01-13 05:30:00,
2013-01-12 21:31:00,25.2,21.9,30.66,NE,45,0.0,0.0,87,0.00,,---,0.01,VWS V14.01,2013-01-13 05:31:00,
2013-01-12 21:32:00,25.2,21.9,30.66,NE,45,0.0,0.0,87,0.00,,---,0.01,VWS V14.01,2013-01-13 05:32:00,
2013-01-12 21:33:00,25.2,21.9,30.66,NE,45,0.0,0.0,87,0.00,,---,0.01,VWS V14.01,2013-01-13 05:33:00,
2013-01-12 21:34:00,25.2,21.9,30.66,NE,45,0.4,0.4,87,0.00,,---,0.01,VWS V14.01,2013-01-13 05:34:00,
2013-01-12 21:35:00,25.0,21.7,30.66,NE,45,0.7,0.7,87,0.00,,---,0.01,VWS V14.01,2013-01-13 05:35:00,
2013-01-12 21:36:00,25.0,21.7,30.66,NE,45,1.1,1.1,87,0.00,,---,0.01,VWS V14.01,2013-01-13 05:36:00,
2013-01-12 21:37:00,25.0,21.7,30.66,NE,45,0.4,1.1,87,0.00,,---,0.01,VWS V14.01,2013-01-13 05:37:00,
2013-01-12 21:38:00,25.0,21.7,30.65,NE,45,0.0,0.0,87,0.00,,---,0.01,VWS V14.01,2013-01-13 05:38:00,
2013-01-12 21:39:00,25.0,21.7,30.65,NE,45,0.0,0.0,87,0.00,,---,0.01,VWS V14.01,2013-01-13 05:39:00,
2013-01-12 21:40:00,25.0,21.7,30.65,NE,45,0.0,0.0,87,0.00,,---,0.01,VWS V14.01,2013-01-13 05:40:00,
2013-01-12 21:41:00,25.0,21.7,30.65,NE,45,0.0,0.0,87,0.00,,---,0.01,VWS V14.01,2013-01-13 05:41:00,
2013-01-12 21:42:00,25.0,21.7,30.65,NE,45,0.0,0.0,87,0.00,,---,0.01,VWS V14.01,2013-01-13 05:42:00,
2013-01-12 21:43:00,25.0,21.7,30.65,NE,45,0.0,0.0,87,0.00,,---,0.01,VWS V14.01,2013-01-13 05:43:00,
2013-01-12 21:44:00,25.0,21.7,30.65,NE,45,0.0,0.0,87,0.00,,---,0.01,VWS V14.01,2013-01-13 05:44:00,
2013-01-12 21:45:00,25.0,21.7,30.65,NE,45,0.0,0.0,87,0.00,,---,0.01,VWS V14.01,2013-01-13 05:45:00,
2013-01-12 21:46:00,25.0,21.7,30.65,NE,45,0.2,0.2,87,0.00,,---,0.01,VWS V14.01,2013-01-13 05:46:00,
2013-01-12 21:47:00,24.8,21.5,30.65,NE,45,0.7,0.7,87,0.00,,---,0.01,VWS V14.01,2013-01-13 05:47:00,
2013-01-12 21:48:00,24.8,21.5,30.65,NE,45,0.7,0.7,87,0.00,,---,0.01,VWS V14.01,2013-01-13 05:48:00,
2013-01-12 21:49:00,24.8,21.5,30.65,NE,45,0.7,0.7,87,0.00,,---,0.01,VWS V14.01,2013-01-13 05:49:00,
2013-01-12 21:50:00,24.8,21.5,30.65,NE,45,0.7,0.7,87,0.00,,---,0.01,VWS V14.01,2013-01-13 05:50:00,
2013-01-12 21:51:00,24.8,21.5,30.65,NE,45,0.4,0.7,87,0.00,,---,0.01,VWS V14.01,2013-01-13 05:51:00,
2013-01-12 21:52:00,24.8,21.5,30.65,NE,45,0.4,0.4,87,0.00,,---,0.01,VWS V14.01,2013-01-13 05:52:00,
2013-01-12 21:53:00,24.8,21.5,30.65,NE,45,0.7,0.7,87,0.00,,---,0.01,VWS V14.01,2013-01-13 05:53:00,
2013-01-12 21:54:00,24.8,21.5,30.65,NE,45,0.4,0.7,87,0.00,,---,0.01,VWS V14.01,2013-01-13 05:54:00,
2013-01-12 21:55:00,24.8,21.8,30.65,NE,45,0.4,0.4,88,0.00,,---,0.01,VWS V14.01,2013-01-13 05:55:00,
2013-01-12 21:56:00,24.8,21.8,30.65,NE,45,0.7,0.7,88,0.00,,---,0.01,VWS V14.01,2013-01-13 05:56:00,
2013-01-12 21:57:00,24.8,21.8,30.65,NE,45,0.4,0.7,88,0.00,,---,0.01,VWS V14.01,2013-01-13 05:57:00,
2013-01-12 21:58:00,24.8,21.8,30.65,NE,45,0.9,0.9,88,0.00,,---,0.01,VWS V14.01,2013-01-13 05:58:00,
2013-01-12 21:59:00,24.8,21.8,30.65,NE,45,0.4,0.9,88,0.00,,---,0.01,VWS V14.01,2013-01-13 05:59:00,
2013-01-12 22:00:00,24.8,21.8,30.65,NE,45,0.7,0.7,88,0.00,,---,0.01,VWS V14.01,2013-01-13 06:00:00,
2013-01-12 22:01:00,24.8,21.8,30.65,NE,45,0.4,0.7,88,0.00,,---,0.01,VWS V14.01,2013-01-13 06:01:00,
2013-01-12 22:02:00,24.8,21.8,30.65,NE,45,0.0,0.4,88,0.00,,---,0.01,VWS V14.01,2013-01-13 06:02:00,
2013-01-12 22:03:00,24.8,21.8,30.65,NE,45,0.0,0.0,88,0.00,,---,0.01,VWS V14.01,2013-01-13 06:03:00,
2013-01-12 22:04:00,24.8,21.8,30.66,NE,45,0.0,0.0,88,0.00,,---,0.01,VWS V14.01,2013-01-13 06:04:00,
2013-01-12 22:05:00,24.7,21.7,30.66,NE,45,0.4,0.4,88,0.00,,---,0.01,VWS V14.01,2013-01-13 06:05:00,
2013-01-12 22:06:00,24.7,21.7,30.66,NE,45,0.7,0.7,88,0.00,,---,0.01,VWS V14.01,2013-01-13 06:06:00,
2013-01-12 22:07:00,24.7,21.7,30.66,NE,45,0.4,0.7,88,0.00,,---,0.01,VWS V14.01,2013-01-13 06:07:00,
2013-01-12 22:08:00,24.7,21.7,30.66,NE,45,0.7,0.7,88,0.00,,---,0.01,VWS V14.01,2013-01-13 06:08:00,
2013-01-12 22:09:00,24.7,21.7,30.66,NE,45,0.4,0.7,88,0.00,,---,0.01,VWS V14.01,2013-01-13 06:09:00,
2013-01-12 22:10:00,24.7,21.7,30.66,NE,45,0.4,0.7,88,0.00,,---,0.01,VWS V14.01,2013-01-13 06:10:00,
2013-01-12 22:11:00,24.7,21.7,30.66,NE,45,0.4,0.4,88,0.00,,---,0.01,VWS V14.01,2013-01-13 06:11:00,
2013-01-12 22:12:00,24.7,21.7,30.66,NE,45,0.0,0.4,88,0.00,,---,0.01,VWS V14.01,2013-01-13 06:12:00,
2013-01-12 22:13:00,24.7,21.7,30.66,NE,45,0.0,0.0,88,0.00,,---,0.01,VWS V14.01,2013-01-13 06:13:00,
2013-01-12 22:14:00,24.7,21.7,30.66,NE,45,0.0,0.0,88,0.00,,---,0.01,VWS V14.01,2013-01-13 06:14:00,
2013-01-12 22:15:00,24.7,21.7,30.66,NE,45,0.0,0.0,88,0.00,,---,0.01,VWS V14.01,2013-01-13 06:15:00,
2013-01-12 22:16:00,24.7,21.7,30.66,NE,45,0.0,0.0,88,0.00,,---,0.01,VWS V14.01,2013-01-13 06:16:00,
2013-01-12 22:17:00,24.7,21.7,30.66,NE,45,0.0,0.0,88,0.00,,---,0.01,VWS V14.01,2013-01-13 06:17:00,
2013-01-12 22:18:00,24.7,21.7,30.66,NE,45,0.0,0.0,88,0.00,,---,0.01,VWS V14.01,2013-01-13 06:18:00,
2013-01-12 22:19:00,24.7,21.7,30.66,NE,45,0.0,0.0,88,0.00,,---,0.01,VWS V14.01,2013-01-13 06:19:00,
2013-01-12 22:20:00,24.7,21.7,30.66,NE,45,0.0,0.0,88,0.00,,---,0.01,VWS V14.01,2013-01-13 06:20:00,
2013-01-12 22:21:00,24.5,21.5,30.66,NE,45,0.0,0.0,88,0.00,,---,0.01,VWS V14.01,2013-01-13 06:21:00,
2013-01-12 22:22:00,24.5,21.5,30.66,NE,45,0.0,0.0,88,0.00,,---,0.01,VWS V14.01,2013-01-13 06:22:00,
2013-01-12 22:23:00,24.5,21.5,30.66,NE,45,0.0,0.0,88,0.00,,---,0.01,VWS V14.01,2013-01-13 06:23:00,
2013-01-12 22:24:00,24.5,21.5,30.66,NE,45,0.0,0.0,88,0.00,,---,0.01,VWS V14.01,2013-01-13 06:24:00,
2013-01-12 22:25:00,24.5,21.5,30.66,NE,45,0.0,0.0,88,0.00,,---,0.01,VWS V14.01,2013-01-13 06:25:00,
2013-01-12 22:26:00,24.5,21.5,30.66,NE,45,0.0,0.0,88,0.00,,---,0.01,VWS V14.01,2013-01-13 06:26:00,
2013-01-12 22:27:00,24.5,21.5,30.66,NE,45,0.0,0.0,88,0.00,,---,0.01,VWS V14.01,2013-01-13 06:27:00,
2013-01-12 22:28:00,24.5,21.5,30.66,NE,45,0.0,0.0,88,0.00,,---,0.01,VWS V14.01,2013-01-13 06:28:00,
2013-01-12 22:29:00,24.5,21.5,30.66,NE,45,0.0,0.0,88,0.00,,---,0.01,VWS V14.01,2013-01-13 06:29:00,
2013-01-12 22:30:00,24.5,21.5,30.66,NE,45,0.0,0.0,88,0.00,,---,0.01,VWS V14.01,2013-01-13 06:30:00,
2013-01-12 22:31:00,24.3,21.3,30.67,NE,45,0.4,0.4,88,0.00,,---,0.01,VWS V14.01,2013-01-13 06:31:00,
2013-01-12 22:32:00,24.3,21.3,30.67,NE,45,0.4,0.4,88,0.00,,---,0.01,VWS V14.01,2013-01-13 06:32:00,
2013-01-12 22:33:00,24.3,21.3,30.67,NE,45,0.4,0.4,88,0.00,,---,0.01,VWS V14.01,2013-01-13 06:33:00,
2013-01-12 22:34:00,24.3,21.3,30.67,NE,45,0.2,0.4,88,0.00,,---,0.01,VWS V14.01,2013-01-13 06:34:00,
2013-01-12 22:35:00,24.3,21.3,30.66,NE,45,0.2,0.2,88,0.00,,---,0.01,VWS V14.01,2013-01-13 06:35:00,
2013-01-12 22:36:00,24.3,21.3,30.67,NE,45,0.0,0.2,88,0.00,,---,0.01,VWS V14.01,2013-01-13 06:36:00,
2013-01-12 22:37:00,24.3,21.3,30.67,NE,45,0.0,0.0,88,0.00,,---,0.01,VWS V14.01,2013-01-13 06:37:00,
2013-01-12 22:38:00,24.3,21.3,30.67,NE,45,0.0,0.0,88,0.00,,---,0.01,VWS V14.01,2013-01-13 06:38:00,
2013-01-12 22:39:00,24.3,21.3,30.67,NE,45,0.0,0.0,88,0.00,,---,0.01,VWS V14.01,2013-01-13 06:39:00,
2013-01-12 22:40:00,24.3,21.3,30.67,NE,45,0.0,0.0,88,0.00,,---,0.01,VWS V14.01,2013-01-13 06:40:00,
2013-01-12 22:41:00,24.3,21.3,30.66,NE,45,0.0,0.0,88,0.00,,---,0.01,VWS V14.01,2013-01-13 06:41:00,
2013-01-12 22:42:00,24.3,21.3,30.66,NE,45,0.0,0.0,88,0.00,,---,0.01,VWS V14.01,2013-01-13 06:42:00,
2013-01-12 22:43:00,24.3,21.3,30.66,NE,45,0.0,0.0,88,0.00,,---,0.01,VWS V14.01,2013-01-13 06:43:00,
2013-01-12 22:44:00,24.3,21.3,30.66,NE,45,0.0,0.0,88,0.00,,---,0.01,VWS V14.01,2013-01-13 06:44:00,
2013-01-12 22:45:00,24.3,21.3,30.66,NE,45,0.0,0.0,88,0.00,,---,0.01,VWS V14.01,2013-01-13 06:45:00,
2013-01-12 22:46:00,24.1,21.1,30.66,NE,45,0.0,0.0,88,0.00,,---,0.01,VWS V14.01,2013-01-13 06:46:00,
2013-01-12 22:47:00,24.1,21.1,30.66,NE,45,0.0,0.0,88,0.00,,---,0.01,VWS V14.01,2013-01-13 06:47:00,
2013-01-12 22:48:00,24.1,21.1,30.66,NE,45,0.0,0.0,88,0.00,,---,0.01,VWS V14.01,2013-01-13 06:48:00,
2013-01-12 22:49:00,24.1,21.1,30.67,NE,45,0.4,0.4,88,0.00,,---,0.01,VWS V14.01,2013-01-13 06:49:00,
2013-01-12 22:50:00,24.1,21.1,30.66,NE,45,0.4,0.4,88,0.00,,---,0.01,VWS V14.01,2013-01-13 06:50:00,
2013-01-12 22:51:00,24.1,21.1,30.67,NE,45,0.7,0.7,88,0.00,,---,0.01,VWS V14.01,2013-01-13 06:51:00,
2013-01-12 22:52:00,24.1,21.1,30.67,NE,45,0.7,0.7,88,0.00,,---,0.01,VWS V14.01,2013-01-13 06:52:00,
2013-01-12 22:53:00,24.1,21.1,30.67,NE,45,0.7,0.7,88,0.00,,---,0.01,VWS V14.01,2013-01-13 06:53:00,
2013-01-12 22:54:00,24.1,21.1,30.67,NE,45,0.7,0.7,88,0.00,,---,0.01,VWS V14.01,2013-01-13 06:54:00,
2013-01-12 22:55:00,24.1,21.1,30.67,NE,45,0.4,0.7,88,0.00,,---,0.01,VWS V14.01,2013-01-13 06:55:00,
2013-01-12 22:56:00,24.1,21.1,30.67,NE,45,0.0,0.4,88,0.00,,---,0.01,VWS V14.01,2013-01-13 06:56:00,
2013-01-12 22:57:00,24.1,21.1,30.67,NE,45,0.0,0.0,88,0.00,,---,0.01,VWS V14.01,2013-01-13 06:57:00,
2013-01-12 22:58:00,24.1,21.1,30.67,NE,45,0.0,0.0,88,0.00,,---,0.01,VWS V14.01,2013-01-13 06:58:00,
2013-01-12 22:59:00,24.1,21.1,30.67,NE,45,0.0,0.0,88,0.00,,---,0.01,VWS V14.01,2013-01-13 06:59:00,
2013-01-12 23:00:00,24.1,21.1,30.67,NE,45,0.0,0.0,88,0.00,,---,0.01,VWS V14.01,2013-01-13 07:00:00,
2013-01-12 23:01:00,24.1,21.1,30.67,NE,45,0.7,0.7,88,0.00,,---,0.01,VWS V14.01,2013-01-13 07:01:00,
2013-01-12 23:02:00,24.1,21.1,30.67,NE,45,0.4,0.4,88,0.00,,---,0.01,VWS V14.01,2013-01-13 07:02:00,
2013-01-12 23:03:00,24.1,21.1,30.67,NE,45,0.4,0.9,88,0.00,,---,0.01,VWS V14.01,2013-01-13 07:03:00,
2013-01-12 23:04:00,24.1,21.1,30.67,NE,45,0.4,0.4,88,0.00,,---,0.01,VWS V14.01,2013-01-13 07:04:00,
2013-01-12 23:05:00,24.1,21.1,30.67,NE,45,0.4,0.4,88,0.00,,---,0.01,VWS V14.01,2013-01-13 07:05:00,
2013-01-12 23:06:00,24.1,21.1,30.67,NE,45,0.0,0.4,88,0.00,,---,0.01,VWS V14.01,2013-01-13 07:06:00,
2013-01-12 23:07:00,24.1,21.1,30.67,NE,45,0.0,0.0,88,0.00,,---,0.01,VWS V14.01,2013-01-13 07:07:00,
2013-01-12 23:08:00,24.1,21.1,30.67,NE,45,0.0,0.0,88,0.00,,---,0.01,VWS V14.01,2013-01-13 07:08:00,
2013-01-12 23:09:00,24.1,21.1,30.67,NE,45,0.0,0.0,88,0.00,,---,0.01,VWS V14.01,2013-01-13 07:09:00,
2013-01-12 23:10:00,24.1,21.1,30.67,NE,45,0.0,0.0,88,0.00,,---,0.01,VWS V14.01,2013-01-13 07:10:00,
2013-01-12 23:11:00,24.1,21.1,30.68,NE,45,0.0,0.0,88,0.00,,---,0.01,VWS V14.01,2013-01-13 07:11:00,
2013-01-12 23:12:00,24.1,21.1,30.68,NE,45,0.0,0.0,88,0.00,,---,0.01,VWS V14.01,2013-01-13 07:12:00,
2013-01-12 23:13:00,24.1,21.1,30.68,NE,45,0.0,0.0,88,0.00,,---,0.01,VWS V14.01,2013-01-13 07:13:00,
2013-01-12 23:14:00,24.1,21.1,30.68,NE,45,0.0,0.0,88,0.00,,---,0.01,VWS V14.01,2013-01-13 07:14:00,
2013-01-12 23:15:00,23.9,20.9,30.68,NE,45,0.0,0.0,88,0.00,,---,0.01,VWS V14.01,2013-01-13 07:15:00,
2013-01-12 23:16:00,23.9,20.9,30.68,NE,45,0.0,0.0,88,0.00,,---,0.01,VWS V14.01,2013-01-13 07:16:00,
2013-01-12 23:17:00,23.9,20.9,30.68,NE,45,0.4,0.4,88,0.00,,---,0.01,VWS V14.01,2013-01-13 07:17:00,
2013-01-12 23:18:00,23.9,20.9,30.68,NE,45,0.4,0.4,88,0.00,,---,0.01,VWS V14.01,2013-01-13 07:18:00,
2013-01-12 23:19:00,23.9,20.9,30.68,NE,45,0.4,0.4,88,0.00,,---,0.01,VWS V14.01,2013-01-13 07:19:00,
2013-01-12 23:20:00,23.9,20.9,30.68,NE,45,0.4,0.4,88,0.00,,---,0.01,VWS V14.01,2013-01-13 07:20:00,
2013-01-12 23:21:00,23.9,20.9,30.68,NE,45,0.4,0.4,88,0.00,,---,0.01,VWS V14.01,2013-01-13 07:21:00,
2013-01-12 23:22:00,23.9,20.9,30.67,NE,45,0.2,0.4,88,0.00,,---,0.01,VWS V14.01,2013-01-13 07:22:00,
2013-01-12 23:23:00,23.9,20.9,30.67,NE,45,0.2,0.4,88,0.00,,---,0.01,VWS V14.01,2013-01-13 07:23:00,
2013-01-12 23:24:00,23.9,20.9,30.67,NE,45,0.2,0.2,88,0.00,,---,0.01,VWS V14.01,2013-01-13 07:24:00,
2013-01-12 23:25:00,23.9,20.9,30.67,NE,45,0.0,0.2,88,0.00,,---,0.01,VWS V14.01,2013-01-13 07:25:00,
2013-01-12 23:26:00,23.9,20.9,30.68,NE,45,0.0,0.0,88,0.00,,---,0.01,VWS V14.01,2013-01-13 07:26:00,
2013-01-12 23:27:00,23.9,20.9,30.68,NE,45,0.0,0.0,88,0.00,,---,0.01,VWS V14.01,2013-01-13 07:27:00,
2013-01-12 23:28:00,23.9,20.9,30.68,NE,45,0.0,0.0,88,0.00,,---,0.01,VWS V14.01,2013-01-13 07:28:00,
2013-01-12 23:29:00,23.9,20.9,30.68,NE,45,0.0,0.0,88,0.00,,---,0.01,VWS V14.01,2013-01-13 07:29:00,
2013-01-12 23:30:00,23.9,20.9,30.68,NE,45,0.0,0.0,88,0.00,,---,0.01,VWS V14.01,2013-01-13 07:30:00,
2013-01-12 23:31:00,23.9,20.9,30.68,NE,45,0.0,0.0,88,0.00,,---,0.01,VWS V14.01,2013-01-13 07:31:00,
2013-01-12 23:32:00,23.9,20.9,30.68,NE,45,0.9,0.9,88,0.00,,---,0.01,VWS V14.01,2013-01-13 07:32:00,
2013-01-12 23:33:00,23.9,20.9,30.68,NE,45,0.9,0.9,88,0.00,,---,0.01,VWS V14.01,2013-01-13 07:33:00,
2013-01-12 23:34:00,23.9,20.9,30.68,NE,45,0.4,1.1,88,0.00,,---,0.01,VWS V14.01,2013-01-13 07:34:00,
2013-01-12 23:35:00,23.8,20.8,30.68,NE,45,0.4,0.7,88,0.00,,---,0.01,VWS V14.01,2013-01-13 07:35:00,
2013-01-12 23:36:00,23.9,20.9,30.68,NE,45,0.7,0.7,88,0.00,,---,0.01,VWS V14.01,2013-01-13 07:36:00,
2013-01-12 23:37:00,23.9,20.9,30.69,NE,45,0.7,0.7,88,0.00,,---,0.01,VWS V14.01,2013-01-13 07:37:00,
2013-01-12 23:38:00,23.9,20.9,30.69,NE,45,0.7,0.7,88,0.00,,---,0.01,VWS V14.01,2013-01-13 07:38:00,
2013-01-12 23:39:00,23.9,20.9,30.69,NE,45,0.7,0.7,88,0.00,,---,0.01,VWS V14.01,2013-01-13 07:39:00,
2013-01-12 23:40:00,23.9,20.9,30.68,NE,45,0.7,0.7,88,0.00,,---,0.01,VWS V14.01,2013-01-13 07:40:00,
2013-01-12 23:41:00,23.9,20.9,30.69,NE,45,1.3,1.3,88,0.00,,---,0.01,VWS V14.01,2013-01-13 07:41:00,
2013-01-12 23:42:00,23.9,20.9,30.69,NE,45,1.3,1.3,88,0.00,,---,0.01,VWS V14.01,2013-01-13 07:42:00,
2013-01-12 23:43:00,23.9,20.9,30.69,NE,45,1.1,1.3,88,0.00,,---,0.01,VWS V14.01,2013-01-13 07:43:00,
2013-01-12 23:44:00,23.9,20.9,30.68,NE,45,0.7,1.1,88,0.00,,---,0.01,VWS V14.01,2013-01-13 07:44:00,
2013-01-12 23:45:00,23.9,20.9,30.68,NE,45,0.9,0.9,88,0.00,,---,0.01,VWS V14.01,2013-01-13 07:45:00,
2013-01-12 23:46:00,23.9,20.9,30.68,NE,45,1.1,1.1,88,0.00,,---,0.01,VWS V14.01,2013-01-13 07:46:00,
2013-01-12 23:47:00,23.9,20.9,30.68,NE,45,0.4,0.4,88,0.00,,---,0.01,VWS V14.01,2013-01-13 07:47:00,
2013-01-12 23:48:00,23.9,20.9,30.68,NE,45,0.4,0.4,88,0.00,,---,0.01,VWS V14.01,2013-01-13 07:48:00,
2013-01-12 23:49:00,23.9,20.9,30.68,NE,45,0.4,0.4,88,0.00,,---,0.01,VWS V14.01,2013-01-13 07:49:00,
2013-01-12 23:50:00,23.9,20.9,30.68,NE,45,0.4,0.4,88,0.00,,---,0.01,VWS V14.01,2013-01-13 07:50:00,
2013-01-12 23:51:00,23.9,20.9,30.68,NE,45,0.2,0.4,88,0.00,,---,0.01,VWS V14.01,2013-01-13 07:51:00,
2013-01-12 23:52:00,23.9,20.9,30.68,NE,45,0.7,0.7,88,0.00,,---,0.01,VWS V14.01,2013-01-13 07:52:00,
2013-01-12 23:53:00,23.9,20.9,30.68,NE,45,0.7,0.7,88,0.00,,---,0.01,VWS V14.01,2013-01-13 07:53:00,
2013-01-12 23:54:00,23.9,20.9,30.68,NE,45,0.4,0.7,88,0.00,,---,0.01,VWS V14.01,2013-01-13 07:54:00,
2013-01-12 23:55:00,23.9,20.9,30.69,NE,45,0.7,0.7,88,0.00,,---,0.01,VWS V14.01,2013-01-13 07:55:00,
2013-01-12 23:56:00,23.9,20.9,30.68,NE,45,0.4,0.7,88,0.00,,---,0.01,VWS V14.01,2013-01-13 07:56:00,
2013-01-12 23:57:00,23.9,20.9,30.67,NE,45,0.7,0.7,88,0.00,,---,0.01,VWS V14.01,2013-01-13 07:57:00,
2013-01-12 23:58:00,23.9,20.9,30.67,NE,45,1.1,1.1,88,0.00,,---,0.01,VWS V14.01,2013-01-13 07:58:00,
2013-01-12 23:59:00,23.9,20.9,30.67,NE,45,0.9,1.1,88,0.00,,---,0.01,VWS V14.01,2013-01-13 07:59:00,